<?xml version="1.0" encoding="UTF-8" standalone="no" ?>
<gpx xmlns="http://www.topografix.com/GPX/1/1" xmlns:xsi="http://www.w3.org/2001/XMLSchema-instance" xsi:schemaLocation="http://www.topografix.com/GPX/1/1 http://www.topografix.com/GPX/1/1/gpx.xsd" version="1.1" creator="VisuGPX - https://www.visugpx.com">
  <metadata>
    <name>chemin commune </name>
  </metadata>
  <trk>
    <name><![CDATA[chemin commune _1]]></name>
    <trkseg>
      <trkpt lat="48.511" lon="3.10083">
        <ele>122.1</ele>
        <time>2021-04-21T12:09:40Z</time>
      </trkpt>
      <trkpt lat="48.51105" lon="3.10083">
        <ele>121.9</ele>
        <time>2021-04-21T12:09:45Z</time>
      </trkpt>
      <trkpt lat="48.5111" lon="3.10084">
        <ele>121.7</ele>
        <time>2021-04-21T12:09:51Z</time>
      </trkpt>
      <trkpt lat="48.51115" lon="3.10087">
        <ele>121.4</ele>
        <time>2021-04-21T12:09:57Z</time>
      </trkpt>
      <trkpt lat="48.51118" lon="3.10093">
        <ele>121.2</ele>
        <time>2021-04-21T12:10:03Z</time>
      </trkpt>
      <trkpt lat="48.51122" lon="3.10096">
        <ele>120.9</ele>
        <time>2021-04-21T12:10:08Z</time>
      </trkpt>
      <trkpt lat="48.51127" lon="3.10098">
        <ele>120.5</ele>
        <time>2021-04-21T12:10:12Z</time>
      </trkpt>
      <trkpt lat="48.51133" lon="3.10101">
        <ele>120.1</ele>
        <time>2021-04-21T12:10:16Z</time>
      </trkpt>
      <trkpt lat="48.51138" lon="3.10104">
        <ele>119.6</ele>
        <time>2021-04-21T12:10:20Z</time>
      </trkpt>
      <trkpt lat="48.51144" lon="3.10106">
        <ele>119</ele>
        <time>2021-04-21T12:10:24Z</time>
      </trkpt>
      <trkpt lat="48.51149" lon="3.10108">
        <ele>118.4</ele>
        <time>2021-04-21T12:10:28Z</time>
      </trkpt>
      <trkpt lat="48.51153" lon="3.10111">
        <ele>117.6</ele>
        <time>2021-04-21T12:10:32Z</time>
      </trkpt>
      <trkpt lat="48.51158" lon="3.10115">
        <ele>116.5</ele>
        <time>2021-04-21T12:10:37Z</time>
      </trkpt>
      <trkpt lat="48.5116" lon="3.10121">
        <ele>115.6</ele>
        <time>2021-04-21T12:10:41Z</time>
      </trkpt>
      <trkpt lat="48.51163" lon="3.10125">
        <ele>114.8</ele>
        <time>2021-04-21T12:10:45Z</time>
      </trkpt>
      <trkpt lat="48.51167" lon="3.1013">
        <ele>114.1</ele>
        <time>2021-04-21T12:10:49Z</time>
      </trkpt>
      <trkpt lat="48.51171" lon="3.10137">
        <ele>113.8</ele>
        <time>2021-04-21T12:10:53Z</time>
      </trkpt>
      <trkpt lat="48.51175" lon="3.10141">
        <ele>113.6</ele>
        <time>2021-04-21T12:10:57Z</time>
      </trkpt>
      <trkpt lat="48.51178" lon="3.10146">
        <ele>113.4</ele>
        <time>2021-04-21T12:11:01Z</time>
      </trkpt>
      <trkpt lat="48.51182" lon="3.10152">
        <ele>113.4</ele>
        <time>2021-04-21T12:11:05Z</time>
      </trkpt>
      <trkpt lat="48.51185" lon="3.10157">
        <ele>113.7</ele>
        <time>2021-04-21T12:11:09Z</time>
      </trkpt>
      <trkpt lat="48.51189" lon="3.10163">
        <ele>114</ele>
        <time>2021-04-21T12:11:14Z</time>
      </trkpt>
      <trkpt lat="48.51192" lon="3.10169">
        <ele>114.4</ele>
        <time>2021-04-21T12:11:19Z</time>
      </trkpt>
      <trkpt lat="48.51196" lon="3.10172">
        <ele>115</ele>
        <time>2021-04-21T12:11:24Z</time>
      </trkpt>
      <trkpt lat="48.51201" lon="3.10173">
        <ele>115.2</ele>
        <time>2021-04-21T12:11:29Z</time>
      </trkpt>
      <trkpt lat="48.51204" lon="3.1018">
        <ele>115.6</ele>
        <time>2021-04-21T12:11:34Z</time>
      </trkpt>
      <trkpt lat="48.51206" lon="3.10187">
        <ele>116.3</ele>
        <time>2021-04-21T12:11:39Z</time>
      </trkpt>
      <trkpt lat="48.51209" lon="3.10193">
        <ele>117</ele>
        <time>2021-04-21T12:11:43Z</time>
      </trkpt>
      <trkpt lat="48.51212" lon="3.10198">
        <ele>117.6</ele>
        <time>2021-04-21T12:11:47Z</time>
      </trkpt>
      <trkpt lat="48.51218" lon="3.10201">
        <ele>118.3</ele>
        <time>2021-04-21T12:11:51Z</time>
      </trkpt>
      <trkpt lat="48.51222" lon="3.10203">
        <ele>118.7</ele>
        <time>2021-04-21T12:11:55Z</time>
      </trkpt>
      <trkpt lat="48.51227" lon="3.10206">
        <ele>119.1</ele>
        <time>2021-04-21T12:12:00Z</time>
      </trkpt>
      <trkpt lat="48.51232" lon="3.10208">
        <ele>119.6</ele>
        <time>2021-04-21T12:12:04Z</time>
      </trkpt>
      <trkpt lat="48.51237" lon="3.10209">
        <ele>120.3</ele>
        <time>2021-04-21T12:12:08Z</time>
      </trkpt>
      <trkpt lat="48.51243" lon="3.10211">
        <ele>121.2</ele>
        <time>2021-04-21T12:12:12Z</time>
      </trkpt>
      <trkpt lat="48.51248" lon="3.10212">
        <ele>122</ele>
        <time>2021-04-21T12:12:17Z</time>
      </trkpt>
      <trkpt lat="48.51253" lon="3.10214">
        <ele>122.6</ele>
        <time>2021-04-21T12:12:22Z</time>
      </trkpt>
      <trkpt lat="48.51258" lon="3.10217">
        <ele>123.2</ele>
        <time>2021-04-21T12:12:27Z</time>
      </trkpt>
      <trkpt lat="48.51263" lon="3.10218">
        <ele>123.5</ele>
        <time>2021-04-21T12:12:31Z</time>
      </trkpt>
      <trkpt lat="48.51268" lon="3.10219">
        <ele>123.8</ele>
        <time>2021-04-21T12:12:36Z</time>
      </trkpt>
      <trkpt lat="48.51273" lon="3.10219">
        <ele>123.7</ele>
        <time>2021-04-21T12:12:41Z</time>
      </trkpt>
      <trkpt lat="48.51278" lon="3.10218">
        <ele>123.3</ele>
        <time>2021-04-21T12:12:46Z</time>
      </trkpt>
      <trkpt lat="48.51283" lon="3.10215">
        <ele>122.9</ele>
        <time>2021-04-21T12:12:51Z</time>
      </trkpt>
      <trkpt lat="48.51288" lon="3.10211">
        <ele>122.8</ele>
        <time>2021-04-21T12:12:55Z</time>
      </trkpt>
      <trkpt lat="48.51292" lon="3.10207">
        <ele>122.6</ele>
        <time>2021-04-21T12:12:59Z</time>
      </trkpt>
      <trkpt lat="48.51296" lon="3.10202">
        <ele>122.3</ele>
        <time>2021-04-21T12:13:04Z</time>
      </trkpt>
      <trkpt lat="48.513" lon="3.10196">
        <ele>122.1</ele>
        <time>2021-04-21T12:13:08Z</time>
      </trkpt>
      <trkpt lat="48.51302" lon="3.10189">
        <ele>122.5</ele>
        <time>2021-04-21T12:13:13Z</time>
      </trkpt>
      <trkpt lat="48.51305" lon="3.10183">
        <ele>122.8</ele>
        <time>2021-04-21T12:13:17Z</time>
      </trkpt>
      <trkpt lat="48.51308" lon="3.10177">
        <ele>123.1</ele>
        <time>2021-04-21T12:13:21Z</time>
      </trkpt>
      <trkpt lat="48.51311" lon="3.10169">
        <ele>123.3</ele>
        <time>2021-04-21T12:13:25Z</time>
      </trkpt>
      <trkpt lat="48.51312" lon="3.10162">
        <ele>123.5</ele>
        <time>2021-04-21T12:13:28Z</time>
      </trkpt>
      <trkpt lat="48.51315" lon="3.10155">
        <ele>123.5</ele>
        <time>2021-04-21T12:13:32Z</time>
      </trkpt>
      <trkpt lat="48.51317" lon="3.10149">
        <ele>123.5</ele>
        <time>2021-04-21T12:13:36Z</time>
      </trkpt>
      <trkpt lat="48.51319" lon="3.10143">
        <ele>123.9</ele>
        <time>2021-04-21T12:13:40Z</time>
      </trkpt>
      <trkpt lat="48.5132" lon="3.10137">
        <ele>124.2</ele>
        <time>2021-04-21T12:13:44Z</time>
      </trkpt>
      <trkpt lat="48.51322" lon="3.1013">
        <ele>124.4</ele>
        <time>2021-04-21T12:13:49Z</time>
      </trkpt>
      <trkpt lat="48.51324" lon="3.10123">
        <ele>124.5</ele>
        <time>2021-04-21T12:13:53Z</time>
      </trkpt>
      <trkpt lat="48.51327" lon="3.10117">
        <ele>124.7</ele>
        <time>2021-04-21T12:13:57Z</time>
      </trkpt>
      <trkpt lat="48.5133" lon="3.10111">
        <ele>124.7</ele>
        <time>2021-04-21T12:14:01Z</time>
      </trkpt>
      <trkpt lat="48.51332" lon="3.10103">
        <ele>124.7</ele>
        <time>2021-04-21T12:14:05Z</time>
      </trkpt>
      <trkpt lat="48.51335" lon="3.10097">
        <ele>125.1</ele>
        <time>2021-04-21T12:14:09Z</time>
      </trkpt>
      <trkpt lat="48.51337" lon="3.10092">
        <ele>125.6</ele>
        <time>2021-04-21T12:14:13Z</time>
      </trkpt>
      <trkpt lat="48.51341" lon="3.10086">
        <ele>125.7</ele>
        <time>2021-04-21T12:14:17Z</time>
      </trkpt>
      <trkpt lat="48.51346" lon="3.10087">
        <ele>125.3</ele>
        <time>2021-04-21T12:14:22Z</time>
      </trkpt>
      <trkpt lat="48.51351" lon="3.10089">
        <ele>125.1</ele>
        <time>2021-04-21T12:14:26Z</time>
      </trkpt>
      <trkpt lat="48.51356" lon="3.10092">
        <ele>125.2</ele>
        <time>2021-04-21T12:14:30Z</time>
      </trkpt>
      <trkpt lat="48.51362" lon="3.10093">
        <ele>125.3</ele>
        <time>2021-04-21T12:14:34Z</time>
      </trkpt>
      <trkpt lat="48.51367" lon="3.10094">
        <ele>125.7</ele>
        <time>2021-04-21T12:14:38Z</time>
      </trkpt>
      <trkpt lat="48.51372" lon="3.10097">
        <ele>125.9</ele>
        <time>2021-04-21T12:14:42Z</time>
      </trkpt>
      <trkpt lat="48.51377" lon="3.10099">
        <ele>125.7</ele>
        <time>2021-04-21T12:14:48Z</time>
      </trkpt>
      <trkpt lat="48.51382" lon="3.10101">
        <ele>125.2</ele>
        <time>2021-04-21T12:14:53Z</time>
      </trkpt>
      <trkpt lat="48.51387" lon="3.10103">
        <ele>124.8</ele>
        <time>2021-04-21T12:14:58Z</time>
      </trkpt>
      <trkpt lat="48.51392" lon="3.10106">
        <ele>124.4</ele>
        <time>2021-04-21T12:15:03Z</time>
      </trkpt>
      <trkpt lat="48.51396" lon="3.10109">
        <ele>124.2</ele>
        <time>2021-04-21T12:15:07Z</time>
      </trkpt>
      <trkpt lat="48.51401" lon="3.10112">
        <ele>124.1</ele>
        <time>2021-04-21T12:15:11Z</time>
      </trkpt>
      <trkpt lat="48.51405" lon="3.10114">
        <ele>124</ele>
        <time>2021-04-21T12:15:15Z</time>
      </trkpt>
      <trkpt lat="48.5141" lon="3.10116">
        <ele>124</ele>
        <time>2021-04-21T12:15:19Z</time>
      </trkpt>
      <trkpt lat="48.51415" lon="3.10118">
        <ele>123.9</ele>
        <time>2021-04-21T12:15:24Z</time>
      </trkpt>
      <trkpt lat="48.5142" lon="3.10121">
        <ele>123.7</ele>
        <time>2021-04-21T12:15:30Z</time>
      </trkpt>
      <trkpt lat="48.51423" lon="3.10126">
        <ele>123.5</ele>
        <time>2021-04-21T12:15:34Z</time>
      </trkpt>
      <trkpt lat="48.51427" lon="3.1013">
        <ele>123.4</ele>
        <time>2021-04-21T12:15:38Z</time>
      </trkpt>
      <trkpt lat="48.51432" lon="3.10133">
        <ele>123.1</ele>
        <time>2021-04-21T12:15:42Z</time>
      </trkpt>
      <trkpt lat="48.51437" lon="3.10135">
        <ele>122.7</ele>
        <time>2021-04-21T12:15:46Z</time>
      </trkpt>
      <trkpt lat="48.51442" lon="3.10137">
        <ele>122.4</ele>
        <time>2021-04-21T12:15:50Z</time>
      </trkpt>
      <trkpt lat="48.51446" lon="3.1014">
        <ele>122.1</ele>
        <time>2021-04-21T12:15:54Z</time>
      </trkpt>
      <trkpt lat="48.51451" lon="3.1014">
        <ele>121.9</ele>
        <time>2021-04-21T12:15:59Z</time>
      </trkpt>
      <trkpt lat="48.51456" lon="3.10142">
        <ele>121.8</ele>
        <time>2021-04-21T12:16:03Z</time>
      </trkpt>
      <trkpt lat="48.5146" lon="3.10145">
        <ele>121.7</ele>
        <time>2021-04-21T12:16:07Z</time>
      </trkpt>
      <trkpt lat="48.51464" lon="3.10149">
        <ele>121.5</ele>
        <time>2021-04-21T12:16:11Z</time>
      </trkpt>
      <trkpt lat="48.51469" lon="3.10152">
        <ele>121.2</ele>
        <time>2021-04-21T12:16:15Z</time>
      </trkpt>
      <trkpt lat="48.51474" lon="3.10154">
        <ele>120.9</ele>
        <time>2021-04-21T12:16:20Z</time>
      </trkpt>
      <trkpt lat="48.51479" lon="3.10157">
        <ele>120.6</ele>
        <time>2021-04-21T12:16:25Z</time>
      </trkpt>
      <trkpt lat="48.51484" lon="3.10158">
        <ele>120.4</ele>
        <time>2021-04-21T12:16:29Z</time>
      </trkpt>
      <trkpt lat="48.51488" lon="3.10161">
        <ele>120.1</ele>
        <time>2021-04-21T12:16:33Z</time>
      </trkpt>
      <trkpt lat="48.51493" lon="3.10164">
        <ele>119.9</ele>
        <time>2021-04-21T12:16:37Z</time>
      </trkpt>
      <trkpt lat="48.51497" lon="3.10167">
        <ele>119.5</ele>
        <time>2021-04-21T12:16:42Z</time>
      </trkpt>
      <trkpt lat="48.51502" lon="3.10171">
        <ele>119.1</ele>
        <time>2021-04-21T12:16:48Z</time>
      </trkpt>
      <trkpt lat="48.51506" lon="3.10173">
        <ele>118.7</ele>
        <time>2021-04-21T12:16:52Z</time>
      </trkpt>
      <trkpt lat="48.51512" lon="3.10175">
        <ele>118.6</ele>
        <time>2021-04-21T12:16:55Z</time>
      </trkpt>
      <trkpt lat="48.51518" lon="3.10176">
        <ele>118.6</ele>
        <time>2021-04-21T12:16:58Z</time>
      </trkpt>
      <trkpt lat="48.51523" lon="3.10177">
        <ele>118.5</ele>
        <time>2021-04-21T12:17:01Z</time>
      </trkpt>
      <trkpt lat="48.51528" lon="3.10181">
        <ele>118.5</ele>
        <time>2021-04-21T12:17:05Z</time>
      </trkpt>
      <trkpt lat="48.51533" lon="3.10185">
        <ele>118.2</ele>
        <time>2021-04-21T12:17:09Z</time>
      </trkpt>
      <trkpt lat="48.51539" lon="3.10187">
        <ele>118</ele>
        <time>2021-04-21T12:17:13Z</time>
      </trkpt>
      <trkpt lat="48.51544" lon="3.10191">
        <ele>117.8</ele>
        <time>2021-04-21T12:17:17Z</time>
      </trkpt>
      <trkpt lat="48.51549" lon="3.10193">
        <ele>117.8</ele>
        <time>2021-04-21T12:17:20Z</time>
      </trkpt>
      <trkpt lat="48.51554" lon="3.10195">
        <ele>117.8</ele>
        <time>2021-04-21T12:17:24Z</time>
      </trkpt>
      <trkpt lat="48.51558" lon="3.10198">
        <ele>117.6</ele>
        <time>2021-04-21T12:17:29Z</time>
      </trkpt>
      <trkpt lat="48.51563" lon="3.102">
        <ele>117</ele>
        <time>2021-04-21T12:17:35Z</time>
      </trkpt>
      <trkpt lat="48.51568" lon="3.10201">
        <ele>116.4</ele>
        <time>2021-04-21T12:17:40Z</time>
      </trkpt>
      <trkpt lat="48.51573" lon="3.10202">
        <ele>115.7</ele>
        <time>2021-04-21T12:17:45Z</time>
      </trkpt>
      <trkpt lat="48.51578" lon="3.10202">
        <ele>114.9</ele>
        <time>2021-04-21T12:17:51Z</time>
      </trkpt>
      <trkpt lat="48.51583" lon="3.10202">
        <ele>114.3</ele>
        <time>2021-04-21T12:17:56Z</time>
      </trkpt>
      <trkpt lat="48.51587" lon="3.10202">
        <ele>113.6</ele>
        <time>2021-04-21T12:18:01Z</time>
      </trkpt>
      <trkpt lat="48.51592" lon="3.10199">
        <ele>113.1</ele>
        <time>2021-04-21T12:18:06Z</time>
      </trkpt>
      <trkpt lat="48.51596" lon="3.10195">
        <ele>113</ele>
        <time>2021-04-21T12:18:11Z</time>
      </trkpt>
      <trkpt lat="48.51596" lon="3.10188">
        <ele>113</ele>
        <time>2021-04-21T12:18:14Z</time>
      </trkpt>
      <trkpt lat="48.51597" lon="3.10181">
        <ele>113.1</ele>
        <time>2021-04-21T12:18:17Z</time>
      </trkpt>
      <trkpt lat="48.51598" lon="3.10173">
        <ele>113.3</ele>
        <time>2021-04-21T12:18:20Z</time>
      </trkpt>
      <trkpt lat="48.516" lon="3.10166">
        <ele>114</ele>
        <time>2021-04-21T12:18:23Z</time>
      </trkpt>
      <trkpt lat="48.51602" lon="3.10159">
        <ele>114.8</ele>
        <time>2021-04-21T12:18:26Z</time>
      </trkpt>
      <trkpt lat="48.51604" lon="3.10152">
        <ele>115.9</ele>
        <time>2021-04-21T12:18:31Z</time>
      </trkpt>
      <trkpt lat="48.51606" lon="3.10144">
        <ele>116.8</ele>
        <time>2021-04-21T12:18:36Z</time>
      </trkpt>
      <trkpt lat="48.51608" lon="3.10136">
        <ele>117.5</ele>
        <time>2021-04-21T12:18:40Z</time>
      </trkpt>
      <trkpt lat="48.51609" lon="3.10129">
        <ele>118</ele>
        <time>2021-04-21T12:18:44Z</time>
      </trkpt>
      <trkpt lat="48.5161" lon="3.10121">
        <ele>118.8</ele>
        <time>2021-04-21T12:18:48Z</time>
      </trkpt>
      <trkpt lat="48.51611" lon="3.10112">
        <ele>119.5</ele>
        <time>2021-04-21T12:18:52Z</time>
      </trkpt>
      <trkpt lat="48.51613" lon="3.10105">
        <ele>120.5</ele>
        <time>2021-04-21T12:18:56Z</time>
      </trkpt>
      <trkpt lat="48.51615" lon="3.10097">
        <ele>121.7</ele>
        <time>2021-04-21T12:19:00Z</time>
      </trkpt>
      <trkpt lat="48.51617" lon="3.1009">
        <ele>122.7</ele>
        <time>2021-04-21T12:19:04Z</time>
      </trkpt>
      <trkpt lat="48.5162" lon="3.10084">
        <ele>123.8</ele>
        <time>2021-04-21T12:19:08Z</time>
      </trkpt>
      <trkpt lat="48.51623" lon="3.10077">
        <ele>124.7</ele>
        <time>2021-04-21T12:19:13Z</time>
      </trkpt>
      <trkpt lat="48.51626" lon="3.1007">
        <ele>125.2</ele>
        <time>2021-04-21T12:19:18Z</time>
      </trkpt>
      <trkpt lat="48.51628" lon="3.10064">
        <ele>125.5</ele>
        <time>2021-04-21T12:19:22Z</time>
      </trkpt>
      <trkpt lat="48.51629" lon="3.10056">
        <ele>125.4</ele>
        <time>2021-04-21T12:19:27Z</time>
      </trkpt>
      <trkpt lat="48.51631" lon="3.10048">
        <ele>125.5</ele>
        <time>2021-04-21T12:19:31Z</time>
      </trkpt>
      <trkpt lat="48.51634" lon="3.10042">
        <ele>125.2</ele>
        <time>2021-04-21T12:19:35Z</time>
      </trkpt>
      <trkpt lat="48.51636" lon="3.10036">
        <ele>124.9</ele>
        <time>2021-04-21T12:19:39Z</time>
      </trkpt>
      <trkpt lat="48.51639" lon="3.10029">
        <ele>124.7</ele>
        <time>2021-04-21T12:19:43Z</time>
      </trkpt>
      <trkpt lat="48.5164" lon="3.10022">
        <ele>124.6</ele>
        <time>2021-04-21T12:19:46Z</time>
      </trkpt>
      <trkpt lat="48.51643" lon="3.10016">
        <ele>124.5</ele>
        <time>2021-04-21T12:19:50Z</time>
      </trkpt>
      <trkpt lat="48.51646" lon="3.10009">
        <ele>124.5</ele>
        <time>2021-04-21T12:19:54Z</time>
      </trkpt>
      <trkpt lat="48.51648" lon="3.10003">
        <ele>124.5</ele>
        <time>2021-04-21T12:19:58Z</time>
      </trkpt>
      <trkpt lat="48.5165" lon="3.09997">
        <ele>124.6</ele>
        <time>2021-04-21T12:20:02Z</time>
      </trkpt>
      <trkpt lat="48.51653" lon="3.09989">
        <ele>124.7</ele>
        <time>2021-04-21T12:20:06Z</time>
      </trkpt>
      <trkpt lat="48.51655" lon="3.09983">
        <ele>124.9</ele>
        <time>2021-04-21T12:20:10Z</time>
      </trkpt>
      <trkpt lat="48.51658" lon="3.09977">
        <ele>124.8</ele>
        <time>2021-04-21T12:20:14Z</time>
      </trkpt>
      <trkpt lat="48.5166" lon="3.09971">
        <ele>125</ele>
        <time>2021-04-21T12:20:18Z</time>
      </trkpt>
      <trkpt lat="48.51663" lon="3.09964">
        <ele>125.2</ele>
        <time>2021-04-21T12:20:22Z</time>
      </trkpt>
      <trkpt lat="48.51665" lon="3.09957">
        <ele>125.6</ele>
        <time>2021-04-21T12:20:26Z</time>
      </trkpt>
      <trkpt lat="48.51669" lon="3.09951">
        <ele>126.1</ele>
        <time>2021-04-21T12:20:31Z</time>
      </trkpt>
      <trkpt lat="48.51673" lon="3.09946">
        <ele>126.2</ele>
        <time>2021-04-21T12:20:35Z</time>
      </trkpt>
      <trkpt lat="48.51676" lon="3.09939">
        <ele>126.4</ele>
        <time>2021-04-21T12:20:39Z</time>
      </trkpt>
      <trkpt lat="48.51679" lon="3.09934">
        <ele>126.6</ele>
        <time>2021-04-21T12:20:42Z</time>
      </trkpt>
      <trkpt lat="48.51683" lon="3.09928">
        <ele>127.1</ele>
        <time>2021-04-21T12:20:46Z</time>
      </trkpt>
      <trkpt lat="48.51686" lon="3.09922">
        <ele>127.7</ele>
        <time>2021-04-21T12:20:51Z</time>
      </trkpt>
      <trkpt lat="48.51689" lon="3.09916">
        <ele>128.4</ele>
        <time>2021-04-21T12:20:55Z</time>
      </trkpt>
      <trkpt lat="48.51693" lon="3.0991">
        <ele>129.1</ele>
        <time>2021-04-21T12:20:59Z</time>
      </trkpt>
      <trkpt lat="48.51696" lon="3.09903">
        <ele>129.7</ele>
        <time>2021-04-21T12:21:04Z</time>
      </trkpt>
      <trkpt lat="48.51699" lon="3.09897">
        <ele>129.9</ele>
        <time>2021-04-21T12:21:10Z</time>
      </trkpt>
      <trkpt lat="48.51704" lon="3.09893">
        <ele>130.1</ele>
        <time>2021-04-21T12:21:14Z</time>
      </trkpt>
      <trkpt lat="48.51708" lon="3.09889">
        <ele>130.2</ele>
        <time>2021-04-21T12:21:17Z</time>
      </trkpt>
      <trkpt lat="48.51712" lon="3.09886">
        <ele>130.2</ele>
        <time>2021-04-21T12:21:20Z</time>
      </trkpt>
      <trkpt lat="48.51717" lon="3.09883">
        <ele>130.2</ele>
        <time>2021-04-21T12:21:23Z</time>
      </trkpt>
      <trkpt lat="48.51722" lon="3.09883">
        <ele>130.3</ele>
        <time>2021-04-21T12:21:27Z</time>
      </trkpt>
      <trkpt lat="48.51727" lon="3.09881">
        <ele>130.5</ele>
        <time>2021-04-21T12:21:33Z</time>
      </trkpt>
      <trkpt lat="48.51732" lon="3.09879">
        <ele>130.4</ele>
        <time>2021-04-21T12:21:37Z</time>
      </trkpt>
      <trkpt lat="48.51737" lon="3.09877">
        <ele>130.3</ele>
        <time>2021-04-21T12:21:41Z</time>
      </trkpt>
      <trkpt lat="48.51743" lon="3.09874">
        <ele>129.7</ele>
        <time>2021-04-21T12:21:47Z</time>
      </trkpt>
      <trkpt lat="48.51748" lon="3.09872">
        <ele>129.4</ele>
        <time>2021-04-21T12:21:51Z</time>
      </trkpt>
      <trkpt lat="48.51754" lon="3.0987">
        <ele>129.3</ele>
        <time>2021-04-21T12:21:55Z</time>
      </trkpt>
      <trkpt lat="48.51759" lon="3.09868">
        <ele>129.3</ele>
        <time>2021-04-21T12:21:59Z</time>
      </trkpt>
      <trkpt lat="48.51763" lon="3.09867">
        <ele>129.3</ele>
        <time>2021-04-21T12:22:03Z</time>
      </trkpt>
      <trkpt lat="48.51767" lon="3.09863">
        <ele>129.2</ele>
        <time>2021-04-21T12:22:08Z</time>
      </trkpt>
      <trkpt lat="48.51772" lon="3.0986">
        <ele>128.7</ele>
        <time>2021-04-21T12:22:15Z</time>
      </trkpt>
      <trkpt lat="48.51778" lon="3.09858">
        <ele>128.4</ele>
        <time>2021-04-21T12:22:20Z</time>
      </trkpt>
      <trkpt lat="48.51783" lon="3.09856">
        <ele>128.3</ele>
        <time>2021-04-21T12:22:24Z</time>
      </trkpt>
      <trkpt lat="48.51787" lon="3.09854">
        <ele>128.2</ele>
        <time>2021-04-21T12:22:28Z</time>
      </trkpt>
      <trkpt lat="48.51791" lon="3.0985">
        <ele>127.9</ele>
        <time>2021-04-21T12:22:36Z</time>
      </trkpt>
      <trkpt lat="48.51796" lon="3.0985">
        <ele>127.7</ele>
        <time>2021-04-21T12:22:40Z</time>
      </trkpt>
      <trkpt lat="48.51801" lon="3.09848">
        <ele>127.5</ele>
        <time>2021-04-21T12:22:44Z</time>
      </trkpt>
      <trkpt lat="48.51807" lon="3.09847">
        <ele>127.4</ele>
        <time>2021-04-21T12:22:48Z</time>
      </trkpt>
      <trkpt lat="48.51813" lon="3.09844">
        <ele>127.4</ele>
        <time>2021-04-21T12:22:52Z</time>
      </trkpt>
      <trkpt lat="48.51817" lon="3.09841">
        <ele>127.4</ele>
        <time>2021-04-21T12:22:55Z</time>
      </trkpt>
      <trkpt lat="48.51822" lon="3.09839">
        <ele>127.5</ele>
        <time>2021-04-21T12:22:59Z</time>
      </trkpt>
      <trkpt lat="48.51826" lon="3.09835">
        <ele>127.8</ele>
        <time>2021-04-21T12:23:04Z</time>
      </trkpt>
      <trkpt lat="48.5183" lon="3.09832">
        <ele>128.2</ele>
        <time>2021-04-21T12:23:09Z</time>
      </trkpt>
      <trkpt lat="48.51835" lon="3.0983">
        <ele>128.7</ele>
        <time>2021-04-21T12:23:14Z</time>
      </trkpt>
      <trkpt lat="48.51841" lon="3.09828">
        <ele>129.2</ele>
        <time>2021-04-21T12:23:19Z</time>
      </trkpt>
      <trkpt lat="48.51846" lon="3.09827">
        <ele>129.7</ele>
        <time>2021-04-21T12:23:23Z</time>
      </trkpt>
      <trkpt lat="48.51851" lon="3.09826">
        <ele>130.1</ele>
        <time>2021-04-21T12:23:27Z</time>
      </trkpt>
      <trkpt lat="48.51857" lon="3.09824">
        <ele>130.4</ele>
        <time>2021-04-21T12:23:31Z</time>
      </trkpt>
      <trkpt lat="48.51863" lon="3.09823">
        <ele>130.7</ele>
        <time>2021-04-21T12:23:35Z</time>
      </trkpt>
      <trkpt lat="48.51867" lon="3.09821">
        <ele>130.8</ele>
        <time>2021-04-21T12:23:39Z</time>
      </trkpt>
      <trkpt lat="48.51871" lon="3.09817">
        <ele>131</ele>
        <time>2021-04-21T12:23:44Z</time>
      </trkpt>
      <trkpt lat="48.51875" lon="3.09811">
        <ele>131</ele>
        <time>2021-04-21T12:23:49Z</time>
      </trkpt>
      <trkpt lat="48.51879" lon="3.09806">
        <ele>131</ele>
        <time>2021-04-21T12:23:53Z</time>
      </trkpt>
      <trkpt lat="48.51883" lon="3.09801">
        <ele>131</ele>
        <time>2021-04-21T12:23:57Z</time>
      </trkpt>
      <trkpt lat="48.51887" lon="3.09796">
        <ele>130.9</ele>
        <time>2021-04-21T12:24:02Z</time>
      </trkpt>
      <trkpt lat="48.51891" lon="3.0979">
        <ele>130.5</ele>
        <time>2021-04-21T12:24:06Z</time>
      </trkpt>
      <trkpt lat="48.51894" lon="3.09785">
        <ele>129.9</ele>
        <time>2021-04-21T12:24:10Z</time>
      </trkpt>
      <trkpt lat="48.51898" lon="3.09779">
        <ele>129.1</ele>
        <time>2021-04-21T12:24:14Z</time>
      </trkpt>
      <trkpt lat="48.51902" lon="3.09774">
        <ele>128.2</ele>
        <time>2021-04-21T12:24:19Z</time>
      </trkpt>
      <trkpt lat="48.51906" lon="3.09769">
        <ele>127.5</ele>
        <time>2021-04-21T12:24:24Z</time>
      </trkpt>
      <trkpt lat="48.5191" lon="3.09765">
        <ele>127.1</ele>
        <time>2021-04-21T12:24:28Z</time>
      </trkpt>
      <trkpt lat="48.51914" lon="3.09761">
        <ele>126.9</ele>
        <time>2021-04-21T12:24:32Z</time>
      </trkpt>
      <trkpt lat="48.51917" lon="3.09755">
        <ele>126.5</ele>
        <time>2021-04-21T12:24:36Z</time>
      </trkpt>
      <trkpt lat="48.51921" lon="3.0975">
        <ele>126</ele>
        <time>2021-04-21T12:24:41Z</time>
      </trkpt>
      <trkpt lat="48.51925" lon="3.09744">
        <ele>125.7</ele>
        <time>2021-04-21T12:24:46Z</time>
      </trkpt>
      <trkpt lat="48.51928" lon="3.09739">
        <ele>125.5</ele>
        <time>2021-04-21T12:24:50Z</time>
      </trkpt>
      <trkpt lat="48.51932" lon="3.09734">
        <ele>125.3</ele>
        <time>2021-04-21T12:24:54Z</time>
      </trkpt>
      <trkpt lat="48.51936" lon="3.09728">
        <ele>125.3</ele>
        <time>2021-04-21T12:24:58Z</time>
      </trkpt>
      <trkpt lat="48.51939" lon="3.09723">
        <ele>125.2</ele>
        <time>2021-04-21T12:25:02Z</time>
      </trkpt>
      <trkpt lat="48.51943" lon="3.09717">
        <ele>125</ele>
        <time>2021-04-21T12:25:06Z</time>
      </trkpt>
      <trkpt lat="48.51947" lon="3.09712">
        <ele>125.1</ele>
        <time>2021-04-21T12:25:10Z</time>
      </trkpt>
      <trkpt lat="48.5195" lon="3.09706">
        <ele>125.6</ele>
        <time>2021-04-21T12:25:14Z</time>
      </trkpt>
      <trkpt lat="48.51954" lon="3.097">
        <ele>126.1</ele>
        <time>2021-04-21T12:25:18Z</time>
      </trkpt>
      <trkpt lat="48.51957" lon="3.09695">
        <ele>126.5</ele>
        <time>2021-04-21T12:25:22Z</time>
      </trkpt>
      <trkpt lat="48.51962" lon="3.0969">
        <ele>126.9</ele>
        <time>2021-04-21T12:25:27Z</time>
      </trkpt>
      <trkpt lat="48.51966" lon="3.09687">
        <ele>127</ele>
        <time>2021-04-21T12:25:31Z</time>
      </trkpt>
      <trkpt lat="48.5197" lon="3.09683">
        <ele>127.1</ele>
        <time>2021-04-21T12:25:35Z</time>
      </trkpt>
      <trkpt lat="48.51974" lon="3.09679">
        <ele>127.1</ele>
        <time>2021-04-21T12:25:39Z</time>
      </trkpt>
      <trkpt lat="48.51978" lon="3.09675">
        <ele>127.1</ele>
        <time>2021-04-21T12:25:44Z</time>
      </trkpt>
      <trkpt lat="48.51982" lon="3.09671">
        <ele>126.9</ele>
        <time>2021-04-21T12:25:49Z</time>
      </trkpt>
      <trkpt lat="48.51986" lon="3.09666">
        <ele>126.7</ele>
        <time>2021-04-21T12:25:53Z</time>
      </trkpt>
      <trkpt lat="48.5199" lon="3.09662">
        <ele>126.5</ele>
        <time>2021-04-21T12:25:57Z</time>
      </trkpt>
      <trkpt lat="48.51994" lon="3.09658">
        <ele>126.3</ele>
        <time>2021-04-21T12:26:01Z</time>
      </trkpt>
      <trkpt lat="48.51998" lon="3.09654">
        <ele>126.3</ele>
        <time>2021-04-21T12:26:05Z</time>
      </trkpt>
      <trkpt lat="48.52002" lon="3.0965">
        <ele>126.2</ele>
        <time>2021-04-21T12:26:09Z</time>
      </trkpt>
      <trkpt lat="48.52006" lon="3.09645">
        <ele>126.2</ele>
        <time>2021-04-21T12:26:13Z</time>
      </trkpt>
      <trkpt lat="48.52009" lon="3.0964">
        <ele>126</ele>
        <time>2021-04-21T12:26:17Z</time>
      </trkpt>
      <trkpt lat="48.52012" lon="3.09634">
        <ele>125.5</ele>
        <time>2021-04-21T12:26:21Z</time>
      </trkpt>
      <trkpt lat="48.52015" lon="3.0963">
        <ele>125.2</ele>
        <time>2021-04-21T12:26:25Z</time>
      </trkpt>
      <trkpt lat="48.52019" lon="3.09625">
        <ele>125.3</ele>
        <time>2021-04-21T12:26:29Z</time>
      </trkpt>
      <trkpt lat="48.52023" lon="3.09621">
        <ele>125.5</ele>
        <time>2021-04-21T12:26:33Z</time>
      </trkpt>
      <trkpt lat="48.52027" lon="3.09616">
        <ele>125.5</ele>
        <time>2021-04-21T12:26:37Z</time>
      </trkpt>
      <trkpt lat="48.5203" lon="3.09611">
        <ele>125.7</ele>
        <time>2021-04-21T12:26:41Z</time>
      </trkpt>
      <trkpt lat="48.52034" lon="3.09607">
        <ele>125.8</ele>
        <time>2021-04-21T12:26:45Z</time>
      </trkpt>
      <trkpt lat="48.52038" lon="3.09602">
        <ele>125.9</ele>
        <time>2021-04-21T12:26:49Z</time>
      </trkpt>
      <trkpt lat="48.52042" lon="3.09597">
        <ele>126.1</ele>
        <time>2021-04-21T12:26:53Z</time>
      </trkpt>
      <trkpt lat="48.52046" lon="3.09591">
        <ele>126.3</ele>
        <time>2021-04-21T12:26:57Z</time>
      </trkpt>
      <trkpt lat="48.5205" lon="3.09586">
        <ele>126.5</ele>
        <time>2021-04-21T12:27:01Z</time>
      </trkpt>
      <trkpt lat="48.52054" lon="3.09581">
        <ele>126.7</ele>
        <time>2021-04-21T12:27:05Z</time>
      </trkpt>
      <trkpt lat="48.52058" lon="3.09575">
        <ele>127.2</ele>
        <time>2021-04-21T12:27:09Z</time>
      </trkpt>
      <trkpt lat="48.52061" lon="3.09568">
        <ele>127.6</ele>
        <time>2021-04-21T12:27:13Z</time>
      </trkpt>
      <trkpt lat="48.52064" lon="3.09562">
        <ele>128.1</ele>
        <time>2021-04-21T12:27:17Z</time>
      </trkpt>
      <trkpt lat="48.52065" lon="3.09555">
        <ele>128.6</ele>
        <time>2021-04-21T12:27:21Z</time>
      </trkpt>
      <trkpt lat="48.52066" lon="3.09547">
        <ele>129.1</ele>
        <time>2021-04-21T12:27:25Z</time>
      </trkpt>
      <trkpt lat="48.52068" lon="3.09541">
        <ele>129.3</ele>
        <time>2021-04-21T12:27:29Z</time>
      </trkpt>
      <trkpt lat="48.5207" lon="3.09534">
        <ele>129.6</ele>
        <time>2021-04-21T12:27:33Z</time>
      </trkpt>
      <trkpt lat="48.52071" lon="3.09527">
        <ele>129.9</ele>
        <time>2021-04-21T12:27:37Z</time>
      </trkpt>
      <trkpt lat="48.52071" lon="3.09518">
        <ele>130.5</ele>
        <time>2021-04-21T12:27:41Z</time>
      </trkpt>
      <trkpt lat="48.52072" lon="3.0951">
        <ele>131</ele>
        <time>2021-04-21T12:27:45Z</time>
      </trkpt>
      <trkpt lat="48.52073" lon="3.09503">
        <ele>131.6</ele>
        <time>2021-04-21T12:27:49Z</time>
      </trkpt>
      <trkpt lat="48.52074" lon="3.09496">
        <ele>132.2</ele>
        <time>2021-04-21T12:27:53Z</time>
      </trkpt>
      <trkpt lat="48.52075" lon="3.09488">
        <ele>132.8</ele>
        <time>2021-04-21T12:27:57Z</time>
      </trkpt>
      <trkpt lat="48.52076" lon="3.0948">
        <ele>133.2</ele>
        <time>2021-04-21T12:28:01Z</time>
      </trkpt>
      <trkpt lat="48.52077" lon="3.09472">
        <ele>133.5</ele>
        <time>2021-04-21T12:28:05Z</time>
      </trkpt>
      <trkpt lat="48.52078" lon="3.09465">
        <ele>133.7</ele>
        <time>2021-04-21T12:28:09Z</time>
      </trkpt>
      <trkpt lat="48.52078" lon="3.09457">
        <ele>133.6</ele>
        <time>2021-04-21T12:28:13Z</time>
      </trkpt>
      <trkpt lat="48.52078" lon="3.09449">
        <ele>133.7</ele>
        <time>2021-04-21T12:28:17Z</time>
      </trkpt>
      <trkpt lat="48.52079" lon="3.09441">
        <ele>133.7</ele>
        <time>2021-04-21T12:28:21Z</time>
      </trkpt>
      <trkpt lat="48.52081" lon="3.09434">
        <ele>133.6</ele>
        <time>2021-04-21T12:28:25Z</time>
      </trkpt>
      <trkpt lat="48.52081" lon="3.09427">
        <ele>133.7</ele>
        <time>2021-04-21T12:28:29Z</time>
      </trkpt>
      <trkpt lat="48.52081" lon="3.09419">
        <ele>134</ele>
        <time>2021-04-21T12:28:33Z</time>
      </trkpt>
      <trkpt lat="48.52082" lon="3.09412">
        <ele>134</ele>
        <time>2021-04-21T12:28:37Z</time>
      </trkpt>
      <trkpt lat="48.52084" lon="3.09405">
        <ele>134.1</ele>
        <time>2021-04-21T12:28:41Z</time>
      </trkpt>
      <trkpt lat="48.52085" lon="3.09398">
        <ele>134.5</ele>
        <time>2021-04-21T12:28:45Z</time>
      </trkpt>
      <trkpt lat="48.52085" lon="3.0939">
        <ele>134.8</ele>
        <time>2021-04-21T12:28:49Z</time>
      </trkpt>
      <trkpt lat="48.52086" lon="3.09382">
        <ele>135.1</ele>
        <time>2021-04-21T12:28:53Z</time>
      </trkpt>
      <trkpt lat="48.52086" lon="3.09374">
        <ele>135</ele>
        <time>2021-04-21T12:28:57Z</time>
      </trkpt>
      <trkpt lat="48.52087" lon="3.09367">
        <ele>134.7</ele>
        <time>2021-04-21T12:29:02Z</time>
      </trkpt>
      <trkpt lat="48.52088" lon="3.09359">
        <ele>134.4</ele>
        <time>2021-04-21T12:29:07Z</time>
      </trkpt>
      <trkpt lat="48.52088" lon="3.09351">
        <ele>134.5</ele>
        <time>2021-04-21T12:29:11Z</time>
      </trkpt>
      <trkpt lat="48.52088" lon="3.09343">
        <ele>134.7</ele>
        <time>2021-04-21T12:29:15Z</time>
      </trkpt>
      <trkpt lat="48.52089" lon="3.09336">
        <ele>134.7</ele>
        <time>2021-04-21T12:29:19Z</time>
      </trkpt>
      <trkpt lat="48.5209" lon="3.09328">
        <ele>134.5</ele>
        <time>2021-04-21T12:29:23Z</time>
      </trkpt>
      <trkpt lat="48.5209" lon="3.09321">
        <ele>134.2</ele>
        <time>2021-04-21T12:29:27Z</time>
      </trkpt>
      <trkpt lat="48.52092" lon="3.09314">
        <ele>133.8</ele>
        <time>2021-04-21T12:29:32Z</time>
      </trkpt>
      <trkpt lat="48.52094" lon="3.09308">
        <ele>133.8</ele>
        <time>2021-04-21T12:29:36Z</time>
      </trkpt>
      <trkpt lat="48.52094" lon="3.09301">
        <ele>133.6</ele>
        <time>2021-04-21T12:29:40Z</time>
      </trkpt>
      <trkpt lat="48.52093" lon="3.09293">
        <ele>133.4</ele>
        <time>2021-04-21T12:29:44Z</time>
      </trkpt>
      <trkpt lat="48.52094" lon="3.09285">
        <ele>133.1</ele>
        <time>2021-04-21T12:29:48Z</time>
      </trkpt>
      <trkpt lat="48.52095" lon="3.09278">
        <ele>132.6</ele>
        <time>2021-04-21T12:29:52Z</time>
      </trkpt>
      <trkpt lat="48.52096" lon="3.09271">
        <ele>132.2</ele>
        <time>2021-04-21T12:29:56Z</time>
      </trkpt>
      <trkpt lat="48.52097" lon="3.09264">
        <ele>131.9</ele>
        <time>2021-04-21T12:29:59Z</time>
      </trkpt>
      <trkpt lat="48.52097" lon="3.09257">
        <ele>131.7</ele>
        <time>2021-04-21T12:30:02Z</time>
      </trkpt>
      <trkpt lat="48.52098" lon="3.09249">
        <ele>131.4</ele>
        <time>2021-04-21T12:30:06Z</time>
      </trkpt>
      <trkpt lat="48.52099" lon="3.09242">
        <ele>131.3</ele>
        <time>2021-04-21T12:30:11Z</time>
      </trkpt>
      <trkpt lat="48.521" lon="3.09235">
        <ele>130.9</ele>
        <time>2021-04-21T12:30:16Z</time>
      </trkpt>
      <trkpt lat="48.521" lon="3.09227">
        <ele>130.4</ele>
        <time>2021-04-21T12:30:21Z</time>
      </trkpt>
      <trkpt lat="48.52101" lon="3.09219">
        <ele>129.8</ele>
        <time>2021-04-21T12:30:26Z</time>
      </trkpt>
      <trkpt lat="48.52099" lon="3.09212">
        <ele>129.2</ele>
        <time>2021-04-21T12:30:32Z</time>
      </trkpt>
      <trkpt lat="48.52096" lon="3.09205">
        <ele>129</ele>
        <time>2021-04-21T12:30:37Z</time>
      </trkpt>
      <trkpt lat="48.52092" lon="3.09203">
        <ele>129.1</ele>
        <time>2021-04-21T12:30:41Z</time>
      </trkpt>
      <trkpt lat="48.52088" lon="3.09199">
        <ele>129.2</ele>
        <time>2021-04-21T12:30:45Z</time>
      </trkpt>
      <trkpt lat="48.52083" lon="3.09195">
        <ele>129.2</ele>
        <time>2021-04-21T12:30:50Z</time>
      </trkpt>
      <trkpt lat="48.5208" lon="3.09188">
        <ele>129.2</ele>
        <time>2021-04-21T12:30:54Z</time>
      </trkpt>
      <trkpt lat="48.52077" lon="3.09181">
        <ele>129.1</ele>
        <time>2021-04-21T12:30:59Z</time>
      </trkpt>
      <trkpt lat="48.52074" lon="3.09176">
        <ele>128.9</ele>
        <time>2021-04-21T12:31:04Z</time>
      </trkpt>
      <trkpt lat="48.52069" lon="3.09173">
        <ele>128.9</ele>
        <time>2021-04-21T12:31:08Z</time>
      </trkpt>
      <trkpt lat="48.52065" lon="3.0917">
        <ele>128.9</ele>
        <time>2021-04-21T12:31:12Z</time>
      </trkpt>
      <trkpt lat="48.52061" lon="3.09165">
        <ele>129.4</ele>
        <time>2021-04-21T12:31:16Z</time>
      </trkpt>
      <trkpt lat="48.5206" lon="3.09159">
        <ele>130.1</ele>
        <time>2021-04-21T12:31:21Z</time>
      </trkpt>
      <trkpt lat="48.52062" lon="3.09152">
        <ele>130.5</ele>
        <time>2021-04-21T12:31:25Z</time>
      </trkpt>
      <trkpt lat="48.52064" lon="3.09145">
        <ele>130.8</ele>
        <time>2021-04-21T12:31:29Z</time>
      </trkpt>
      <trkpt lat="48.52067" lon="3.09138">
        <ele>131</ele>
        <time>2021-04-21T12:31:33Z</time>
      </trkpt>
      <trkpt lat="48.5207" lon="3.09132">
        <ele>131.1</ele>
        <time>2021-04-21T12:31:36Z</time>
      </trkpt>
      <trkpt lat="48.52074" lon="3.09129">
        <ele>131</ele>
        <time>2021-04-21T12:31:40Z</time>
      </trkpt>
      <trkpt lat="48.52079" lon="3.09128">
        <ele>130.8</ele>
        <time>2021-04-21T12:31:44Z</time>
      </trkpt>
      <trkpt lat="48.52084" lon="3.09129">
        <ele>130.5</ele>
        <time>2021-04-21T12:31:48Z</time>
      </trkpt>
      <trkpt lat="48.52089" lon="3.0913">
        <ele>129.8</ele>
        <time>2021-04-21T12:31:53Z</time>
      </trkpt>
      <trkpt lat="48.52093" lon="3.09125">
        <ele>129.2</ele>
        <time>2021-04-21T12:31:59Z</time>
      </trkpt>
      <trkpt lat="48.52094" lon="3.09117">
        <ele>128.8</ele>
        <time>2021-04-21T12:32:04Z</time>
      </trkpt>
      <trkpt lat="48.52093" lon="3.0911">
        <ele>128.9</ele>
        <time>2021-04-21T12:32:08Z</time>
      </trkpt>
      <trkpt lat="48.52093" lon="3.09102">
        <ele>128.9</ele>
        <time>2021-04-21T12:32:12Z</time>
      </trkpt>
      <trkpt lat="48.52095" lon="3.09096">
        <ele>130.5</ele>
        <time>2021-04-21T12:32:20Z</time>
      </trkpt>
      <trkpt lat="48.52099" lon="3.09091">
        <ele>131.9</ele>
        <time>2021-04-21T12:32:25Z</time>
      </trkpt>
      <trkpt lat="48.52104" lon="3.09092">
        <ele>132.8</ele>
        <time>2021-04-21T12:32:31Z</time>
      </trkpt>
      <trkpt lat="48.5211" lon="3.0909">
        <ele>133.2</ele>
        <time>2021-04-21T12:32:35Z</time>
      </trkpt>
      <trkpt lat="48.52114" lon="3.09088">
        <ele>133.3</ele>
        <time>2021-04-21T12:32:38Z</time>
      </trkpt>
      <trkpt lat="48.52119" lon="3.09085">
        <ele>133.4</ele>
        <time>2021-04-21T12:32:41Z</time>
      </trkpt>
      <trkpt lat="48.52123" lon="3.09081">
        <ele>133.3</ele>
        <time>2021-04-21T12:32:44Z</time>
      </trkpt>
      <trkpt lat="48.52127" lon="3.09076">
        <ele>133.2</ele>
        <time>2021-04-21T12:32:47Z</time>
      </trkpt>
      <trkpt lat="48.52131" lon="3.09073">
        <ele>133</ele>
        <time>2021-04-21T12:32:51Z</time>
      </trkpt>
      <trkpt lat="48.52135" lon="3.0907">
        <ele>132.8</ele>
        <time>2021-04-21T12:32:55Z</time>
      </trkpt>
      <trkpt lat="48.5214" lon="3.09067">
        <ele>132.5</ele>
        <time>2021-04-21T12:33:00Z</time>
      </trkpt>
      <trkpt lat="48.52146" lon="3.09066">
        <ele>132.2</ele>
        <time>2021-04-21T12:33:05Z</time>
      </trkpt>
      <trkpt lat="48.52151" lon="3.09063">
        <ele>131.9</ele>
        <time>2021-04-21T12:33:10Z</time>
      </trkpt>
      <trkpt lat="48.52155" lon="3.09062">
        <ele>131.6</ele>
        <time>2021-04-21T12:33:15Z</time>
      </trkpt>
      <trkpt lat="48.5216" lon="3.0906">
        <ele>131.2</ele>
        <time>2021-04-21T12:33:20Z</time>
      </trkpt>
      <trkpt lat="48.52164" lon="3.09057">
        <ele>131</ele>
        <time>2021-04-21T12:33:24Z</time>
      </trkpt>
      <trkpt lat="48.52168" lon="3.09053">
        <ele>130.8</ele>
        <time>2021-04-21T12:33:29Z</time>
      </trkpt>
      <trkpt lat="48.52172" lon="3.09048">
        <ele>130.6</ele>
        <time>2021-04-21T12:33:33Z</time>
      </trkpt>
      <trkpt lat="48.52175" lon="3.09043">
        <ele>130.3</ele>
        <time>2021-04-21T12:33:37Z</time>
      </trkpt>
      <trkpt lat="48.5218" lon="3.09038">
        <ele>130.2</ele>
        <time>2021-04-21T12:33:41Z</time>
      </trkpt>
      <trkpt lat="48.52184" lon="3.09033">
        <ele>130.1</ele>
        <time>2021-04-21T12:33:45Z</time>
      </trkpt>
      <trkpt lat="48.52189" lon="3.09029">
        <ele>130</ele>
        <time>2021-04-21T12:33:49Z</time>
      </trkpt>
      <trkpt lat="48.52193" lon="3.09027">
        <ele>129.9</ele>
        <time>2021-04-21T12:33:53Z</time>
      </trkpt>
      <trkpt lat="48.52199" lon="3.09026">
        <ele>129.8</ele>
        <time>2021-04-21T12:33:58Z</time>
      </trkpt>
      <trkpt lat="48.52204" lon="3.09025">
        <ele>129.7</ele>
        <time>2021-04-21T12:34:03Z</time>
      </trkpt>
      <trkpt lat="48.52209" lon="3.09023">
        <ele>129.4</ele>
        <time>2021-04-21T12:34:07Z</time>
      </trkpt>
      <trkpt lat="48.52214" lon="3.09019">
        <ele>129.3</ele>
        <time>2021-04-21T12:34:12Z</time>
      </trkpt>
      <trkpt lat="48.52218" lon="3.09017">
        <ele>129.5</ele>
        <time>2021-04-21T12:34:19Z</time>
      </trkpt>
      <trkpt lat="48.52223" lon="3.09015">
        <ele>130.3</ele>
        <time>2021-04-21T12:34:27Z</time>
      </trkpt>
      <trkpt lat="48.52228" lon="3.09013">
        <ele>130.6</ele>
        <time>2021-04-21T12:34:32Z</time>
      </trkpt>
      <trkpt lat="48.52233" lon="3.0901">
        <ele>130.6</ele>
        <time>2021-04-21T12:34:37Z</time>
      </trkpt>
      <trkpt lat="48.52237" lon="3.09008">
        <ele>130.6</ele>
        <time>2021-04-21T12:34:41Z</time>
      </trkpt>
      <trkpt lat="48.52242" lon="3.09007">
        <ele>130.7</ele>
        <time>2021-04-21T12:34:45Z</time>
      </trkpt>
      <trkpt lat="48.52248" lon="3.09005">
        <ele>130.7</ele>
        <time>2021-04-21T12:34:49Z</time>
      </trkpt>
      <trkpt lat="48.52253" lon="3.09003">
        <ele>130.7</ele>
        <time>2021-04-21T12:34:53Z</time>
      </trkpt>
      <trkpt lat="48.52257" lon="3.09001">
        <ele>130.6</ele>
        <time>2021-04-21T12:34:57Z</time>
      </trkpt>
      <trkpt lat="48.52263" lon="3.08999">
        <ele>130.6</ele>
        <time>2021-04-21T12:35:02Z</time>
      </trkpt>
      <trkpt lat="48.52268" lon="3.08996">
        <ele>130.5</ele>
        <time>2021-04-21T12:35:06Z</time>
      </trkpt>
      <trkpt lat="48.52273" lon="3.08994">
        <ele>130.6</ele>
        <time>2021-04-21T12:35:10Z</time>
      </trkpt>
      <trkpt lat="48.52277" lon="3.08991">
        <ele>130.7</ele>
        <time>2021-04-21T12:35:14Z</time>
      </trkpt>
      <trkpt lat="48.5228" lon="3.08985">
        <ele>130.8</ele>
        <time>2021-04-21T12:35:20Z</time>
      </trkpt>
      <trkpt lat="48.52285" lon="3.08984">
        <ele>130.9</ele>
        <time>2021-04-21T12:35:27Z</time>
      </trkpt>
      <trkpt lat="48.5229" lon="3.08982">
        <ele>130.8</ele>
        <time>2021-04-21T12:35:32Z</time>
      </trkpt>
      <trkpt lat="48.52295" lon="3.08979">
        <ele>130.7</ele>
        <time>2021-04-21T12:35:36Z</time>
      </trkpt>
      <trkpt lat="48.52299" lon="3.08977">
        <ele>130.7</ele>
        <time>2021-04-21T12:35:40Z</time>
      </trkpt>
      <trkpt lat="48.52303" lon="3.08974">
        <ele>130.8</ele>
        <time>2021-04-21T12:35:44Z</time>
      </trkpt>
      <trkpt lat="48.52308" lon="3.08971">
        <ele>130.8</ele>
        <time>2021-04-21T12:35:48Z</time>
      </trkpt>
      <trkpt lat="48.52313" lon="3.08969">
        <ele>131</ele>
        <time>2021-04-21T12:35:52Z</time>
      </trkpt>
      <trkpt lat="48.52318" lon="3.08966">
        <ele>131.2</ele>
        <time>2021-04-21T12:35:57Z</time>
      </trkpt>
      <trkpt lat="48.52322" lon="3.08963">
        <ele>131.4</ele>
        <time>2021-04-21T12:36:02Z</time>
      </trkpt>
      <trkpt lat="48.52327" lon="3.0896">
        <ele>131.7</ele>
        <time>2021-04-21T12:36:06Z</time>
      </trkpt>
      <trkpt lat="48.52331" lon="3.08955">
        <ele>131.8</ele>
        <time>2021-04-21T12:36:10Z</time>
      </trkpt>
      <trkpt lat="48.52335" lon="3.08951">
        <ele>131.6</ele>
        <time>2021-04-21T12:36:14Z</time>
      </trkpt>
      <trkpt lat="48.52339" lon="3.08947">
        <ele>131.2</ele>
        <time>2021-04-21T12:36:18Z</time>
      </trkpt>
      <trkpt lat="48.52344" lon="3.08943">
        <ele>130.6</ele>
        <time>2021-04-21T12:36:23Z</time>
      </trkpt>
      <trkpt lat="48.52348" lon="3.0894">
        <ele>130.2</ele>
        <time>2021-04-21T12:36:28Z</time>
      </trkpt>
      <trkpt lat="48.52353" lon="3.08937">
        <ele>129.8</ele>
        <time>2021-04-21T12:36:33Z</time>
      </trkpt>
      <trkpt lat="48.52357" lon="3.08935">
        <ele>129.7</ele>
        <time>2021-04-21T12:36:37Z</time>
      </trkpt>
      <trkpt lat="48.52362" lon="3.08932">
        <ele>129.5</ele>
        <time>2021-04-21T12:36:42Z</time>
      </trkpt>
      <trkpt lat="48.52366" lon="3.08929">
        <ele>129.3</ele>
        <time>2021-04-21T12:36:47Z</time>
      </trkpt>
      <trkpt lat="48.52371" lon="3.08926">
        <ele>129.3</ele>
        <time>2021-04-21T12:36:51Z</time>
      </trkpt>
      <trkpt lat="48.52376" lon="3.08923">
        <ele>129.4</ele>
        <time>2021-04-21T12:36:55Z</time>
      </trkpt>
      <trkpt lat="48.52381" lon="3.08919">
        <ele>129.5</ele>
        <time>2021-04-21T12:36:59Z</time>
      </trkpt>
      <trkpt lat="48.52386" lon="3.08918">
        <ele>129.7</ele>
        <time>2021-04-21T12:37:02Z</time>
      </trkpt>
      <trkpt lat="48.52391" lon="3.08917">
        <ele>130</ele>
        <time>2021-04-21T12:37:06Z</time>
      </trkpt>
      <trkpt lat="48.52396" lon="3.08917">
        <ele>130.1</ele>
        <time>2021-04-21T12:37:11Z</time>
      </trkpt>
      <trkpt lat="48.52401" lon="3.08913">
        <ele>130.6</ele>
        <time>2021-04-21T12:37:17Z</time>
      </trkpt>
      <trkpt lat="48.52404" lon="3.08908">
        <ele>132</ele>
        <time>2021-04-21T12:37:26Z</time>
      </trkpt>
      <trkpt lat="48.52409" lon="3.08907">
        <ele>132.4</ele>
        <time>2021-04-21T12:37:30Z</time>
      </trkpt>
      <trkpt lat="48.52414" lon="3.08907">
        <ele>132.6</ele>
        <time>2021-04-21T12:37:33Z</time>
      </trkpt>
      <trkpt lat="48.5242" lon="3.08906">
        <ele>132.9</ele>
        <time>2021-04-21T12:37:37Z</time>
      </trkpt>
      <trkpt lat="48.52425" lon="3.08905">
        <ele>133.4</ele>
        <time>2021-04-21T12:37:40Z</time>
      </trkpt>
      <trkpt lat="48.5243" lon="3.08903">
        <ele>133.9</ele>
        <time>2021-04-21T12:37:44Z</time>
      </trkpt>
      <trkpt lat="48.52434" lon="3.08903">
        <ele>134.9</ele>
        <time>2021-04-21T12:37:51Z</time>
      </trkpt>
      <trkpt lat="48.5244" lon="3.08903">
        <ele>135.9</ele>
        <time>2021-04-21T12:37:56Z</time>
      </trkpt>
      <trkpt lat="48.52445" lon="3.08902">
        <ele>136.6</ele>
        <time>2021-04-21T12:38:00Z</time>
      </trkpt>
      <trkpt lat="48.5245" lon="3.089">
        <ele>137.5</ele>
        <time>2021-04-21T12:38:06Z</time>
      </trkpt>
      <trkpt lat="48.52455" lon="3.089">
        <ele>138.3</ele>
        <time>2021-04-21T12:38:11Z</time>
      </trkpt>
      <trkpt lat="48.52459" lon="3.08901">
        <ele>138.8</ele>
        <time>2021-04-21T12:38:14Z</time>
      </trkpt>
      <trkpt lat="48.52465" lon="3.08903">
        <ele>139.4</ele>
        <time>2021-04-21T12:38:18Z</time>
      </trkpt>
      <trkpt lat="48.52469" lon="3.08908">
        <ele>139.7</ele>
        <time>2021-04-21T12:38:22Z</time>
      </trkpt>
      <trkpt lat="48.52472" lon="3.08914">
        <ele>139.8</ele>
        <time>2021-04-21T12:38:25Z</time>
      </trkpt>
      <trkpt lat="48.52475" lon="3.0892">
        <ele>139.6</ele>
        <time>2021-04-21T12:38:29Z</time>
      </trkpt>
      <trkpt lat="48.52476" lon="3.08927">
        <ele>139.1</ele>
        <time>2021-04-21T12:38:33Z</time>
      </trkpt>
      <trkpt lat="48.52477" lon="3.08935">
        <ele>138</ele>
        <time>2021-04-21T12:38:38Z</time>
      </trkpt>
      <trkpt lat="48.52479" lon="3.08942">
        <ele>136.5</ele>
        <time>2021-04-21T12:38:43Z</time>
      </trkpt>
      <trkpt lat="48.52481" lon="3.0895">
        <ele>135.3</ele>
        <time>2021-04-21T12:38:48Z</time>
      </trkpt>
      <trkpt lat="48.52483" lon="3.08957">
        <ele>134.3</ele>
        <time>2021-04-21T12:38:52Z</time>
      </trkpt>
      <trkpt lat="48.52484" lon="3.08964">
        <ele>133.5</ele>
        <time>2021-04-21T12:38:56Z</time>
      </trkpt>
      <trkpt lat="48.52486" lon="3.08972">
        <ele>132.6</ele>
        <time>2021-04-21T12:39:01Z</time>
      </trkpt>
      <trkpt lat="48.52489" lon="3.08978">
        <ele>132</ele>
        <time>2021-04-21T12:39:05Z</time>
      </trkpt>
      <trkpt lat="48.52491" lon="3.08985">
        <ele>131.5</ele>
        <time>2021-04-21T12:39:09Z</time>
      </trkpt>
      <trkpt lat="48.52493" lon="3.08991">
        <ele>131.1</ele>
        <time>2021-04-21T12:39:13Z</time>
      </trkpt>
      <trkpt lat="48.52497" lon="3.08997">
        <ele>130.6</ele>
        <time>2021-04-21T12:39:18Z</time>
      </trkpt>
      <trkpt lat="48.525" lon="3.09003">
        <ele>129.9</ele>
        <time>2021-04-21T12:39:23Z</time>
      </trkpt>
      <trkpt lat="48.52503" lon="3.09009">
        <ele>128.8</ele>
        <time>2021-04-21T12:39:28Z</time>
      </trkpt>
      <trkpt lat="48.52506" lon="3.09015">
        <ele>128.2</ele>
        <time>2021-04-21T12:39:32Z</time>
      </trkpt>
      <trkpt lat="48.52507" lon="3.09023">
        <ele>127.8</ele>
        <time>2021-04-21T12:39:36Z</time>
      </trkpt>
      <trkpt lat="48.5251" lon="3.0903">
        <ele>127.1</ele>
        <time>2021-04-21T12:39:41Z</time>
      </trkpt>
      <trkpt lat="48.52513" lon="3.09035">
        <ele>126.5</ele>
        <time>2021-04-21T12:39:45Z</time>
      </trkpt>
      <trkpt lat="48.52516" lon="3.09041">
        <ele>126</ele>
        <time>2021-04-21T12:39:49Z</time>
      </trkpt>
      <trkpt lat="48.5252" lon="3.09048">
        <ele>125.5</ele>
        <time>2021-04-21T12:39:53Z</time>
      </trkpt>
      <trkpt lat="48.52522" lon="3.09054">
        <ele>125.1</ele>
        <time>2021-04-21T12:39:57Z</time>
      </trkpt>
      <trkpt lat="48.52524" lon="3.09061">
        <ele>124.8</ele>
        <time>2021-04-21T12:40:01Z</time>
      </trkpt>
      <trkpt lat="48.52525" lon="3.09069">
        <ele>124.8</ele>
        <time>2021-04-21T12:40:05Z</time>
      </trkpt>
      <trkpt lat="48.52526" lon="3.09077">
        <ele>124.9</ele>
        <time>2021-04-21T12:40:09Z</time>
      </trkpt>
      <trkpt lat="48.52528" lon="3.09084">
        <ele>125.1</ele>
        <time>2021-04-21T12:40:13Z</time>
      </trkpt>
      <trkpt lat="48.52529" lon="3.09091">
        <ele>125.4</ele>
        <time>2021-04-21T12:40:18Z</time>
      </trkpt>
      <trkpt lat="48.52532" lon="3.09097">
        <ele>125.5</ele>
        <time>2021-04-21T12:40:23Z</time>
      </trkpt>
      <trkpt lat="48.52536" lon="3.09105">
        <ele>125.5</ele>
        <time>2021-04-21T12:40:28Z</time>
      </trkpt>
      <trkpt lat="48.52539" lon="3.09111">
        <ele>125.4</ele>
        <time>2021-04-21T12:40:32Z</time>
      </trkpt>
      <trkpt lat="48.52542" lon="3.09116">
        <ele>125.5</ele>
        <time>2021-04-21T12:40:36Z</time>
      </trkpt>
      <trkpt lat="48.52545" lon="3.09121">
        <ele>125.5</ele>
        <time>2021-04-21T12:40:41Z</time>
      </trkpt>
      <trkpt lat="48.52548" lon="3.09127">
        <ele>125.3</ele>
        <time>2021-04-21T12:40:45Z</time>
      </trkpt>
      <trkpt lat="48.52551" lon="3.09133">
        <ele>125</ele>
        <time>2021-04-21T12:40:49Z</time>
      </trkpt>
      <trkpt lat="48.52554" lon="3.09139">
        <ele>124.6</ele>
        <time>2021-04-21T12:40:53Z</time>
      </trkpt>
      <trkpt lat="48.52557" lon="3.09146">
        <ele>124.3</ele>
        <time>2021-04-21T12:40:57Z</time>
      </trkpt>
      <trkpt lat="48.52559" lon="3.09154">
        <ele>124</ele>
        <time>2021-04-21T12:41:02Z</time>
      </trkpt>
      <trkpt lat="48.52561" lon="3.0916">
        <ele>123.7</ele>
        <time>2021-04-21T12:41:06Z</time>
      </trkpt>
      <trkpt lat="48.52565" lon="3.09166">
        <ele>123.7</ele>
        <time>2021-04-21T12:41:10Z</time>
      </trkpt>
      <trkpt lat="48.52568" lon="3.09172">
        <ele>123.8</ele>
        <time>2021-04-21T12:41:14Z</time>
      </trkpt>
      <trkpt lat="48.52571" lon="3.09179">
        <ele>124.1</ele>
        <time>2021-04-21T12:41:18Z</time>
      </trkpt>
      <trkpt lat="48.52574" lon="3.09186">
        <ele>124.3</ele>
        <time>2021-04-21T12:41:22Z</time>
      </trkpt>
      <trkpt lat="48.52577" lon="3.09192">
        <ele>124.4</ele>
        <time>2021-04-21T12:41:26Z</time>
      </trkpt>
      <trkpt lat="48.52579" lon="3.09198">
        <ele>124.4</ele>
        <time>2021-04-21T12:41:29Z</time>
      </trkpt>
      <trkpt lat="48.5258" lon="3.09206">
        <ele>124.4</ele>
        <time>2021-04-21T12:41:33Z</time>
      </trkpt>
      <trkpt lat="48.52581" lon="3.09214">
        <ele>124.5</ele>
        <time>2021-04-21T12:41:37Z</time>
      </trkpt>
      <trkpt lat="48.52583" lon="3.0922">
        <ele>124.6</ele>
        <time>2021-04-21T12:41:41Z</time>
      </trkpt>
      <trkpt lat="48.52584" lon="3.09229">
        <ele>125.3</ele>
        <time>2021-04-21T12:41:46Z</time>
      </trkpt>
      <trkpt lat="48.52585" lon="3.09237">
        <ele>126.2</ele>
        <time>2021-04-21T12:41:50Z</time>
      </trkpt>
      <trkpt lat="48.52587" lon="3.09243">
        <ele>127.1</ele>
        <time>2021-04-21T12:41:54Z</time>
      </trkpt>
      <trkpt lat="48.52592" lon="3.09246">
        <ele>128.2</ele>
        <time>2021-04-21T12:41:59Z</time>
      </trkpt>
      <trkpt lat="48.52596" lon="3.09244">
        <ele>129.2</ele>
        <time>2021-04-21T12:42:04Z</time>
      </trkpt>
      <trkpt lat="48.526" lon="3.09241">
        <ele>130.1</ele>
        <time>2021-04-21T12:42:09Z</time>
      </trkpt>
      <trkpt lat="48.52604" lon="3.09237">
        <ele>130.5</ele>
        <time>2021-04-21T12:42:13Z</time>
      </trkpt>
      <trkpt lat="48.52609" lon="3.09232">
        <ele>130.9</ele>
        <time>2021-04-21T12:42:18Z</time>
      </trkpt>
      <trkpt lat="48.52613" lon="3.09228">
        <ele>131.5</ele>
        <time>2021-04-21T12:42:23Z</time>
      </trkpt>
      <trkpt lat="48.52617" lon="3.09223">
        <ele>132.2</ele>
        <time>2021-04-21T12:42:28Z</time>
      </trkpt>
      <trkpt lat="48.52621" lon="3.09219">
        <ele>132.7</ele>
        <time>2021-04-21T12:42:32Z</time>
      </trkpt>
      <trkpt lat="48.52625" lon="3.09214">
        <ele>133</ele>
        <time>2021-04-21T12:42:36Z</time>
      </trkpt>
      <trkpt lat="48.5263" lon="3.09211">
        <ele>133.3</ele>
        <time>2021-04-21T12:42:40Z</time>
      </trkpt>
      <trkpt lat="48.52635" lon="3.09206">
        <ele>133.4</ele>
        <time>2021-04-21T12:42:44Z</time>
      </trkpt>
      <trkpt lat="48.52639" lon="3.09202">
        <ele>133.7</ele>
        <time>2021-04-21T12:42:48Z</time>
      </trkpt>
      <trkpt lat="48.52644" lon="3.09198">
        <ele>134</ele>
        <time>2021-04-21T12:42:52Z</time>
      </trkpt>
      <trkpt lat="48.52648" lon="3.09193">
        <ele>134.3</ele>
        <time>2021-04-21T12:42:56Z</time>
      </trkpt>
      <trkpt lat="48.52652" lon="3.09189">
        <ele>134.5</ele>
        <time>2021-04-21T12:43:00Z</time>
      </trkpt>
      <trkpt lat="48.52656" lon="3.09185">
        <ele>134.5</ele>
        <time>2021-04-21T12:43:04Z</time>
      </trkpt>
      <trkpt lat="48.5266" lon="3.09179">
        <ele>134.7</ele>
        <time>2021-04-21T12:43:08Z</time>
      </trkpt>
      <trkpt lat="48.52664" lon="3.09175">
        <ele>134.9</ele>
        <time>2021-04-21T12:43:12Z</time>
      </trkpt>
      <trkpt lat="48.52668" lon="3.09171">
        <ele>135.2</ele>
        <time>2021-04-21T12:43:16Z</time>
      </trkpt>
      <trkpt lat="48.52672" lon="3.09167">
        <ele>135.6</ele>
        <time>2021-04-21T12:43:20Z</time>
      </trkpt>
      <trkpt lat="48.52677" lon="3.09163">
        <ele>136</ele>
        <time>2021-04-21T12:43:24Z</time>
      </trkpt>
      <trkpt lat="48.52682" lon="3.0916">
        <ele>136.2</ele>
        <time>2021-04-21T12:43:28Z</time>
      </trkpt>
      <trkpt lat="48.52687" lon="3.09157">
        <ele>136.5</ele>
        <time>2021-04-21T12:43:32Z</time>
      </trkpt>
      <trkpt lat="48.52692" lon="3.09155">
        <ele>136.7</ele>
        <time>2021-04-21T12:43:36Z</time>
      </trkpt>
      <trkpt lat="48.52696" lon="3.09152">
        <ele>137.3</ele>
        <time>2021-04-21T12:43:41Z</time>
      </trkpt>
      <trkpt lat="48.52701" lon="3.09149">
        <ele>137.8</ele>
        <time>2021-04-21T12:43:45Z</time>
      </trkpt>
      <trkpt lat="48.52706" lon="3.09146">
        <ele>138.3</ele>
        <time>2021-04-21T12:43:48Z</time>
      </trkpt>
      <trkpt lat="48.52711" lon="3.09142">
        <ele>138.8</ele>
        <time>2021-04-21T12:43:52Z</time>
      </trkpt>
      <trkpt lat="48.52715" lon="3.09139">
        <ele>139.3</ele>
        <time>2021-04-21T12:43:56Z</time>
      </trkpt>
      <trkpt lat="48.5272" lon="3.09136">
        <ele>139.9</ele>
        <time>2021-04-21T12:44:01Z</time>
      </trkpt>
      <trkpt lat="48.52724" lon="3.09132">
        <ele>140.2</ele>
        <time>2021-04-21T12:44:06Z</time>
      </trkpt>
      <trkpt lat="48.52729" lon="3.09128">
        <ele>140.8</ele>
        <time>2021-04-21T12:44:11Z</time>
      </trkpt>
      <trkpt lat="48.52734" lon="3.09126">
        <ele>141.1</ele>
        <time>2021-04-21T12:44:15Z</time>
      </trkpt>
      <trkpt lat="48.52739" lon="3.09123">
        <ele>141.3</ele>
        <time>2021-04-21T12:44:19Z</time>
      </trkpt>
      <trkpt lat="48.52744" lon="3.0912">
        <ele>141.3</ele>
        <time>2021-04-21T12:44:23Z</time>
      </trkpt>
      <trkpt lat="48.52748" lon="3.09117">
        <ele>141.3</ele>
        <time>2021-04-21T12:44:27Z</time>
      </trkpt>
      <trkpt lat="48.52753" lon="3.09116">
        <ele>141.2</ele>
        <time>2021-04-21T12:44:32Z</time>
      </trkpt>
      <trkpt lat="48.52758" lon="3.09114">
        <ele>140.9</ele>
        <time>2021-04-21T12:44:36Z</time>
      </trkpt>
      <trkpt lat="48.52763" lon="3.09114">
        <ele>140.8</ele>
        <time>2021-04-21T12:44:40Z</time>
      </trkpt>
      <trkpt lat="48.52768" lon="3.09112">
        <ele>140.7</ele>
        <time>2021-04-21T12:44:44Z</time>
      </trkpt>
      <trkpt lat="48.52773" lon="3.09109">
        <ele>140.6</ele>
        <time>2021-04-21T12:44:48Z</time>
      </trkpt>
      <trkpt lat="48.52778" lon="3.09106">
        <ele>140.6</ele>
        <time>2021-04-21T12:44:52Z</time>
      </trkpt>
      <trkpt lat="48.52783" lon="3.09105">
        <ele>140.6</ele>
        <time>2021-04-21T12:44:57Z</time>
      </trkpt>
      <trkpt lat="48.52788" lon="3.09103">
        <ele>140.8</ele>
        <time>2021-04-21T12:45:02Z</time>
      </trkpt>
      <trkpt lat="48.52793" lon="3.09102">
        <ele>140.9</ele>
        <time>2021-04-21T12:45:06Z</time>
      </trkpt>
      <trkpt lat="48.52798" lon="3.09101">
        <ele>140.9</ele>
        <time>2021-04-21T12:45:10Z</time>
      </trkpt>
      <trkpt lat="48.52804" lon="3.091">
        <ele>141</ele>
        <time>2021-04-21T12:45:14Z</time>
      </trkpt>
      <trkpt lat="48.52809" lon="3.09099">
        <ele>141</ele>
        <time>2021-04-21T12:45:19Z</time>
      </trkpt>
      <trkpt lat="48.52814" lon="3.09099">
        <ele>141</ele>
        <time>2021-04-21T12:45:24Z</time>
      </trkpt>
      <trkpt lat="48.52819" lon="3.091">
        <ele>140.9</ele>
        <time>2021-04-21T12:45:29Z</time>
      </trkpt>
      <trkpt lat="48.52824" lon="3.09098">
        <ele>140.8</ele>
        <time>2021-04-21T12:45:33Z</time>
      </trkpt>
      <trkpt lat="48.52829" lon="3.09098">
        <ele>140.8</ele>
        <time>2021-04-21T12:45:37Z</time>
      </trkpt>
      <trkpt lat="48.52834" lon="3.09097">
        <ele>140.8</ele>
        <time>2021-04-21T12:45:41Z</time>
      </trkpt>
      <trkpt lat="48.52839" lon="3.09097">
        <ele>140.7</ele>
        <time>2021-04-21T12:45:45Z</time>
      </trkpt>
      <trkpt lat="48.52844" lon="3.09097">
        <ele>140.6</ele>
        <time>2021-04-21T12:45:49Z</time>
      </trkpt>
      <trkpt lat="48.5285" lon="3.09097">
        <ele>140.3</ele>
        <time>2021-04-21T12:45:53Z</time>
      </trkpt>
      <trkpt lat="48.52855" lon="3.09096">
        <ele>140</ele>
        <time>2021-04-21T12:45:57Z</time>
      </trkpt>
      <trkpt lat="48.5286" lon="3.09095">
        <ele>139.7</ele>
        <time>2021-04-21T12:46:02Z</time>
      </trkpt>
      <trkpt lat="48.52865" lon="3.09093">
        <ele>139.3</ele>
        <time>2021-04-21T12:46:07Z</time>
      </trkpt>
      <trkpt lat="48.5287" lon="3.09091">
        <ele>138.5</ele>
        <time>2021-04-21T12:46:15Z</time>
      </trkpt>
      <trkpt lat="48.52875" lon="3.09091">
        <ele>138</ele>
        <time>2021-04-21T12:46:20Z</time>
      </trkpt>
      <trkpt lat="48.5288" lon="3.0909">
        <ele>137.7</ele>
        <time>2021-04-21T12:46:24Z</time>
      </trkpt>
      <trkpt lat="48.52885" lon="3.0909">
        <ele>137.4</ele>
        <time>2021-04-21T12:46:28Z</time>
      </trkpt>
      <trkpt lat="48.52889" lon="3.09089">
        <ele>137.2</ele>
        <time>2021-04-21T12:46:32Z</time>
      </trkpt>
      <trkpt lat="48.52893" lon="3.09084">
        <ele>137.1</ele>
        <time>2021-04-21T12:46:37Z</time>
      </trkpt>
      <trkpt lat="48.52894" lon="3.09077">
        <ele>136.6</ele>
        <time>2021-04-21T12:46:42Z</time>
      </trkpt>
      <trkpt lat="48.52893" lon="3.09069">
        <ele>136.3</ele>
        <time>2021-04-21T12:46:46Z</time>
      </trkpt>
      <trkpt lat="48.52892" lon="3.09062">
        <ele>136.2</ele>
        <time>2021-04-21T12:46:50Z</time>
      </trkpt>
      <trkpt lat="48.5289" lon="3.09054">
        <ele>136.1</ele>
        <time>2021-04-21T12:46:54Z</time>
      </trkpt>
      <trkpt lat="48.52889" lon="3.09047">
        <ele>136.2</ele>
        <time>2021-04-21T12:46:58Z</time>
      </trkpt>
      <trkpt lat="48.52889" lon="3.0904">
        <ele>136.2</ele>
        <time>2021-04-21T12:47:02Z</time>
      </trkpt>
      <trkpt lat="48.52888" lon="3.09033">
        <ele>136.2</ele>
        <time>2021-04-21T12:47:07Z</time>
      </trkpt>
      <trkpt lat="48.52889" lon="3.09025">
        <ele>136.7</ele>
        <time>2021-04-21T12:47:22Z</time>
      </trkpt>
      <trkpt lat="48.52889" lon="3.09018">
        <ele>137.4</ele>
        <time>2021-04-21T12:47:26Z</time>
      </trkpt>
      <trkpt lat="48.52888" lon="3.09011">
        <ele>137.9</ele>
        <time>2021-04-21T12:47:29Z</time>
      </trkpt>
      <trkpt lat="48.52888" lon="3.09004">
        <ele>138.5</ele>
        <time>2021-04-21T12:47:33Z</time>
      </trkpt>
      <trkpt lat="48.52888" lon="3.08996">
        <ele>139.3</ele>
        <time>2021-04-21T12:47:38Z</time>
      </trkpt>
      <trkpt lat="48.52887" lon="3.08988">
        <ele>139.8</ele>
        <time>2021-04-21T12:47:42Z</time>
      </trkpt>
      <trkpt lat="48.52887" lon="3.08981">
        <ele>140.3</ele>
        <time>2021-04-21T12:47:46Z</time>
      </trkpt>
      <trkpt lat="48.52887" lon="3.08974">
        <ele>140.6</ele>
        <time>2021-04-21T12:47:50Z</time>
      </trkpt>
      <trkpt lat="48.52887" lon="3.08966">
        <ele>141</ele>
        <time>2021-04-21T12:47:55Z</time>
      </trkpt>
      <trkpt lat="48.52886" lon="3.08959">
        <ele>141.3</ele>
        <time>2021-04-21T12:47:59Z</time>
      </trkpt>
      <trkpt lat="48.52885" lon="3.08952">
        <ele>141.3</ele>
        <time>2021-04-21T12:48:02Z</time>
      </trkpt>
      <trkpt lat="48.52885" lon="3.08943">
        <ele>141.5</ele>
        <time>2021-04-21T12:48:06Z</time>
      </trkpt>
      <trkpt lat="48.52883" lon="3.08936">
        <ele>141.5</ele>
        <time>2021-04-21T12:48:10Z</time>
      </trkpt>
      <trkpt lat="48.52881" lon="3.08929">
        <ele>141.7</ele>
        <time>2021-04-21T12:48:14Z</time>
      </trkpt>
      <trkpt lat="48.52881" lon="3.08922">
        <ele>141.7</ele>
        <time>2021-04-21T12:48:18Z</time>
      </trkpt>
      <trkpt lat="48.5288" lon="3.08915">
        <ele>141.7</ele>
        <time>2021-04-21T12:48:23Z</time>
      </trkpt>
      <trkpt lat="48.5288" lon="3.08907">
        <ele>141.7</ele>
        <time>2021-04-21T12:48:27Z</time>
      </trkpt>
      <trkpt lat="48.52879" lon="3.089">
        <ele>141.9</ele>
        <time>2021-04-21T12:48:31Z</time>
      </trkpt>
      <trkpt lat="48.52878" lon="3.08892">
        <ele>142.3</ele>
        <time>2021-04-21T12:48:35Z</time>
      </trkpt>
      <trkpt lat="48.52877" lon="3.08884">
        <ele>142.6</ele>
        <time>2021-04-21T12:48:39Z</time>
      </trkpt>
      <trkpt lat="48.52875" lon="3.08877">
        <ele>142.6</ele>
        <time>2021-04-21T12:48:43Z</time>
      </trkpt>
      <trkpt lat="48.52874" lon="3.08869">
        <ele>142.6</ele>
        <time>2021-04-21T12:48:47Z</time>
      </trkpt>
      <trkpt lat="48.52873" lon="3.08863">
        <ele>142.6</ele>
        <time>2021-04-21T12:48:51Z</time>
      </trkpt>
      <trkpt lat="48.52871" lon="3.08855">
        <ele>142.6</ele>
        <time>2021-04-21T12:48:55Z</time>
      </trkpt>
      <trkpt lat="48.5287" lon="3.08848">
        <ele>142.5</ele>
        <time>2021-04-21T12:48:58Z</time>
      </trkpt>
      <trkpt lat="48.52868" lon="3.08841">
        <ele>142.4</ele>
        <time>2021-04-21T12:49:01Z</time>
      </trkpt>
      <trkpt lat="48.52865" lon="3.08835">
        <ele>142.3</ele>
        <time>2021-04-21T12:49:05Z</time>
      </trkpt>
      <trkpt lat="48.52864" lon="3.08828">
        <ele>142.3</ele>
        <time>2021-04-21T12:49:09Z</time>
      </trkpt>
      <trkpt lat="48.52862" lon="3.0882">
        <ele>142.4</ele>
        <time>2021-04-21T12:49:14Z</time>
      </trkpt>
      <trkpt lat="48.5286" lon="3.08813">
        <ele>142.4</ele>
        <time>2021-04-21T12:49:18Z</time>
      </trkpt>
      <trkpt lat="48.52859" lon="3.08806">
        <ele>142.4</ele>
        <time>2021-04-21T12:49:22Z</time>
      </trkpt>
      <trkpt lat="48.52858" lon="3.08798">
        <ele>142.4</ele>
        <time>2021-04-21T12:49:26Z</time>
      </trkpt>
      <trkpt lat="48.52857" lon="3.0879">
        <ele>142.4</ele>
        <time>2021-04-21T12:49:31Z</time>
      </trkpt>
      <trkpt lat="48.52855" lon="3.08783">
        <ele>142.2</ele>
        <time>2021-04-21T12:49:36Z</time>
      </trkpt>
      <trkpt lat="48.52853" lon="3.08775">
        <ele>142.2</ele>
        <time>2021-04-21T12:49:41Z</time>
      </trkpt>
      <trkpt lat="48.52852" lon="3.08768">
        <ele>142.2</ele>
        <time>2021-04-21T12:49:45Z</time>
      </trkpt>
      <trkpt lat="48.52851" lon="3.0876">
        <ele>142.3</ele>
        <time>2021-04-21T12:49:49Z</time>
      </trkpt>
      <trkpt lat="48.5285" lon="3.08752">
        <ele>142.3</ele>
        <time>2021-04-21T12:49:53Z</time>
      </trkpt>
      <trkpt lat="48.52848" lon="3.08745">
        <ele>142.5</ele>
        <time>2021-04-21T12:49:57Z</time>
      </trkpt>
      <trkpt lat="48.52846" lon="3.08739">
        <ele>142.5</ele>
        <time>2021-04-21T12:50:01Z</time>
      </trkpt>
      <trkpt lat="48.52843" lon="3.08732">
        <ele>142.5</ele>
        <time>2021-04-21T12:50:05Z</time>
      </trkpt>
      <trkpt lat="48.5284" lon="3.08726">
        <ele>142.4</ele>
        <time>2021-04-21T12:50:09Z</time>
      </trkpt>
      <trkpt lat="48.52838" lon="3.08717">
        <ele>142.6</ele>
        <time>2021-04-21T12:50:13Z</time>
      </trkpt>
      <trkpt lat="48.52836" lon="3.08711">
        <ele>143</ele>
        <time>2021-04-21T12:50:17Z</time>
      </trkpt>
      <trkpt lat="48.52832" lon="3.08706">
        <ele>143.2</ele>
        <time>2021-04-21T12:50:22Z</time>
      </trkpt>
      <trkpt lat="48.52827" lon="3.08703">
        <ele>143.3</ele>
        <time>2021-04-21T12:50:26Z</time>
      </trkpt>
      <trkpt lat="48.52821" lon="3.08703">
        <ele>143.3</ele>
        <time>2021-04-21T12:50:30Z</time>
      </trkpt>
      <trkpt lat="48.52816" lon="3.08704">
        <ele>143.5</ele>
        <time>2021-04-21T12:50:35Z</time>
      </trkpt>
      <trkpt lat="48.52811" lon="3.08703">
        <ele>143.5</ele>
        <time>2021-04-21T12:50:39Z</time>
      </trkpt>
      <trkpt lat="48.52806" lon="3.087">
        <ele>143.6</ele>
        <time>2021-04-21T12:50:44Z</time>
      </trkpt>
      <trkpt lat="48.52801" lon="3.08696">
        <ele>143.9</ele>
        <time>2021-04-21T12:50:48Z</time>
      </trkpt>
      <trkpt lat="48.52797" lon="3.08691">
        <ele>144.2</ele>
        <time>2021-04-21T12:50:52Z</time>
      </trkpt>
      <trkpt lat="48.52794" lon="3.08685">
        <ele>144.4</ele>
        <time>2021-04-21T12:50:57Z</time>
      </trkpt>
      <trkpt lat="48.5279" lon="3.08678">
        <ele>144.4</ele>
        <time>2021-04-21T12:51:01Z</time>
      </trkpt>
      <trkpt lat="48.52787" lon="3.08671">
        <ele>144.2</ele>
        <time>2021-04-21T12:51:05Z</time>
      </trkpt>
      <trkpt lat="48.52785" lon="3.08665">
        <ele>143.8</ele>
        <time>2021-04-21T12:51:09Z</time>
      </trkpt>
      <trkpt lat="48.52783" lon="3.08658">
        <ele>143.3</ele>
        <time>2021-04-21T12:51:13Z</time>
      </trkpt>
      <trkpt lat="48.52781" lon="3.08651">
        <ele>142.9</ele>
        <time>2021-04-21T12:51:17Z</time>
      </trkpt>
      <trkpt lat="48.52779" lon="3.08643">
        <ele>142.4</ele>
        <time>2021-04-21T12:51:21Z</time>
      </trkpt>
      <trkpt lat="48.52776" lon="3.08636">
        <ele>142</ele>
        <time>2021-04-21T12:51:25Z</time>
      </trkpt>
      <trkpt lat="48.52773" lon="3.0863">
        <ele>141.8</ele>
        <time>2021-04-21T12:51:29Z</time>
      </trkpt>
      <trkpt lat="48.5277" lon="3.08625">
        <ele>141.9</ele>
        <time>2021-04-21T12:51:34Z</time>
      </trkpt>
      <trkpt lat="48.52767" lon="3.08618">
        <ele>141.9</ele>
        <time>2021-04-21T12:51:39Z</time>
      </trkpt>
      <trkpt lat="48.52764" lon="3.08613">
        <ele>141.4</ele>
        <time>2021-04-21T12:51:44Z</time>
      </trkpt>
      <trkpt lat="48.52762" lon="3.08606">
        <ele>141</ele>
        <time>2021-04-21T12:51:49Z</time>
      </trkpt>
      <trkpt lat="48.5276" lon="3.08599">
        <ele>140.6</ele>
        <time>2021-04-21T12:51:59Z</time>
      </trkpt>
      <trkpt lat="48.52758" lon="3.0859">
        <ele>140.9</ele>
        <time>2021-04-21T12:52:04Z</time>
      </trkpt>
      <trkpt lat="48.52757" lon="3.08583">
        <ele>141.3</ele>
        <time>2021-04-21T12:52:08Z</time>
      </trkpt>
      <trkpt lat="48.52755" lon="3.08576">
        <ele>142</ele>
        <time>2021-04-21T12:52:12Z</time>
      </trkpt>
      <trkpt lat="48.52753" lon="3.0857">
        <ele>142.5</ele>
        <time>2021-04-21T12:52:16Z</time>
      </trkpt>
      <trkpt lat="48.52751" lon="3.08563">
        <ele>143.1</ele>
        <time>2021-04-21T12:52:20Z</time>
      </trkpt>
      <trkpt lat="48.52749" lon="3.08555">
        <ele>143.7</ele>
        <time>2021-04-21T12:52:24Z</time>
      </trkpt>
      <trkpt lat="48.52747" lon="3.08548">
        <ele>144.2</ele>
        <time>2021-04-21T12:52:28Z</time>
      </trkpt>
      <trkpt lat="48.52745" lon="3.0854">
        <ele>144.6</ele>
        <time>2021-04-21T12:52:32Z</time>
      </trkpt>
      <trkpt lat="48.52743" lon="3.08534">
        <ele>144.7</ele>
        <time>2021-04-21T12:52:36Z</time>
      </trkpt>
      <trkpt lat="48.52741" lon="3.08527">
        <ele>144.6</ele>
        <time>2021-04-21T12:52:40Z</time>
      </trkpt>
      <trkpt lat="48.52739" lon="3.08521">
        <ele>144.1</ele>
        <time>2021-04-21T12:52:43Z</time>
      </trkpt>
      <trkpt lat="48.52736" lon="3.08515">
        <ele>143.3</ele>
        <time>2021-04-21T12:52:46Z</time>
      </trkpt>
      <trkpt lat="48.52733" lon="3.08508">
        <ele>142</ele>
        <time>2021-04-21T12:52:50Z</time>
      </trkpt>
      <trkpt lat="48.5273" lon="3.08502">
        <ele>140.4</ele>
        <time>2021-04-21T12:52:54Z</time>
      </trkpt>
      <trkpt lat="48.52728" lon="3.08496">
        <ele>138.6</ele>
        <time>2021-04-21T12:52:58Z</time>
      </trkpt>
      <trkpt lat="48.52726" lon="3.08488">
        <ele>137.5</ele>
        <time>2021-04-21T12:53:02Z</time>
      </trkpt>
      <trkpt lat="48.52724" lon="3.08482">
        <ele>137.2</ele>
        <time>2021-04-21T12:53:06Z</time>
      </trkpt>
      <trkpt lat="48.52721" lon="3.08474">
        <ele>137.5</ele>
        <time>2021-04-21T12:53:10Z</time>
      </trkpt>
      <trkpt lat="48.52719" lon="3.08466">
        <ele>137.8</ele>
        <time>2021-04-21T12:53:14Z</time>
      </trkpt>
      <trkpt lat="48.52717" lon="3.0846">
        <ele>138</ele>
        <time>2021-04-21T12:53:17Z</time>
      </trkpt>
      <trkpt lat="48.52715" lon="3.08452">
        <ele>138.2</ele>
        <time>2021-04-21T12:53:21Z</time>
      </trkpt>
      <trkpt lat="48.52713" lon="3.08445">
        <ele>138.3</ele>
        <time>2021-04-21T12:53:25Z</time>
      </trkpt>
      <trkpt lat="48.5271" lon="3.08439">
        <ele>138.2</ele>
        <time>2021-04-21T12:53:29Z</time>
      </trkpt>
      <trkpt lat="48.52708" lon="3.08432">
        <ele>138.7</ele>
        <time>2021-04-21T12:53:33Z</time>
      </trkpt>
      <trkpt lat="48.52705" lon="3.08426">
        <ele>139.3</ele>
        <time>2021-04-21T12:53:37Z</time>
      </trkpt>
      <trkpt lat="48.52702" lon="3.08419">
        <ele>139.6</ele>
        <time>2021-04-21T12:53:41Z</time>
      </trkpt>
      <trkpt lat="48.527" lon="3.08413">
        <ele>139.7</ele>
        <time>2021-04-21T12:53:45Z</time>
      </trkpt>
      <trkpt lat="48.52698" lon="3.08405">
        <ele>140.1</ele>
        <time>2021-04-21T12:53:50Z</time>
      </trkpt>
      <trkpt lat="48.52696" lon="3.08398">
        <ele>139.6</ele>
        <time>2021-04-21T12:54:00Z</time>
      </trkpt>
      <trkpt lat="48.52693" lon="3.08391">
        <ele>139.6</ele>
        <time>2021-04-21T12:54:04Z</time>
      </trkpt>
      <trkpt lat="48.52691" lon="3.08383">
        <ele>139.6</ele>
        <time>2021-04-21T12:54:08Z</time>
      </trkpt>
      <trkpt lat="48.52689" lon="3.08376">
        <ele>139.6</ele>
        <time>2021-04-21T12:54:12Z</time>
      </trkpt>
      <trkpt lat="48.52686" lon="3.08368">
        <ele>139.6</ele>
        <time>2021-04-21T12:54:16Z</time>
      </trkpt>
      <trkpt lat="48.52684" lon="3.08361">
        <ele>139.2</ele>
        <time>2021-04-21T12:54:21Z</time>
      </trkpt>
      <trkpt lat="48.52682" lon="3.08355">
        <ele>138.3</ele>
        <time>2021-04-21T12:54:26Z</time>
      </trkpt>
      <trkpt lat="48.5268" lon="3.08348">
        <ele>137.7</ele>
        <time>2021-04-21T12:54:30Z</time>
      </trkpt>
      <trkpt lat="48.52678" lon="3.08341">
        <ele>137.3</ele>
        <time>2021-04-21T12:54:34Z</time>
      </trkpt>
      <trkpt lat="48.52676" lon="3.08334">
        <ele>136.9</ele>
        <time>2021-04-21T12:54:38Z</time>
      </trkpt>
      <trkpt lat="48.52673" lon="3.08326">
        <ele>136.4</ele>
        <time>2021-04-21T12:54:42Z</time>
      </trkpt>
      <trkpt lat="48.52671" lon="3.08319">
        <ele>136.1</ele>
        <time>2021-04-21T12:54:46Z</time>
      </trkpt>
      <trkpt lat="48.52669" lon="3.08312">
        <ele>136</ele>
        <time>2021-04-21T12:54:50Z</time>
      </trkpt>
      <trkpt lat="48.52667" lon="3.08306">
        <ele>135.8</ele>
        <time>2021-04-21T12:54:54Z</time>
      </trkpt>
      <trkpt lat="48.52664" lon="3.08299">
        <ele>135.7</ele>
        <time>2021-04-21T12:54:58Z</time>
      </trkpt>
      <trkpt lat="48.52662" lon="3.08293">
        <ele>135.6</ele>
        <time>2021-04-21T12:55:01Z</time>
      </trkpt>
      <trkpt lat="48.5266" lon="3.08287">
        <ele>135.6</ele>
        <time>2021-04-21T12:55:05Z</time>
      </trkpt>
      <trkpt lat="48.52657" lon="3.08282">
        <ele>135.6</ele>
        <time>2021-04-21T12:55:09Z</time>
      </trkpt>
      <trkpt lat="48.52653" lon="3.08275">
        <ele>135.8</ele>
        <time>2021-04-21T12:55:13Z</time>
      </trkpt>
      <trkpt lat="48.5265" lon="3.08269">
        <ele>135.9</ele>
        <time>2021-04-21T12:55:17Z</time>
      </trkpt>
      <trkpt lat="48.52647" lon="3.08263">
        <ele>135.7</ele>
        <time>2021-04-21T12:55:21Z</time>
      </trkpt>
      <trkpt lat="48.52644" lon="3.08256">
        <ele>135.3</ele>
        <time>2021-04-21T12:55:25Z</time>
      </trkpt>
      <trkpt lat="48.5264" lon="3.0825">
        <ele>134.8</ele>
        <time>2021-04-21T12:55:30Z</time>
      </trkpt>
      <trkpt lat="48.52637" lon="3.08245">
        <ele>134.3</ele>
        <time>2021-04-21T12:55:34Z</time>
      </trkpt>
      <trkpt lat="48.52634" lon="3.08238">
        <ele>133.7</ele>
        <time>2021-04-21T12:55:39Z</time>
      </trkpt>
      <trkpt lat="48.52631" lon="3.08233">
        <ele>133.7</ele>
        <time>2021-04-21T12:55:43Z</time>
      </trkpt>
      <trkpt lat="48.52627" lon="3.08227">
        <ele>133.8</ele>
        <time>2021-04-21T12:55:47Z</time>
      </trkpt>
      <trkpt lat="48.52622" lon="3.08223">
        <ele>134</ele>
        <time>2021-04-21T12:55:51Z</time>
      </trkpt>
      <trkpt lat="48.52617" lon="3.08219">
        <ele>134.1</ele>
        <time>2021-04-21T12:55:55Z</time>
      </trkpt>
      <trkpt lat="48.52613" lon="3.08214">
        <ele>134.1</ele>
        <time>2021-04-21T12:55:59Z</time>
      </trkpt>
      <trkpt lat="48.52609" lon="3.0821">
        <ele>133.8</ele>
        <time>2021-04-21T12:56:03Z</time>
      </trkpt>
      <trkpt lat="48.52605" lon="3.08206">
        <ele>133.8</ele>
        <time>2021-04-21T12:56:07Z</time>
      </trkpt>
      <trkpt lat="48.52601" lon="3.08203">
        <ele>133.7</ele>
        <time>2021-04-21T12:56:11Z</time>
      </trkpt>
      <trkpt lat="48.52597" lon="3.082">
        <ele>133.8</ele>
        <time>2021-04-21T12:56:15Z</time>
      </trkpt>
      <trkpt lat="48.52592" lon="3.08196">
        <ele>134</ele>
        <time>2021-04-21T12:56:20Z</time>
      </trkpt>
      <trkpt lat="48.52587" lon="3.08192">
        <ele>133.9</ele>
        <time>2021-04-21T12:56:24Z</time>
      </trkpt>
      <trkpt lat="48.52583" lon="3.08187">
        <ele>134.1</ele>
        <time>2021-04-21T12:56:28Z</time>
      </trkpt>
      <trkpt lat="48.52579" lon="3.08182">
        <ele>134.5</ele>
        <time>2021-04-21T12:56:32Z</time>
      </trkpt>
      <trkpt lat="48.52575" lon="3.08178">
        <ele>135</ele>
        <time>2021-04-21T12:56:36Z</time>
      </trkpt>
      <trkpt lat="48.52571" lon="3.08173">
        <ele>135.4</ele>
        <time>2021-04-21T12:56:40Z</time>
      </trkpt>
      <trkpt lat="48.52567" lon="3.08167">
        <ele>135.7</ele>
        <time>2021-04-21T12:56:44Z</time>
      </trkpt>
      <trkpt lat="48.52564" lon="3.08162">
        <ele>135.7</ele>
        <time>2021-04-21T12:56:47Z</time>
      </trkpt>
      <trkpt lat="48.52559" lon="3.08156">
        <ele>135.6</ele>
        <time>2021-04-21T12:56:51Z</time>
      </trkpt>
      <trkpt lat="48.52555" lon="3.08151">
        <ele>135.6</ele>
        <time>2021-04-21T12:56:55Z</time>
      </trkpt>
      <trkpt lat="48.52552" lon="3.08146">
        <ele>135.6</ele>
        <time>2021-04-21T12:56:59Z</time>
      </trkpt>
      <trkpt lat="48.52549" lon="3.08141">
        <ele>135.6</ele>
        <time>2021-04-21T12:57:03Z</time>
      </trkpt>
      <trkpt lat="48.52545" lon="3.08134">
        <ele>135.6</ele>
        <time>2021-04-21T12:57:07Z</time>
      </trkpt>
      <trkpt lat="48.52542" lon="3.08129">
        <ele>135.5</ele>
        <time>2021-04-21T12:57:33Z</time>
      </trkpt>
      <trkpt lat="48.52539" lon="3.08124">
        <ele>135.3</ele>
        <time>2021-04-21T12:57:37Z</time>
      </trkpt>
      <trkpt lat="48.52535" lon="3.08119">
        <ele>135</ele>
        <time>2021-04-21T12:57:41Z</time>
      </trkpt>
      <trkpt lat="48.52533" lon="3.08112">
        <ele>134.6</ele>
        <time>2021-04-21T12:57:45Z</time>
      </trkpt>
      <trkpt lat="48.52529" lon="3.08105">
        <ele>133.9</ele>
        <time>2021-04-21T12:57:49Z</time>
      </trkpt>
      <trkpt lat="48.52526" lon="3.08098">
        <ele>133.4</ele>
        <time>2021-04-21T12:57:53Z</time>
      </trkpt>
      <trkpt lat="48.52524" lon="3.08092">
        <ele>133</ele>
        <time>2021-04-21T12:57:57Z</time>
      </trkpt>
      <trkpt lat="48.52522" lon="3.08085">
        <ele>132.4</ele>
        <time>2021-04-21T12:58:01Z</time>
      </trkpt>
      <trkpt lat="48.5252" lon="3.08079">
        <ele>131.9</ele>
        <time>2021-04-21T12:58:06Z</time>
      </trkpt>
      <trkpt lat="48.52517" lon="3.08072">
        <ele>131.7</ele>
        <time>2021-04-21T12:58:12Z</time>
      </trkpt>
      <trkpt lat="48.52516" lon="3.08065">
        <ele>131.8</ele>
        <time>2021-04-21T12:58:16Z</time>
      </trkpt>
      <trkpt lat="48.52515" lon="3.08058">
        <ele>132.1</ele>
        <time>2021-04-21T12:58:20Z</time>
      </trkpt>
      <trkpt lat="48.52512" lon="3.08052">
        <ele>132.6</ele>
        <time>2021-04-21T12:58:26Z</time>
      </trkpt>
      <trkpt lat="48.52509" lon="3.08045">
        <ele>133.1</ele>
        <time>2021-04-21T12:58:30Z</time>
      </trkpt>
      <trkpt lat="48.52506" lon="3.08038">
        <ele>133.5</ele>
        <time>2021-04-21T12:58:34Z</time>
      </trkpt>
      <trkpt lat="48.52504" lon="3.08031">
        <ele>133.9</ele>
        <time>2021-04-21T12:58:38Z</time>
      </trkpt>
      <trkpt lat="48.52502" lon="3.08024">
        <ele>134.1</ele>
        <time>2021-04-21T12:58:42Z</time>
      </trkpt>
      <trkpt lat="48.525" lon="3.08017">
        <ele>134.3</ele>
        <time>2021-04-21T12:58:46Z</time>
      </trkpt>
      <trkpt lat="48.52499" lon="3.08011">
        <ele>134.6</ele>
        <time>2021-04-21T12:58:50Z</time>
      </trkpt>
      <trkpt lat="48.52497" lon="3.08004">
        <ele>134.9</ele>
        <time>2021-04-21T12:58:54Z</time>
      </trkpt>
      <trkpt lat="48.52496" lon="3.07996">
        <ele>135.5</ele>
        <time>2021-04-21T12:58:59Z</time>
      </trkpt>
      <trkpt lat="48.52493" lon="3.0799">
        <ele>136.5</ele>
        <time>2021-04-21T12:59:50Z</time>
      </trkpt>
      <trkpt lat="48.52492" lon="3.07982">
        <ele>136.3</ele>
        <time>2021-04-21T13:00:08Z</time>
      </trkpt>
      <trkpt lat="48.5249" lon="3.07975">
        <ele>136.7</ele>
        <time>2021-04-21T13:00:17Z</time>
      </trkpt>
      <trkpt lat="48.52488" lon="3.07967">
        <ele>137.6</ele>
        <time>2021-04-21T13:00:22Z</time>
      </trkpt>
      <trkpt lat="48.52487" lon="3.0796">
        <ele>138</ele>
        <time>2021-04-21T13:00:26Z</time>
      </trkpt>
      <trkpt lat="48.52485" lon="3.07953">
        <ele>138.2</ele>
        <time>2021-04-21T13:00:30Z</time>
      </trkpt>
      <trkpt lat="48.52485" lon="3.07945">
        <ele>137.8</ele>
        <time>2021-04-21T13:00:34Z</time>
      </trkpt>
      <trkpt lat="48.52483" lon="3.07937">
        <ele>136.9</ele>
        <time>2021-04-21T13:00:38Z</time>
      </trkpt>
      <trkpt lat="48.52484" lon="3.07931">
        <ele>136</ele>
        <time>2021-04-21T13:00:42Z</time>
      </trkpt>
      <trkpt lat="48.52482" lon="3.07923">
        <ele>135.2</ele>
        <time>2021-04-21T13:00:46Z</time>
      </trkpt>
      <trkpt lat="48.5248" lon="3.07915">
        <ele>134.8</ele>
        <time>2021-04-21T13:00:50Z</time>
      </trkpt>
      <trkpt lat="48.52479" lon="3.07907">
        <ele>134.6</ele>
        <time>2021-04-21T13:00:54Z</time>
      </trkpt>
      <trkpt lat="48.52478" lon="3.07899">
        <ele>134.5</ele>
        <time>2021-04-21T13:00:58Z</time>
      </trkpt>
      <trkpt lat="48.52476" lon="3.07892">
        <ele>134.5</ele>
        <time>2021-04-21T13:01:02Z</time>
      </trkpt>
      <trkpt lat="48.52474" lon="3.07886">
        <ele>134.5</ele>
        <time>2021-04-21T13:01:06Z</time>
      </trkpt>
      <trkpt lat="48.52472" lon="3.0788">
        <ele>134.4</ele>
        <time>2021-04-21T13:01:10Z</time>
      </trkpt>
      <trkpt lat="48.52471" lon="3.07872">
        <ele>134.2</ele>
        <time>2021-04-21T13:01:15Z</time>
      </trkpt>
      <trkpt lat="48.5247" lon="3.07864">
        <ele>133.7</ele>
        <time>2021-04-21T13:01:21Z</time>
      </trkpt>
      <trkpt lat="48.52468" lon="3.07857">
        <ele>133.6</ele>
        <time>2021-04-21T13:01:25Z</time>
      </trkpt>
      <trkpt lat="48.52466" lon="3.0785">
        <ele>133.7</ele>
        <time>2021-04-21T13:01:30Z</time>
      </trkpt>
      <trkpt lat="48.52465" lon="3.07842">
        <ele>134.3</ele>
        <time>2021-04-21T13:01:35Z</time>
      </trkpt>
      <trkpt lat="48.52463" lon="3.07835">
        <ele>134.7</ele>
        <time>2021-04-21T13:01:39Z</time>
      </trkpt>
      <trkpt lat="48.5246" lon="3.07829">
        <ele>134.8</ele>
        <time>2021-04-21T13:01:43Z</time>
      </trkpt>
      <trkpt lat="48.52458" lon="3.07822">
        <ele>134.7</ele>
        <time>2021-04-21T13:01:47Z</time>
      </trkpt>
      <trkpt lat="48.52455" lon="3.07814">
        <ele>135</ele>
        <time>2021-04-21T13:01:51Z</time>
      </trkpt>
      <trkpt lat="48.52453" lon="3.07808">
        <ele>134.9</ele>
        <time>2021-04-21T13:01:55Z</time>
      </trkpt>
      <trkpt lat="48.52451" lon="3.07801">
        <ele>134.9</ele>
        <time>2021-04-21T13:01:59Z</time>
      </trkpt>
      <trkpt lat="48.52449" lon="3.07793">
        <ele>134.7</ele>
        <time>2021-04-21T13:02:03Z</time>
      </trkpt>
      <trkpt lat="48.52446" lon="3.07786">
        <ele>134.6</ele>
        <time>2021-04-21T13:02:07Z</time>
      </trkpt>
      <trkpt lat="48.52445" lon="3.07779">
        <ele>134.4</ele>
        <time>2021-04-21T13:02:11Z</time>
      </trkpt>
      <trkpt lat="48.52444" lon="3.07772">
        <ele>134.3</ele>
        <time>2021-04-21T13:02:18Z</time>
      </trkpt>
      <trkpt lat="48.52442" lon="3.07766">
        <ele>134.3</ele>
        <time>2021-04-21T13:02:45Z</time>
      </trkpt>
      <trkpt lat="48.52441" lon="3.07758">
        <ele>134.3</ele>
        <time>2021-04-21T13:02:50Z</time>
      </trkpt>
      <trkpt lat="48.52438" lon="3.07751">
        <ele>134.3</ele>
        <time>2021-04-21T13:02:54Z</time>
      </trkpt>
      <trkpt lat="48.52436" lon="3.07744">
        <ele>134.1</ele>
        <time>2021-04-21T13:02:58Z</time>
      </trkpt>
      <trkpt lat="48.52434" lon="3.07737">
        <ele>133.9</ele>
        <time>2021-04-21T13:03:02Z</time>
      </trkpt>
      <trkpt lat="48.52432" lon="3.07731">
        <ele>133.7</ele>
        <time>2021-04-21T13:03:06Z</time>
      </trkpt>
      <trkpt lat="48.52429" lon="3.07723">
        <ele>134</ele>
        <time>2021-04-21T13:03:10Z</time>
      </trkpt>
      <trkpt lat="48.52427" lon="3.07716">
        <ele>134.3</ele>
        <time>2021-04-21T13:03:14Z</time>
      </trkpt>
      <trkpt lat="48.52424" lon="3.07709">
        <ele>134.4</ele>
        <time>2021-04-21T13:03:18Z</time>
      </trkpt>
      <trkpt lat="48.52422" lon="3.07703">
        <ele>134.6</ele>
        <time>2021-04-21T13:03:22Z</time>
      </trkpt>
      <trkpt lat="48.52419" lon="3.07695">
        <ele>134.9</ele>
        <time>2021-04-21T13:03:26Z</time>
      </trkpt>
      <trkpt lat="48.52418" lon="3.07688">
        <ele>135.2</ele>
        <time>2021-04-21T13:03:30Z</time>
      </trkpt>
      <trkpt lat="48.52416" lon="3.0768">
        <ele>135.2</ele>
        <time>2021-04-21T13:03:34Z</time>
      </trkpt>
      <trkpt lat="48.52416" lon="3.07673">
        <ele>135</ele>
        <time>2021-04-21T13:03:38Z</time>
      </trkpt>
      <trkpt lat="48.52414" lon="3.07666">
        <ele>134.5</ele>
        <time>2021-04-21T13:03:43Z</time>
      </trkpt>
      <trkpt lat="48.52412" lon="3.07659">
        <ele>134.6</ele>
        <time>2021-04-21T13:03:47Z</time>
      </trkpt>
      <trkpt lat="48.5241" lon="3.07651">
        <ele>134.8</ele>
        <time>2021-04-21T13:03:52Z</time>
      </trkpt>
      <trkpt lat="48.52409" lon="3.07644">
        <ele>135</ele>
        <time>2021-04-21T13:03:56Z</time>
      </trkpt>
      <trkpt lat="48.52406" lon="3.07636">
        <ele>135</ele>
        <time>2021-04-21T13:04:00Z</time>
      </trkpt>
      <trkpt lat="48.52403" lon="3.0763">
        <ele>134.9</ele>
        <time>2021-04-21T13:04:04Z</time>
      </trkpt>
      <trkpt lat="48.52401" lon="3.07623">
        <ele>135.1</ele>
        <time>2021-04-21T13:04:08Z</time>
      </trkpt>
      <trkpt lat="48.524" lon="3.07615">
        <ele>135.2</ele>
        <time>2021-04-21T13:04:13Z</time>
      </trkpt>
      <trkpt lat="48.52398" lon="3.07608">
        <ele>135.2</ele>
        <time>2021-04-21T13:04:17Z</time>
      </trkpt>
      <trkpt lat="48.52396" lon="3.07601">
        <ele>135.3</ele>
        <time>2021-04-21T13:04:21Z</time>
      </trkpt>
      <trkpt lat="48.52395" lon="3.07593">
        <ele>135.5</ele>
        <time>2021-04-21T13:04:25Z</time>
      </trkpt>
      <trkpt lat="48.52392" lon="3.07585">
        <ele>135.6</ele>
        <time>2021-04-21T13:04:29Z</time>
      </trkpt>
      <trkpt lat="48.5239" lon="3.07578">
        <ele>135.7</ele>
        <time>2021-04-21T13:04:33Z</time>
      </trkpt>
      <trkpt lat="48.52388" lon="3.0757">
        <ele>136.1</ele>
        <time>2021-04-21T13:04:37Z</time>
      </trkpt>
      <trkpt lat="48.52386" lon="3.07563">
        <ele>136.4</ele>
        <time>2021-04-21T13:04:41Z</time>
      </trkpt>
      <trkpt lat="48.52384" lon="3.07555">
        <ele>136.5</ele>
        <time>2021-04-21T13:04:45Z</time>
      </trkpt>
      <trkpt lat="48.52382" lon="3.07547">
        <ele>136.2</ele>
        <time>2021-04-21T13:04:49Z</time>
      </trkpt>
      <trkpt lat="48.5238" lon="3.07539">
        <ele>135.9</ele>
        <time>2021-04-21T13:04:54Z</time>
      </trkpt>
      <trkpt lat="48.52378" lon="3.07532">
        <ele>135.7</ele>
        <time>2021-04-21T13:04:58Z</time>
      </trkpt>
      <trkpt lat="48.52377" lon="3.07524">
        <ele>135.5</ele>
        <time>2021-04-21T13:05:02Z</time>
      </trkpt>
      <trkpt lat="48.52376" lon="3.07516">
        <ele>135.4</ele>
        <time>2021-04-21T13:05:06Z</time>
      </trkpt>
      <trkpt lat="48.52374" lon="3.07508">
        <ele>135.1</ele>
        <time>2021-04-21T13:05:10Z</time>
      </trkpt>
      <trkpt lat="48.52373" lon="3.07501">
        <ele>134.9</ele>
        <time>2021-04-21T13:05:14Z</time>
      </trkpt>
      <trkpt lat="48.52372" lon="3.07493">
        <ele>135</ele>
        <time>2021-04-21T13:05:18Z</time>
      </trkpt>
      <trkpt lat="48.5237" lon="3.07485">
        <ele>134.9</ele>
        <time>2021-04-21T13:05:22Z</time>
      </trkpt>
      <trkpt lat="48.52369" lon="3.07478">
        <ele>134.8</ele>
        <time>2021-04-21T13:05:26Z</time>
      </trkpt>
      <trkpt lat="48.52367" lon="3.0747">
        <ele>134.7</ele>
        <time>2021-04-21T13:05:30Z</time>
      </trkpt>
      <trkpt lat="48.52366" lon="3.07462">
        <ele>134.9</ele>
        <time>2021-04-21T13:05:34Z</time>
      </trkpt>
      <trkpt lat="48.52365" lon="3.07455">
        <ele>135.3</ele>
        <time>2021-04-21T13:05:38Z</time>
      </trkpt>
      <trkpt lat="48.52364" lon="3.07448">
        <ele>135.4</ele>
        <time>2021-04-21T13:05:42Z</time>
      </trkpt>
      <trkpt lat="48.52362" lon="3.07441">
        <ele>135.6</ele>
        <time>2021-04-21T13:05:46Z</time>
      </trkpt>
      <trkpt lat="48.5236" lon="3.07434">
        <ele>135.6</ele>
        <time>2021-04-21T13:05:50Z</time>
      </trkpt>
      <trkpt lat="48.52358" lon="3.07426">
        <ele>135.5</ele>
        <time>2021-04-21T13:05:54Z</time>
      </trkpt>
      <trkpt lat="48.52358" lon="3.07419">
        <ele>135.3</ele>
        <time>2021-04-21T13:05:58Z</time>
      </trkpt>
      <trkpt lat="48.52357" lon="3.07412">
        <ele>135.1</ele>
        <time>2021-04-21T13:06:02Z</time>
      </trkpt>
      <trkpt lat="48.52356" lon="3.07405">
        <ele>135</ele>
        <time>2021-04-21T13:06:06Z</time>
      </trkpt>
      <trkpt lat="48.52354" lon="3.07398">
        <ele>134.8</ele>
        <time>2021-04-21T13:06:10Z</time>
      </trkpt>
      <trkpt lat="48.52352" lon="3.07391">
        <ele>134.6</ele>
        <time>2021-04-21T13:06:14Z</time>
      </trkpt>
      <trkpt lat="48.52351" lon="3.07384">
        <ele>134.5</ele>
        <time>2021-04-21T13:06:18Z</time>
      </trkpt>
      <trkpt lat="48.5235" lon="3.07376">
        <ele>134.5</ele>
        <time>2021-04-21T13:06:22Z</time>
      </trkpt>
      <trkpt lat="48.52349" lon="3.07369">
        <ele>134.6</ele>
        <time>2021-04-21T13:06:26Z</time>
      </trkpt>
      <trkpt lat="48.52348" lon="3.07362">
        <ele>134.7</ele>
        <time>2021-04-21T13:06:30Z</time>
      </trkpt>
      <trkpt lat="48.52346" lon="3.07355">
        <ele>134.8</ele>
        <time>2021-04-21T13:06:34Z</time>
      </trkpt>
      <trkpt lat="48.52345" lon="3.07347">
        <ele>134.8</ele>
        <time>2021-04-21T13:06:38Z</time>
      </trkpt>
      <trkpt lat="48.52343" lon="3.07339">
        <ele>134.9</ele>
        <time>2021-04-21T13:06:42Z</time>
      </trkpt>
      <trkpt lat="48.52342" lon="3.07332">
        <ele>134.8</ele>
        <time>2021-04-21T13:06:46Z</time>
      </trkpt>
      <trkpt lat="48.5234" lon="3.07323">
        <ele>134.6</ele>
        <time>2021-04-21T13:06:50Z</time>
      </trkpt>
      <trkpt lat="48.52339" lon="3.07315">
        <ele>134.2</ele>
        <time>2021-04-21T13:06:54Z</time>
      </trkpt>
      <trkpt lat="48.52338" lon="3.07308">
        <ele>134.2</ele>
        <time>2021-04-21T13:06:58Z</time>
      </trkpt>
      <trkpt lat="48.52337" lon="3.073">
        <ele>134.4</ele>
        <time>2021-04-21T13:07:03Z</time>
      </trkpt>
      <trkpt lat="48.52336" lon="3.07292">
        <ele>134.7</ele>
        <time>2021-04-21T13:07:07Z</time>
      </trkpt>
      <trkpt lat="48.52334" lon="3.07285">
        <ele>134.8</ele>
        <time>2021-04-21T13:07:11Z</time>
      </trkpt>
      <trkpt lat="48.52332" lon="3.07277">
        <ele>134.9</ele>
        <time>2021-04-21T13:07:15Z</time>
      </trkpt>
      <trkpt lat="48.5233" lon="3.07269">
        <ele>134.9</ele>
        <time>2021-04-21T13:07:19Z</time>
      </trkpt>
      <trkpt lat="48.52328" lon="3.07261">
        <ele>135.1</ele>
        <time>2021-04-21T13:07:23Z</time>
      </trkpt>
      <trkpt lat="48.52327" lon="3.07254">
        <ele>135.5</ele>
        <time>2021-04-21T13:07:27Z</time>
      </trkpt>
      <trkpt lat="48.52325" lon="3.07247">
        <ele>135.9</ele>
        <time>2021-04-21T13:07:31Z</time>
      </trkpt>
      <trkpt lat="48.52323" lon="3.0724">
        <ele>136.2</ele>
        <time>2021-04-21T13:07:35Z</time>
      </trkpt>
      <trkpt lat="48.52322" lon="3.07233">
        <ele>136.3</ele>
        <time>2021-04-21T13:07:39Z</time>
      </trkpt>
      <trkpt lat="48.52321" lon="3.07226">
        <ele>136.5</ele>
        <time>2021-04-21T13:07:43Z</time>
      </trkpt>
      <trkpt lat="48.5232" lon="3.07219">
        <ele>136.7</ele>
        <time>2021-04-21T13:07:47Z</time>
      </trkpt>
      <trkpt lat="48.52319" lon="3.07211">
        <ele>136.7</ele>
        <time>2021-04-21T13:07:51Z</time>
      </trkpt>
      <trkpt lat="48.52317" lon="3.07203">
        <ele>136.4</ele>
        <time>2021-04-21T13:07:55Z</time>
      </trkpt>
      <trkpt lat="48.52316" lon="3.07195">
        <ele>136</ele>
        <time>2021-04-21T13:07:59Z</time>
      </trkpt>
      <trkpt lat="48.52315" lon="3.07186">
        <ele>135.7</ele>
        <time>2021-04-21T13:08:03Z</time>
      </trkpt>
      <trkpt lat="48.52315" lon="3.07179">
        <ele>135.6</ele>
        <time>2021-04-21T13:08:07Z</time>
      </trkpt>
      <trkpt lat="48.52314" lon="3.07171">
        <ele>135.5</ele>
        <time>2021-04-21T13:08:11Z</time>
      </trkpt>
      <trkpt lat="48.52313" lon="3.07164">
        <ele>135.3</ele>
        <time>2021-04-21T13:08:15Z</time>
      </trkpt>
      <trkpt lat="48.52311" lon="3.07157">
        <ele>134.8</ele>
        <time>2021-04-21T13:08:19Z</time>
      </trkpt>
      <trkpt lat="48.52309" lon="3.07151">
        <ele>134.6</ele>
        <time>2021-04-21T13:08:23Z</time>
      </trkpt>
      <trkpt lat="48.52307" lon="3.07143">
        <ele>134.9</ele>
        <time>2021-04-21T13:08:28Z</time>
      </trkpt>
      <trkpt lat="48.52305" lon="3.07136">
        <ele>135.4</ele>
        <time>2021-04-21T13:08:32Z</time>
      </trkpt>
      <trkpt lat="48.52303" lon="3.07129">
        <ele>135.9</ele>
        <time>2021-04-21T13:08:36Z</time>
      </trkpt>
      <trkpt lat="48.52302" lon="3.07122">
        <ele>136.5</ele>
        <time>2021-04-21T13:08:41Z</time>
      </trkpt>
      <trkpt lat="48.52301" lon="3.07115">
        <ele>137</ele>
        <time>2021-04-21T13:08:45Z</time>
      </trkpt>
      <trkpt lat="48.52299" lon="3.07108">
        <ele>137.4</ele>
        <time>2021-04-21T13:08:50Z</time>
      </trkpt>
      <trkpt lat="48.52297" lon="3.07101">
        <ele>137.5</ele>
        <time>2021-04-21T13:08:54Z</time>
      </trkpt>
      <trkpt lat="48.52294" lon="3.07094">
        <ele>137.6</ele>
        <time>2021-04-21T13:08:58Z</time>
      </trkpt>
      <trkpt lat="48.52291" lon="3.07088">
        <ele>137.7</ele>
        <time>2021-04-21T13:09:02Z</time>
      </trkpt>
      <trkpt lat="48.52289" lon="3.07081">
        <ele>138</ele>
        <time>2021-04-21T13:09:06Z</time>
      </trkpt>
      <trkpt lat="48.52286" lon="3.07076">
        <ele>138.3</ele>
        <time>2021-04-21T13:09:10Z</time>
      </trkpt>
      <trkpt lat="48.52283" lon="3.0707">
        <ele>138.8</ele>
        <time>2021-04-21T13:09:14Z</time>
      </trkpt>
      <trkpt lat="48.52279" lon="3.07064">
        <ele>139.3</ele>
        <time>2021-04-21T13:09:18Z</time>
      </trkpt>
      <trkpt lat="48.52276" lon="3.07059">
        <ele>139.8</ele>
        <time>2021-04-21T13:09:22Z</time>
      </trkpt>
      <trkpt lat="48.52272" lon="3.07053">
        <ele>140</ele>
        <time>2021-04-21T13:09:26Z</time>
      </trkpt>
      <trkpt lat="48.52269" lon="3.07046">
        <ele>140.2</ele>
        <time>2021-04-21T13:09:30Z</time>
      </trkpt>
      <trkpt lat="48.52267" lon="3.0704">
        <ele>140</ele>
        <time>2021-04-21T13:09:34Z</time>
      </trkpt>
      <trkpt lat="48.52263" lon="3.07033">
        <ele>139.5</ele>
        <time>2021-04-21T13:09:38Z</time>
      </trkpt>
      <trkpt lat="48.5226" lon="3.07026">
        <ele>139.3</ele>
        <time>2021-04-21T13:09:42Z</time>
      </trkpt>
      <trkpt lat="48.52256" lon="3.07022">
        <ele>138.8</ele>
        <time>2021-04-21T13:09:45Z</time>
      </trkpt>
      <trkpt lat="48.52253" lon="3.07017">
        <ele>138.1</ele>
        <time>2021-04-21T13:09:48Z</time>
      </trkpt>
      <trkpt lat="48.52249" lon="3.07011">
        <ele>136.8</ele>
        <time>2021-04-21T13:09:53Z</time>
      </trkpt>
      <trkpt lat="48.52246" lon="3.07005">
        <ele>135.2</ele>
        <time>2021-04-21T13:10:01Z</time>
      </trkpt>
      <trkpt lat="48.52242" lon="3.07">
        <ele>134.3</ele>
        <time>2021-04-21T13:10:06Z</time>
      </trkpt>
      <trkpt lat="48.52238" lon="3.06996">
        <ele>133.5</ele>
        <time>2021-04-21T13:10:10Z</time>
      </trkpt>
      <trkpt lat="48.52233" lon="3.0699">
        <ele>133</ele>
        <time>2021-04-21T13:10:14Z</time>
      </trkpt>
      <trkpt lat="48.5223" lon="3.06984">
        <ele>132.6</ele>
        <time>2021-04-21T13:10:19Z</time>
      </trkpt>
      <trkpt lat="48.52226" lon="3.06979">
        <ele>132.7</ele>
        <time>2021-04-21T13:10:23Z</time>
      </trkpt>
      <trkpt lat="48.52222" lon="3.06974">
        <ele>132.7</ele>
        <time>2021-04-21T13:10:27Z</time>
      </trkpt>
      <trkpt lat="48.52218" lon="3.0697">
        <ele>132.6</ele>
        <time>2021-04-21T13:10:31Z</time>
      </trkpt>
      <trkpt lat="48.52213" lon="3.06965">
        <ele>132.3</ele>
        <time>2021-04-21T13:10:35Z</time>
      </trkpt>
      <trkpt lat="48.52208" lon="3.0696">
        <ele>132.1</ele>
        <time>2021-04-21T13:10:39Z</time>
      </trkpt>
      <trkpt lat="48.52204" lon="3.06956">
        <ele>131.6</ele>
        <time>2021-04-21T13:10:43Z</time>
      </trkpt>
      <trkpt lat="48.52199" lon="3.06952">
        <ele>131.2</ele>
        <time>2021-04-21T13:10:47Z</time>
      </trkpt>
      <trkpt lat="48.52194" lon="3.06948">
        <ele>130.4</ele>
        <time>2021-04-21T13:10:51Z</time>
      </trkpt>
      <trkpt lat="48.5219" lon="3.06945">
        <ele>129.6</ele>
        <time>2021-04-21T13:10:56Z</time>
      </trkpt>
      <trkpt lat="48.52186" lon="3.0694">
        <ele>129</ele>
        <time>2021-04-21T13:11:00Z</time>
      </trkpt>
      <trkpt lat="48.52181" lon="3.06936">
        <ele>128.4</ele>
        <time>2021-04-21T13:11:04Z</time>
      </trkpt>
      <trkpt lat="48.52176" lon="3.06931">
        <ele>127.8</ele>
        <time>2021-04-21T13:11:08Z</time>
      </trkpt>
      <trkpt lat="48.52171" lon="3.06927">
        <ele>127.3</ele>
        <time>2021-04-21T13:11:12Z</time>
      </trkpt>
      <trkpt lat="48.52167" lon="3.06923">
        <ele>126.8</ele>
        <time>2021-04-21T13:11:17Z</time>
      </trkpt>
      <trkpt lat="48.52162" lon="3.06919">
        <ele>126.1</ele>
        <time>2021-04-21T13:11:21Z</time>
      </trkpt>
      <trkpt lat="48.52158" lon="3.06915">
        <ele>125.8</ele>
        <time>2021-04-21T13:11:25Z</time>
      </trkpt>
      <trkpt lat="48.52155" lon="3.0691">
        <ele>125.7</ele>
        <time>2021-04-21T13:11:29Z</time>
      </trkpt>
      <trkpt lat="48.5215" lon="3.06906">
        <ele>125.7</ele>
        <time>2021-04-21T13:11:33Z</time>
      </trkpt>
      <trkpt lat="48.52145" lon="3.06902">
        <ele>126.2</ele>
        <time>2021-04-21T13:11:37Z</time>
      </trkpt>
      <trkpt lat="48.52141" lon="3.06897">
        <ele>126.6</ele>
        <time>2021-04-21T13:11:41Z</time>
      </trkpt>
      <trkpt lat="48.52137" lon="3.06892">
        <ele>127</ele>
        <time>2021-04-21T13:11:45Z</time>
      </trkpt>
      <trkpt lat="48.52133" lon="3.06887">
        <ele>127.4</ele>
        <time>2021-04-21T13:11:49Z</time>
      </trkpt>
      <trkpt lat="48.52128" lon="3.06883">
        <ele>127.9</ele>
        <time>2021-04-21T13:11:53Z</time>
      </trkpt>
      <trkpt lat="48.52123" lon="3.0688">
        <ele>128.4</ele>
        <time>2021-04-21T13:11:57Z</time>
      </trkpt>
      <trkpt lat="48.52119" lon="3.06876">
        <ele>128.7</ele>
        <time>2021-04-21T13:12:01Z</time>
      </trkpt>
      <trkpt lat="48.52115" lon="3.06872">
        <ele>128.5</ele>
        <time>2021-04-21T13:12:05Z</time>
      </trkpt>
      <trkpt lat="48.52111" lon="3.06867">
        <ele>128.2</ele>
        <time>2021-04-21T13:12:09Z</time>
      </trkpt>
      <trkpt lat="48.52107" lon="3.06863">
        <ele>127.7</ele>
        <time>2021-04-21T13:12:13Z</time>
      </trkpt>
      <trkpt lat="48.52104" lon="3.06857">
        <ele>127.2</ele>
        <time>2021-04-21T13:12:18Z</time>
      </trkpt>
      <trkpt lat="48.521" lon="3.06852">
        <ele>127.1</ele>
        <time>2021-04-21T13:12:23Z</time>
      </trkpt>
      <trkpt lat="48.52095" lon="3.06847">
        <ele>126.9</ele>
        <time>2021-04-21T13:12:27Z</time>
      </trkpt>
      <trkpt lat="48.52091" lon="3.06843">
        <ele>126.8</ele>
        <time>2021-04-21T13:12:30Z</time>
      </trkpt>
      <trkpt lat="48.52087" lon="3.06839">
        <ele>126.7</ele>
        <time>2021-04-21T13:12:33Z</time>
      </trkpt>
      <trkpt lat="48.52083" lon="3.06834">
        <ele>126.3</ele>
        <time>2021-04-21T13:12:38Z</time>
      </trkpt>
      <trkpt lat="48.52079" lon="3.06828">
        <ele>126</ele>
        <time>2021-04-21T13:12:42Z</time>
      </trkpt>
      <trkpt lat="48.52075" lon="3.06822">
        <ele>125.5</ele>
        <time>2021-04-21T13:12:46Z</time>
      </trkpt>
      <trkpt lat="48.52072" lon="3.06817">
        <ele>125.5</ele>
        <time>2021-04-21T13:12:51Z</time>
      </trkpt>
      <trkpt lat="48.52068" lon="3.06812">
        <ele>125.6</ele>
        <time>2021-04-21T13:12:55Z</time>
      </trkpt>
      <trkpt lat="48.52064" lon="3.06807">
        <ele>126</ele>
        <time>2021-04-21T13:12:59Z</time>
      </trkpt>
      <trkpt lat="48.5206" lon="3.06803">
        <ele>126.3</ele>
        <time>2021-04-21T13:13:02Z</time>
      </trkpt>
      <trkpt lat="48.52056" lon="3.06798">
        <ele>126.4</ele>
        <time>2021-04-21T13:13:06Z</time>
      </trkpt>
      <trkpt lat="48.52052" lon="3.06792">
        <ele>126.6</ele>
        <time>2021-04-21T13:13:10Z</time>
      </trkpt>
      <trkpt lat="48.52048" lon="3.06788">
        <ele>126.7</ele>
        <time>2021-04-21T13:13:14Z</time>
      </trkpt>
      <trkpt lat="48.52043" lon="3.06783">
        <ele>126.8</ele>
        <time>2021-04-21T13:13:18Z</time>
      </trkpt>
      <trkpt lat="48.52039" lon="3.06777">
        <ele>127</ele>
        <time>2021-04-21T13:13:22Z</time>
      </trkpt>
      <trkpt lat="48.52035" lon="3.06773">
        <ele>127.3</ele>
        <time>2021-04-21T13:13:26Z</time>
      </trkpt>
      <trkpt lat="48.5203" lon="3.06767">
        <ele>127.8</ele>
        <time>2021-04-21T13:13:30Z</time>
      </trkpt>
      <trkpt lat="48.52028" lon="3.06761">
        <ele>128.3</ele>
        <time>2021-04-21T13:13:35Z</time>
      </trkpt>
      <trkpt lat="48.52025" lon="3.06755">
        <ele>128.1</ele>
        <time>2021-04-21T13:13:43Z</time>
      </trkpt>
      <trkpt lat="48.5202" lon="3.0675">
        <ele>127.9</ele>
        <time>2021-04-21T13:13:47Z</time>
      </trkpt>
      <trkpt lat="48.52017" lon="3.06746">
        <ele>127.8</ele>
        <time>2021-04-21T13:13:51Z</time>
      </trkpt>
      <trkpt lat="48.52013" lon="3.06742">
        <ele>127.8</ele>
        <time>2021-04-21T13:13:55Z</time>
      </trkpt>
      <trkpt lat="48.52009" lon="3.06738">
        <ele>127.8</ele>
        <time>2021-04-21T13:13:59Z</time>
      </trkpt>
      <trkpt lat="48.52005" lon="3.06733">
        <ele>127.8</ele>
        <time>2021-04-21T13:14:03Z</time>
      </trkpt>
      <trkpt lat="48.52001" lon="3.06729">
        <ele>128</ele>
        <time>2021-04-21T13:14:07Z</time>
      </trkpt>
      <trkpt lat="48.51997" lon="3.06725">
        <ele>128.1</ele>
        <time>2021-04-21T13:14:11Z</time>
      </trkpt>
      <trkpt lat="48.51993" lon="3.0672">
        <ele>128.3</ele>
        <time>2021-04-21T13:14:15Z</time>
      </trkpt>
      <trkpt lat="48.5199" lon="3.06714">
        <ele>129</ele>
        <time>2021-04-21T13:14:21Z</time>
      </trkpt>
      <trkpt lat="48.51986" lon="3.06709">
        <ele>129.2</ele>
        <time>2021-04-21T13:14:25Z</time>
      </trkpt>
      <trkpt lat="48.51982" lon="3.06703">
        <ele>129.3</ele>
        <time>2021-04-21T13:14:30Z</time>
      </trkpt>
      <trkpt lat="48.51979" lon="3.06698">
        <ele>129.4</ele>
        <time>2021-04-21T13:14:35Z</time>
      </trkpt>
      <trkpt lat="48.51975" lon="3.06692">
        <ele>129.6</ele>
        <time>2021-04-21T13:14:39Z</time>
      </trkpt>
      <trkpt lat="48.5197" lon="3.06687">
        <ele>129.7</ele>
        <time>2021-04-21T13:14:43Z</time>
      </trkpt>
      <trkpt lat="48.51966" lon="3.06684">
        <ele>129.8</ele>
        <time>2021-04-21T13:14:46Z</time>
      </trkpt>
      <trkpt lat="48.51961" lon="3.0668">
        <ele>129.8</ele>
        <time>2021-04-21T13:14:49Z</time>
      </trkpt>
      <trkpt lat="48.51957" lon="3.06675">
        <ele>129.8</ele>
        <time>2021-04-21T13:14:53Z</time>
      </trkpt>
      <trkpt lat="48.51954" lon="3.0667">
        <ele>129.8</ele>
        <time>2021-04-21T13:14:57Z</time>
      </trkpt>
      <trkpt lat="48.5195" lon="3.06664">
        <ele>130.1</ele>
        <time>2021-04-21T13:15:02Z</time>
      </trkpt>
      <trkpt lat="48.51947" lon="3.06658">
        <ele>130.4</ele>
        <time>2021-04-21T13:15:07Z</time>
      </trkpt>
      <trkpt lat="48.51943" lon="3.06652">
        <ele>130.7</ele>
        <time>2021-04-21T13:15:11Z</time>
      </trkpt>
      <trkpt lat="48.5194" lon="3.06647">
        <ele>130.7</ele>
        <time>2021-04-21T13:15:15Z</time>
      </trkpt>
      <trkpt lat="48.51936" lon="3.06641">
        <ele>130.8</ele>
        <time>2021-04-21T13:15:19Z</time>
      </trkpt>
      <trkpt lat="48.51933" lon="3.06637">
        <ele>130.9</ele>
        <time>2021-04-21T13:15:22Z</time>
      </trkpt>
      <trkpt lat="48.51928" lon="3.06633">
        <ele>130.4</ele>
        <time>2021-04-21T13:15:26Z</time>
      </trkpt>
      <trkpt lat="48.51924" lon="3.06629">
        <ele>129.5</ele>
        <time>2021-04-21T13:15:31Z</time>
      </trkpt>
      <trkpt lat="48.5192" lon="3.06624">
        <ele>128.9</ele>
        <time>2021-04-21T13:15:35Z</time>
      </trkpt>
      <trkpt lat="48.51917" lon="3.06619">
        <ele>128.8</ele>
        <time>2021-04-21T13:15:39Z</time>
      </trkpt>
      <trkpt lat="48.51914" lon="3.06614">
        <ele>128.8</ele>
        <time>2021-04-21T13:15:43Z</time>
      </trkpt>
      <trkpt lat="48.51909" lon="3.06609">
        <ele>128.8</ele>
        <time>2021-04-21T13:15:47Z</time>
      </trkpt>
      <trkpt lat="48.51906" lon="3.06603">
        <ele>128.9</ele>
        <time>2021-04-21T13:15:52Z</time>
      </trkpt>
      <trkpt lat="48.51903" lon="3.06596">
        <ele>129.1</ele>
        <time>2021-04-21T13:15:57Z</time>
      </trkpt>
      <trkpt lat="48.51899" lon="3.06592">
        <ele>128.9</ele>
        <time>2021-04-21T13:16:01Z</time>
      </trkpt>
      <trkpt lat="48.51895" lon="3.06589">
        <ele>128.9</ele>
        <time>2021-04-21T13:16:06Z</time>
      </trkpt>
      <trkpt lat="48.51891" lon="3.06584">
        <ele>128.8</ele>
        <time>2021-04-21T13:16:11Z</time>
      </trkpt>
      <trkpt lat="48.51888" lon="3.06578">
        <ele>129.1</ele>
        <time>2021-04-21T13:16:16Z</time>
      </trkpt>
      <trkpt lat="48.51884" lon="3.06574">
        <ele>129.7</ele>
        <time>2021-04-21T13:16:21Z</time>
      </trkpt>
      <trkpt lat="48.5188" lon="3.0657">
        <ele>130.8</ele>
        <time>2021-04-21T13:16:27Z</time>
      </trkpt>
      <trkpt lat="48.51877" lon="3.06564">
        <ele>132.3</ele>
        <time>2021-04-21T13:16:35Z</time>
      </trkpt>
      <trkpt lat="48.51874" lon="3.0656">
        <ele>133.3</ele>
        <time>2021-04-21T13:16:41Z</time>
      </trkpt>
      <trkpt lat="48.51869" lon="3.06556">
        <ele>134.2</ele>
        <time>2021-04-21T13:16:46Z</time>
      </trkpt>
      <trkpt lat="48.51865" lon="3.06552">
        <ele>135.1</ele>
        <time>2021-04-21T13:16:51Z</time>
      </trkpt>
      <trkpt lat="48.51861" lon="3.06549">
        <ele>135.7</ele>
        <time>2021-04-21T13:16:55Z</time>
      </trkpt>
      <trkpt lat="48.51856" lon="3.06547">
        <ele>136.6</ele>
        <time>2021-04-21T13:17:00Z</time>
      </trkpt>
      <trkpt lat="48.51855" lon="3.0654">
        <ele>138</ele>
        <time>2021-04-21T13:17:07Z</time>
      </trkpt>
      <trkpt lat="48.51852" lon="3.0653">
        <ele>138.5</ele>
        <time>2021-04-21T13:17:12Z</time>
      </trkpt>
      <trkpt lat="48.51852" lon="3.06521">
        <ele>138.6</ele>
        <time>2021-04-21T13:17:15Z</time>
      </trkpt>
      <trkpt lat="48.51851" lon="3.06514">
        <ele>138.7</ele>
        <time>2021-04-21T13:17:18Z</time>
      </trkpt>
      <trkpt lat="48.51849" lon="3.06508">
        <ele>138.7</ele>
        <time>2021-04-21T13:17:21Z</time>
      </trkpt>
      <trkpt lat="48.51846" lon="3.06501">
        <ele>138.9</ele>
        <time>2021-04-21T13:17:25Z</time>
      </trkpt>
      <trkpt lat="48.51843" lon="3.06498">
        <ele>139.5</ele>
        <time>2021-04-21T13:17:31Z</time>
      </trkpt>
      <trkpt lat="48.51838" lon="3.06497">
        <ele>140.9</ele>
        <time>2021-04-21T13:17:39Z</time>
      </trkpt>
      <trkpt lat="48.51833" lon="3.06498">
        <ele>141.7</ele>
        <time>2021-04-21T13:17:44Z</time>
      </trkpt>
      <trkpt lat="48.51828" lon="3.06499">
        <ele>142.5</ele>
        <time>2021-04-21T13:17:49Z</time>
      </trkpt>
      <trkpt lat="48.51823" lon="3.065">
        <ele>143.2</ele>
        <time>2021-04-21T13:17:53Z</time>
      </trkpt>
      <trkpt lat="48.51818" lon="3.06501">
        <ele>144.4</ele>
        <time>2021-04-21T13:17:59Z</time>
      </trkpt>
      <trkpt lat="48.51812" lon="3.06502">
        <ele>145.5</ele>
        <time>2021-04-21T13:18:05Z</time>
      </trkpt>
      <trkpt lat="48.51807" lon="3.06501">
        <ele>146</ele>
        <time>2021-04-21T13:18:09Z</time>
      </trkpt>
      <trkpt lat="48.51803" lon="3.06499">
        <ele>146.3</ele>
        <time>2021-04-21T13:18:12Z</time>
      </trkpt>
      <trkpt lat="48.51797" lon="3.06497">
        <ele>146.7</ele>
        <time>2021-04-21T13:18:16Z</time>
      </trkpt>
      <trkpt lat="48.51792" lon="3.06497">
        <ele>147.7</ele>
        <time>2021-04-21T13:18:22Z</time>
      </trkpt>
      <trkpt lat="48.51786" lon="3.06498">
        <ele>148.6</ele>
        <time>2021-04-21T13:18:27Z</time>
      </trkpt>
      <trkpt lat="48.51781" lon="3.065">
        <ele>149.4</ele>
        <time>2021-04-21T13:18:30Z</time>
      </trkpt>
      <trkpt lat="48.51774" lon="3.06501">
        <ele>150</ele>
        <time>2021-04-21T13:18:33Z</time>
      </trkpt>
      <trkpt lat="48.51766" lon="3.065">
        <ele>150.5</ele>
        <time>2021-04-21T13:18:36Z</time>
      </trkpt>
      <trkpt lat="48.5176" lon="3.06501">
        <ele>150.9</ele>
        <time>2021-04-21T13:18:39Z</time>
      </trkpt>
      <trkpt lat="48.51755" lon="3.06503">
        <ele>151.1</ele>
        <time>2021-04-21T13:18:42Z</time>
      </trkpt>
      <trkpt lat="48.51749" lon="3.06505">
        <ele>151.3</ele>
        <time>2021-04-21T13:18:45Z</time>
      </trkpt>
      <trkpt lat="48.51743" lon="3.06507">
        <ele>151.5</ele>
        <time>2021-04-21T13:18:48Z</time>
      </trkpt>
      <trkpt lat="48.51739" lon="3.06512">
        <ele>151.9</ele>
        <time>2021-04-21T13:18:52Z</time>
      </trkpt>
      <trkpt lat="48.51737" lon="3.06518">
        <ele>152.2</ele>
        <time>2021-04-21T13:18:56Z</time>
      </trkpt>
      <trkpt lat="48.51735" lon="3.06525">
        <ele>152.5</ele>
        <time>2021-04-21T13:18:59Z</time>
      </trkpt>
      <trkpt lat="48.51732" lon="3.06531">
        <ele>152.7</ele>
        <time>2021-04-21T13:19:02Z</time>
      </trkpt>
      <trkpt lat="48.51731" lon="3.0654">
        <ele>153</ele>
        <time>2021-04-21T13:19:06Z</time>
      </trkpt>
      <trkpt lat="48.51731" lon="3.06547">
        <ele>153.2</ele>
        <time>2021-04-21T13:19:10Z</time>
      </trkpt>
      <trkpt lat="48.5173" lon="3.06554">
        <ele>153.5</ele>
        <time>2021-04-21T13:19:14Z</time>
      </trkpt>
      <trkpt lat="48.51728" lon="3.0656">
        <ele>154.1</ele>
        <time>2021-04-21T13:19:19Z</time>
      </trkpt>
      <trkpt lat="48.51725" lon="3.06567">
        <ele>154.6</ele>
        <time>2021-04-21T13:19:24Z</time>
      </trkpt>
      <trkpt lat="48.51723" lon="3.06574">
        <ele>154.9</ele>
        <time>2021-04-21T13:19:29Z</time>
      </trkpt>
      <trkpt lat="48.5172" lon="3.06582">
        <ele>155</ele>
        <time>2021-04-21T13:19:33Z</time>
      </trkpt>
      <trkpt lat="48.51717" lon="3.06589">
        <ele>155.2</ele>
        <time>2021-04-21T13:19:37Z</time>
      </trkpt>
      <trkpt lat="48.51714" lon="3.06595">
        <ele>155.5</ele>
        <time>2021-04-21T13:19:42Z</time>
      </trkpt>
      <trkpt lat="48.51712" lon="3.06609">
        <ele>155.3</ele>
        <time>2021-04-21T13:19:45Z</time>
      </trkpt>
      <trkpt lat="48.51711" lon="3.06624">
        <ele>154.4</ele>
        <time>2021-04-21T13:19:48Z</time>
      </trkpt>
      <trkpt lat="48.51712" lon="3.06631">
        <ele>153.2</ele>
        <time>2021-04-21T13:19:52Z</time>
      </trkpt>
      <trkpt lat="48.51713" lon="3.06638">
        <ele>151.8</ele>
        <time>2021-04-21T13:19:58Z</time>
      </trkpt>
      <trkpt lat="48.51708" lon="3.0664">
        <ele>150</ele>
        <time>2021-04-21T13:20:07Z</time>
      </trkpt>
      <trkpt lat="48.51706" lon="3.06647">
        <ele>149.3</ele>
        <time>2021-04-21T13:20:15Z</time>
      </trkpt>
      <trkpt lat="48.51709" lon="3.06655">
        <ele>149.9</ele>
        <time>2021-04-21T13:20:19Z</time>
      </trkpt>
      <trkpt lat="48.51705" lon="3.06659">
        <ele>150.6</ele>
        <time>2021-04-21T13:20:24Z</time>
      </trkpt>
      <trkpt lat="48.517" lon="3.06661">
        <ele>151.2</ele>
        <time>2021-04-21T13:20:28Z</time>
      </trkpt>
      <trkpt lat="48.51696" lon="3.06665">
        <ele>151.8</ele>
        <time>2021-04-21T13:20:33Z</time>
      </trkpt>
      <trkpt lat="48.51693" lon="3.0667">
        <ele>152.4</ele>
        <time>2021-04-21T13:20:39Z</time>
      </trkpt>
      <trkpt lat="48.5169" lon="3.06676">
        <ele>152.7</ele>
        <time>2021-04-21T13:20:44Z</time>
      </trkpt>
      <trkpt lat="48.51686" lon="3.06682">
        <ele>152.7</ele>
        <time>2021-04-21T13:20:49Z</time>
      </trkpt>
      <trkpt lat="48.51683" lon="3.06687">
        <ele>152.7</ele>
        <time>2021-04-21T13:20:54Z</time>
      </trkpt>
      <trkpt lat="48.51679" lon="3.06693">
        <ele>152.9</ele>
        <time>2021-04-21T13:20:59Z</time>
      </trkpt>
      <trkpt lat="48.51677" lon="3.067">
        <ele>153.1</ele>
        <time>2021-04-21T13:21:03Z</time>
      </trkpt>
      <trkpt lat="48.51676" lon="3.06708">
        <ele>153.6</ele>
        <time>2021-04-21T13:21:07Z</time>
      </trkpt>
      <trkpt lat="48.51674" lon="3.06716">
        <ele>154.4</ele>
        <time>2021-04-21T13:21:12Z</time>
      </trkpt>
      <trkpt lat="48.51671" lon="3.06722">
        <ele>155.1</ele>
        <time>2021-04-21T13:21:17Z</time>
      </trkpt>
      <trkpt lat="48.51668" lon="3.0673">
        <ele>155.5</ele>
        <time>2021-04-21T13:21:20Z</time>
      </trkpt>
      <trkpt lat="48.51667" lon="3.06738">
        <ele>156</ele>
        <time>2021-04-21T13:21:24Z</time>
      </trkpt>
      <trkpt lat="48.51665" lon="3.06745">
        <ele>156.8</ele>
        <time>2021-04-21T13:21:28Z</time>
      </trkpt>
      <trkpt lat="48.51662" lon="3.06751">
        <ele>157.7</ele>
        <time>2021-04-21T13:21:32Z</time>
      </trkpt>
      <trkpt lat="48.5166" lon="3.06757">
        <ele>158.4</ele>
        <time>2021-04-21T13:21:35Z</time>
      </trkpt>
      <trkpt lat="48.51658" lon="3.06764">
        <ele>159.2</ele>
        <time>2021-04-21T13:21:39Z</time>
      </trkpt>
      <trkpt lat="48.51657" lon="3.06771">
        <ele>159.9</ele>
        <time>2021-04-21T13:21:45Z</time>
      </trkpt>
      <trkpt lat="48.51655" lon="3.06778">
        <ele>160.8</ele>
        <time>2021-04-21T13:21:54Z</time>
      </trkpt>
      <trkpt lat="48.51658" lon="3.06806">
        <ele>164.7</ele>
        <time>2021-04-21T13:21:57Z</time>
      </trkpt>
      <trkpt lat="48.51658" lon="3.06827">
        <ele>165.2</ele>
        <time>2021-04-21T13:22:00Z</time>
      </trkpt>
      <trkpt lat="48.51659" lon="3.06834">
        <ele>164.8</ele>
        <time>2021-04-21T13:22:05Z</time>
      </trkpt>
      <trkpt lat="48.51661" lon="3.06825">
        <ele>162.9</ele>
        <time>2021-04-21T13:22:08Z</time>
      </trkpt>
      <trkpt lat="48.5166" lon="3.06818">
        <ele>161.2</ele>
        <time>2021-04-21T13:22:13Z</time>
      </trkpt>
      <trkpt lat="48.51655" lon="3.06816">
        <ele>160.3</ele>
        <time>2021-04-21T13:22:18Z</time>
      </trkpt>
      <trkpt lat="48.51653" lon="3.06823">
        <ele>160.1</ele>
        <time>2021-04-21T13:22:23Z</time>
      </trkpt>
      <trkpt lat="48.51654" lon="3.0683">
        <ele>159.6</ele>
        <time>2021-04-21T13:22:27Z</time>
      </trkpt>
      <trkpt lat="48.51649" lon="3.06833">
        <ele>158.5</ele>
        <time>2021-04-21T13:22:38Z</time>
      </trkpt>
      <trkpt lat="48.51644" lon="3.06833">
        <ele>158.3</ele>
        <time>2021-04-21T13:22:42Z</time>
      </trkpt>
      <trkpt lat="48.51639" lon="3.06835">
        <ele>158.2</ele>
        <time>2021-04-21T13:22:51Z</time>
      </trkpt>
      <trkpt lat="48.51639" lon="3.06842">
        <ele>157.5</ele>
        <time>2021-04-21T13:23:00Z</time>
      </trkpt>
      <trkpt lat="48.51634" lon="3.06846">
        <ele>157.3</ele>
        <time>2021-04-21T13:23:06Z</time>
      </trkpt>
      <trkpt lat="48.51631" lon="3.06852">
        <ele>157</ele>
        <time>2021-04-21T13:23:13Z</time>
      </trkpt>
      <trkpt lat="48.51627" lon="3.06856">
        <ele>156.6</ele>
        <time>2021-04-21T13:23:17Z</time>
      </trkpt>
      <trkpt lat="48.51624" lon="3.06861">
        <ele>155.9</ele>
        <time>2021-04-21T13:23:22Z</time>
      </trkpt>
      <trkpt lat="48.51622" lon="3.06869">
        <ele>155.5</ele>
        <time>2021-04-21T13:23:28Z</time>
      </trkpt>
      <trkpt lat="48.51621" lon="3.06877">
        <ele>154.9</ele>
        <time>2021-04-21T13:23:33Z</time>
      </trkpt>
      <trkpt lat="48.51618" lon="3.06886">
        <ele>154.8</ele>
        <time>2021-04-21T13:23:36Z</time>
      </trkpt>
      <trkpt lat="48.51617" lon="3.06893">
        <ele>154.9</ele>
        <time>2021-04-21T13:23:39Z</time>
      </trkpt>
      <trkpt lat="48.51616" lon="3.069">
        <ele>155.4</ele>
        <time>2021-04-21T13:23:44Z</time>
      </trkpt>
      <trkpt lat="48.51614" lon="3.06907">
        <ele>155.3</ele>
        <time>2021-04-21T13:23:53Z</time>
      </trkpt>
      <trkpt lat="48.51612" lon="3.06914">
        <ele>154.5</ele>
        <time>2021-04-21T13:24:01Z</time>
      </trkpt>
      <trkpt lat="48.51609" lon="3.0692">
        <ele>154.3</ele>
        <time>2021-04-21T13:24:06Z</time>
      </trkpt>
      <trkpt lat="48.51608" lon="3.06927">
        <ele>154.7</ele>
        <time>2021-04-21T13:24:11Z</time>
      </trkpt>
      <trkpt lat="48.51606" lon="3.06934">
        <ele>154.8</ele>
        <time>2021-04-21T13:24:16Z</time>
      </trkpt>
      <trkpt lat="48.51607" lon="3.06943">
        <ele>154.9</ele>
        <time>2021-04-21T13:24:21Z</time>
      </trkpt>
      <trkpt lat="48.51607" lon="3.0695">
        <ele>154.9</ele>
        <time>2021-04-21T13:24:28Z</time>
      </trkpt>
      <trkpt lat="48.51608" lon="3.06957">
        <ele>155</ele>
        <time>2021-04-21T13:24:34Z</time>
      </trkpt>
      <trkpt lat="48.51611" lon="3.06963">
        <ele>154.9</ele>
        <time>2021-04-21T13:24:38Z</time>
      </trkpt>
      <trkpt lat="48.51612" lon="3.0697">
        <ele>154.7</ele>
        <time>2021-04-21T13:24:43Z</time>
      </trkpt>
      <trkpt lat="48.5161" lon="3.06978">
        <ele>154.4</ele>
        <time>2021-04-21T13:24:48Z</time>
      </trkpt>
      <trkpt lat="48.5161" lon="3.06987">
        <ele>154.4</ele>
        <time>2021-04-21T13:24:51Z</time>
      </trkpt>
      <trkpt lat="48.51611" lon="3.06996">
        <ele>154</ele>
        <time>2021-04-21T13:24:54Z</time>
      </trkpt>
      <trkpt lat="48.51612" lon="3.07005">
        <ele>153.4</ele>
        <time>2021-04-21T13:24:58Z</time>
      </trkpt>
      <trkpt lat="48.51612" lon="3.07012">
        <ele>151.7</ele>
        <time>2021-04-21T13:25:07Z</time>
      </trkpt>
      <trkpt lat="48.51607" lon="3.07011">
        <ele>150.8</ele>
        <time>2021-04-21T13:25:14Z</time>
      </trkpt>
      <trkpt lat="48.51609" lon="3.07019">
        <ele>150.2</ele>
        <time>2021-04-21T13:25:22Z</time>
      </trkpt>
      <trkpt lat="48.51609" lon="3.07026">
        <ele>150.1</ele>
        <time>2021-04-21T13:25:29Z</time>
      </trkpt>
      <trkpt lat="48.51604" lon="3.07029">
        <ele>150.3</ele>
        <time>2021-04-21T13:25:38Z</time>
      </trkpt>
      <trkpt lat="48.516" lon="3.07033">
        <ele>150.5</ele>
        <time>2021-04-21T13:25:44Z</time>
      </trkpt>
      <trkpt lat="48.51598" lon="3.07039">
        <ele>150.9</ele>
        <time>2021-04-21T13:25:49Z</time>
      </trkpt>
      <trkpt lat="48.51595" lon="3.07045">
        <ele>151.8</ele>
        <time>2021-04-21T13:25:55Z</time>
      </trkpt>
      <trkpt lat="48.51593" lon="3.07053">
        <ele>153</ele>
        <time>2021-04-21T13:26:01Z</time>
      </trkpt>
      <trkpt lat="48.51593" lon="3.0706">
        <ele>154</ele>
        <time>2021-04-21T13:26:05Z</time>
      </trkpt>
      <trkpt lat="48.51592" lon="3.07069">
        <ele>154.7</ele>
        <time>2021-04-21T13:26:09Z</time>
      </trkpt>
      <trkpt lat="48.51591" lon="3.07077">
        <ele>155.4</ele>
        <time>2021-04-21T13:26:13Z</time>
      </trkpt>
      <trkpt lat="48.5159" lon="3.07085">
        <ele>156</ele>
        <time>2021-04-21T13:26:17Z</time>
      </trkpt>
      <trkpt lat="48.51588" lon="3.07092">
        <ele>156.6</ele>
        <time>2021-04-21T13:26:22Z</time>
      </trkpt>
      <trkpt lat="48.51586" lon="3.07099">
        <ele>157.2</ele>
        <time>2021-04-21T13:26:27Z</time>
      </trkpt>
      <trkpt lat="48.51585" lon="3.07107">
        <ele>157.8</ele>
        <time>2021-04-21T13:26:33Z</time>
      </trkpt>
      <trkpt lat="48.51585" lon="3.07114">
        <ele>158.4</ele>
        <time>2021-04-21T13:26:38Z</time>
      </trkpt>
      <trkpt lat="48.51585" lon="3.07122">
        <ele>159</ele>
        <time>2021-04-21T13:26:43Z</time>
      </trkpt>
      <trkpt lat="48.51584" lon="3.07128">
        <ele>159.4</ele>
        <time>2021-04-21T13:26:47Z</time>
      </trkpt>
      <trkpt lat="48.51584" lon="3.07135">
        <ele>159.8</ele>
        <time>2021-04-21T13:26:51Z</time>
      </trkpt>
      <trkpt lat="48.51582" lon="3.07143">
        <ele>160.1</ele>
        <time>2021-04-21T13:26:57Z</time>
      </trkpt>
      <trkpt lat="48.51582" lon="3.07151">
        <ele>160.2</ele>
        <time>2021-04-21T13:27:01Z</time>
      </trkpt>
      <trkpt lat="48.51582" lon="3.0716">
        <ele>160.3</ele>
        <time>2021-04-21T13:27:06Z</time>
      </trkpt>
      <trkpt lat="48.51581" lon="3.07167">
        <ele>160.5</ele>
        <time>2021-04-21T13:27:11Z</time>
      </trkpt>
      <trkpt lat="48.5158" lon="3.07175">
        <ele>160.6</ele>
        <time>2021-04-21T13:27:15Z</time>
      </trkpt>
      <trkpt lat="48.51578" lon="3.07182">
        <ele>160.4</ele>
        <time>2021-04-21T13:27:18Z</time>
      </trkpt>
      <trkpt lat="48.51577" lon="3.0719">
        <ele>160.1</ele>
        <time>2021-04-21T13:27:22Z</time>
      </trkpt>
      <trkpt lat="48.51577" lon="3.07196">
        <ele>159.7</ele>
        <time>2021-04-21T13:27:26Z</time>
      </trkpt>
      <trkpt lat="48.51576" lon="3.07204">
        <ele>159.1</ele>
        <time>2021-04-21T13:27:34Z</time>
      </trkpt>
      <trkpt lat="48.51574" lon="3.07211">
        <ele>159</ele>
        <time>2021-04-21T13:27:40Z</time>
      </trkpt>
      <trkpt lat="48.51573" lon="3.07218">
        <ele>159.2</ele>
        <time>2021-04-21T13:27:46Z</time>
      </trkpt>
      <trkpt lat="48.51571" lon="3.07225">
        <ele>159.7</ele>
        <time>2021-04-21T13:27:52Z</time>
      </trkpt>
      <trkpt lat="48.51571" lon="3.07232">
        <ele>160.3</ele>
        <time>2021-04-21T13:27:57Z</time>
      </trkpt>
      <trkpt lat="48.51571" lon="3.0724">
        <ele>160.8</ele>
        <time>2021-04-21T13:28:00Z</time>
      </trkpt>
      <trkpt lat="48.51569" lon="3.07248">
        <ele>161.2</ele>
        <time>2021-04-21T13:28:03Z</time>
      </trkpt>
      <trkpt lat="48.51572" lon="3.07263">
        <ele>161.6</ele>
        <time>2021-04-21T13:28:06Z</time>
      </trkpt>
      <trkpt lat="48.51575" lon="3.07279">
        <ele>162</ele>
        <time>2021-04-21T13:28:09Z</time>
      </trkpt>
      <trkpt lat="48.51578" lon="3.07288">
        <ele>162.1</ele>
        <time>2021-04-21T13:28:12Z</time>
      </trkpt>
      <trkpt lat="48.51573" lon="3.07289">
        <ele>161.3</ele>
        <time>2021-04-21T13:28:19Z</time>
      </trkpt>
      <trkpt lat="48.51572" lon="3.07297">
        <ele>158.6</ele>
        <time>2021-04-21T13:28:38Z</time>
      </trkpt>
      <trkpt lat="48.5157" lon="3.07304">
        <ele>158.4</ele>
        <time>2021-04-21T13:28:43Z</time>
      </trkpt>
      <trkpt lat="48.51569" lon="3.07312">
        <ele>158.5</ele>
        <time>2021-04-21T13:28:47Z</time>
      </trkpt>
      <trkpt lat="48.51569" lon="3.0732">
        <ele>158.6</ele>
        <time>2021-04-21T13:28:51Z</time>
      </trkpt>
      <trkpt lat="48.51567" lon="3.07327">
        <ele>159</ele>
        <time>2021-04-21T13:28:55Z</time>
      </trkpt>
      <trkpt lat="48.51566" lon="3.07333">
        <ele>159.4</ele>
        <time>2021-04-21T13:28:59Z</time>
      </trkpt>
      <trkpt lat="48.51564" lon="3.0734">
        <ele>159.5</ele>
        <time>2021-04-21T13:29:03Z</time>
      </trkpt>
      <trkpt lat="48.51561" lon="3.07347">
        <ele>159.8</ele>
        <time>2021-04-21T13:29:08Z</time>
      </trkpt>
      <trkpt lat="48.51557" lon="3.07351">
        <ele>160.4</ele>
        <time>2021-04-21T13:29:15Z</time>
      </trkpt>
      <trkpt lat="48.51555" lon="3.07358">
        <ele>160.8</ele>
        <time>2021-04-21T13:29:20Z</time>
      </trkpt>
      <trkpt lat="48.51555" lon="3.07365">
        <ele>161.2</ele>
        <time>2021-04-21T13:29:24Z</time>
      </trkpt>
      <trkpt lat="48.51554" lon="3.07373">
        <ele>161.8</ele>
        <time>2021-04-21T13:29:28Z</time>
      </trkpt>
      <trkpt lat="48.51554" lon="3.07381">
        <ele>162.6</ele>
        <time>2021-04-21T13:29:33Z</time>
      </trkpt>
      <trkpt lat="48.51553" lon="3.07388">
        <ele>163.3</ele>
        <time>2021-04-21T13:29:38Z</time>
      </trkpt>
      <trkpt lat="48.51552" lon="3.07395">
        <ele>163.8</ele>
        <time>2021-04-21T13:29:43Z</time>
      </trkpt>
      <trkpt lat="48.51552" lon="3.07404">
        <ele>164.3</ele>
        <time>2021-04-21T13:29:48Z</time>
      </trkpt>
      <trkpt lat="48.51552" lon="3.07411">
        <ele>164.4</ele>
        <time>2021-04-21T13:29:51Z</time>
      </trkpt>
      <trkpt lat="48.51552" lon="3.07418">
        <ele>164.5</ele>
        <time>2021-04-21T13:29:55Z</time>
      </trkpt>
      <trkpt lat="48.51551" lon="3.07425">
        <ele>164.5</ele>
        <time>2021-04-21T13:30:00Z</time>
      </trkpt>
      <trkpt lat="48.51552" lon="3.07432">
        <ele>164.7</ele>
        <time>2021-04-21T13:30:07Z</time>
      </trkpt>
      <trkpt lat="48.51551" lon="3.07439">
        <ele>165.1</ele>
        <time>2021-04-21T13:30:15Z</time>
      </trkpt>
      <trkpt lat="48.51549" lon="3.07446">
        <ele>165.4</ele>
        <time>2021-04-21T13:30:21Z</time>
      </trkpt>
      <trkpt lat="48.51549" lon="3.07455">
        <ele>165.9</ele>
        <time>2021-04-21T13:30:25Z</time>
      </trkpt>
      <trkpt lat="48.51548" lon="3.07462">
        <ele>166.3</ele>
        <time>2021-04-21T13:30:28Z</time>
      </trkpt>
      <trkpt lat="48.51548" lon="3.0747">
        <ele>166.7</ele>
        <time>2021-04-21T13:30:34Z</time>
      </trkpt>
      <trkpt lat="48.51549" lon="3.07479">
        <ele>167.3</ele>
        <time>2021-04-21T13:30:39Z</time>
      </trkpt>
      <trkpt lat="48.51548" lon="3.07487">
        <ele>167.9</ele>
        <time>2021-04-21T13:30:42Z</time>
      </trkpt>
      <trkpt lat="48.51548" lon="3.07494">
        <ele>168.3</ele>
        <time>2021-04-21T13:30:46Z</time>
      </trkpt>
      <trkpt lat="48.51549" lon="3.07501">
        <ele>168</ele>
        <time>2021-04-21T13:30:50Z</time>
      </trkpt>
      <trkpt lat="48.5155" lon="3.07509">
        <ele>167.4</ele>
        <time>2021-04-21T13:30:53Z</time>
      </trkpt>
      <trkpt lat="48.51551" lon="3.07519">
        <ele>166.7</ele>
        <time>2021-04-21T13:30:56Z</time>
      </trkpt>
      <trkpt lat="48.51551" lon="3.07526">
        <ele>166.2</ele>
        <time>2021-04-21T13:30:59Z</time>
      </trkpt>
      <trkpt lat="48.51555" lon="3.07537">
        <ele>164.6</ele>
        <time>2021-04-21T13:31:02Z</time>
      </trkpt>
      <trkpt lat="48.51559" lon="3.07549">
        <ele>162.4</ele>
        <time>2021-04-21T13:31:05Z</time>
      </trkpt>
      <trkpt lat="48.51556" lon="3.07554">
        <ele>158.9</ele>
        <time>2021-04-21T13:31:10Z</time>
      </trkpt>
      <trkpt lat="48.51551" lon="3.07553">
        <ele>155.3</ele>
        <time>2021-04-21T13:31:18Z</time>
      </trkpt>
      <trkpt lat="48.51548" lon="3.07559">
        <ele>153.2</ele>
        <time>2021-04-21T13:31:24Z</time>
      </trkpt>
      <trkpt lat="48.51546" lon="3.07565">
        <ele>150.7</ele>
        <time>2021-04-21T13:31:33Z</time>
      </trkpt>
      <trkpt lat="48.51546" lon="3.07574">
        <ele>150.5</ele>
        <time>2021-04-21T13:31:41Z</time>
      </trkpt>
      <trkpt lat="48.51546" lon="3.07582">
        <ele>150.8</ele>
        <time>2021-04-21T13:31:45Z</time>
      </trkpt>
      <trkpt lat="48.51546" lon="3.0759">
        <ele>151.5</ele>
        <time>2021-04-21T13:31:50Z</time>
      </trkpt>
      <trkpt lat="48.51546" lon="3.07598">
        <ele>152.3</ele>
        <time>2021-04-21T13:31:55Z</time>
      </trkpt>
      <trkpt lat="48.51544" lon="3.07606">
        <ele>153.1</ele>
        <time>2021-04-21T13:32:00Z</time>
      </trkpt>
      <trkpt lat="48.51544" lon="3.07613">
        <ele>153.5</ele>
        <time>2021-04-21T13:32:04Z</time>
      </trkpt>
      <trkpt lat="48.51542" lon="3.07619">
        <ele>154</ele>
        <time>2021-04-21T13:32:09Z</time>
      </trkpt>
      <trkpt lat="48.51541" lon="3.07627">
        <ele>154.4</ele>
        <time>2021-04-21T13:32:14Z</time>
      </trkpt>
      <trkpt lat="48.51539" lon="3.07635">
        <ele>155.3</ele>
        <time>2021-04-21T13:32:21Z</time>
      </trkpt>
      <trkpt lat="48.51537" lon="3.07647">
        <ele>154.9</ele>
        <time>2021-04-21T13:32:24Z</time>
      </trkpt>
      <trkpt lat="48.51536" lon="3.07658">
        <ele>154.3</ele>
        <time>2021-04-21T13:32:27Z</time>
      </trkpt>
      <trkpt lat="48.51536" lon="3.07666">
        <ele>153.5</ele>
        <time>2021-04-21T13:32:30Z</time>
      </trkpt>
      <trkpt lat="48.51535" lon="3.07673">
        <ele>152.7</ele>
        <time>2021-04-21T13:32:34Z</time>
      </trkpt>
      <trkpt lat="48.51537" lon="3.07681">
        <ele>152.1</ele>
        <time>2021-04-21T13:32:56Z</time>
      </trkpt>
      <trkpt lat="48.51537" lon="3.07688">
        <ele>152.9</ele>
        <time>2021-04-21T13:33:01Z</time>
      </trkpt>
      <trkpt lat="48.51536" lon="3.07695">
        <ele>153.8</ele>
        <time>2021-04-21T13:33:06Z</time>
      </trkpt>
      <trkpt lat="48.51535" lon="3.07702">
        <ele>155</ele>
        <time>2021-04-21T13:33:13Z</time>
      </trkpt>
      <trkpt lat="48.51536" lon="3.07709">
        <ele>156.2</ele>
        <time>2021-04-21T13:33:20Z</time>
      </trkpt>
      <trkpt lat="48.51536" lon="3.07717">
        <ele>157</ele>
        <time>2021-04-21T13:33:24Z</time>
      </trkpt>
      <trkpt lat="48.51536" lon="3.07726">
        <ele>157.5</ele>
        <time>2021-04-21T13:33:27Z</time>
      </trkpt>
      <trkpt lat="48.51536" lon="3.07734">
        <ele>158.1</ele>
        <time>2021-04-21T13:33:31Z</time>
      </trkpt>
      <trkpt lat="48.51536" lon="3.07742">
        <ele>159</ele>
        <time>2021-04-21T13:33:37Z</time>
      </trkpt>
      <trkpt lat="48.51535" lon="3.0775">
        <ele>159.6</ele>
        <time>2021-04-21T13:33:43Z</time>
      </trkpt>
      <trkpt lat="48.51536" lon="3.07759">
        <ele>160</ele>
        <time>2021-04-21T13:33:48Z</time>
      </trkpt>
      <trkpt lat="48.51536" lon="3.07766">
        <ele>160.6</ele>
        <time>2021-04-21T13:33:52Z</time>
      </trkpt>
      <trkpt lat="48.51537" lon="3.07772">
        <ele>161.2</ele>
        <time>2021-04-21T13:33:56Z</time>
      </trkpt>
      <trkpt lat="48.51538" lon="3.07779">
        <ele>161.9</ele>
        <time>2021-04-21T13:34:00Z</time>
      </trkpt>
      <trkpt lat="48.5154" lon="3.07785">
        <ele>162.7</ele>
        <time>2021-04-21T13:34:05Z</time>
      </trkpt>
      <trkpt lat="48.51542" lon="3.07793">
        <ele>163.3</ele>
        <time>2021-04-21T13:34:09Z</time>
      </trkpt>
      <trkpt lat="48.51544" lon="3.078">
        <ele>163.6</ele>
        <time>2021-04-21T13:34:12Z</time>
      </trkpt>
      <trkpt lat="48.51544" lon="3.07808">
        <ele>163.9</ele>
        <time>2021-04-21T13:34:15Z</time>
      </trkpt>
      <trkpt lat="48.51544" lon="3.07815">
        <ele>164.1</ele>
        <time>2021-04-21T13:34:18Z</time>
      </trkpt>
      <trkpt lat="48.51544" lon="3.07822">
        <ele>164.3</ele>
        <time>2021-04-21T13:34:21Z</time>
      </trkpt>
      <trkpt lat="48.51544" lon="3.07829">
        <ele>164.4</ele>
        <time>2021-04-21T13:34:25Z</time>
      </trkpt>
      <trkpt lat="48.51544" lon="3.07838">
        <ele>164.7</ele>
        <time>2021-04-21T13:34:32Z</time>
      </trkpt>
      <trkpt lat="48.51545" lon="3.07846">
        <ele>164.8</ele>
        <time>2021-04-21T13:34:38Z</time>
      </trkpt>
      <trkpt lat="48.51545" lon="3.07854">
        <ele>165.1</ele>
        <time>2021-04-21T13:34:43Z</time>
      </trkpt>
      <trkpt lat="48.51544" lon="3.07861">
        <ele>165.4</ele>
        <time>2021-04-21T13:34:48Z</time>
      </trkpt>
      <trkpt lat="48.51541" lon="3.07867">
        <ele>165.8</ele>
        <time>2021-04-21T13:34:51Z</time>
      </trkpt>
      <trkpt lat="48.51539" lon="3.07875">
        <ele>166.4</ele>
        <time>2021-04-21T13:34:55Z</time>
      </trkpt>
      <trkpt lat="48.51538" lon="3.07881">
        <ele>166.7</ele>
        <time>2021-04-21T13:34:59Z</time>
      </trkpt>
      <trkpt lat="48.51538" lon="3.07888">
        <ele>166.9</ele>
        <time>2021-04-21T13:35:03Z</time>
      </trkpt>
      <trkpt lat="48.51538" lon="3.07895">
        <ele>167.2</ele>
        <time>2021-04-21T13:35:07Z</time>
      </trkpt>
      <trkpt lat="48.51538" lon="3.07903">
        <ele>167.5</ele>
        <time>2021-04-21T13:35:12Z</time>
      </trkpt>
      <trkpt lat="48.51537" lon="3.07912">
        <ele>167.5</ele>
        <time>2021-04-21T13:35:16Z</time>
      </trkpt>
      <trkpt lat="48.51538" lon="3.07918">
        <ele>167.4</ele>
        <time>2021-04-21T13:35:20Z</time>
      </trkpt>
      <trkpt lat="48.51541" lon="3.07925">
        <ele>167.2</ele>
        <time>2021-04-21T13:35:26Z</time>
      </trkpt>
      <trkpt lat="48.5154" lon="3.07933">
        <ele>167.4</ele>
        <time>2021-04-21T13:35:31Z</time>
      </trkpt>
      <trkpt lat="48.5154" lon="3.07941">
        <ele>167.4</ele>
        <time>2021-04-21T13:35:35Z</time>
      </trkpt>
      <trkpt lat="48.5154" lon="3.07949">
        <ele>167.4</ele>
        <time>2021-04-21T13:35:40Z</time>
      </trkpt>
      <trkpt lat="48.51539" lon="3.07956">
        <ele>167.6</ele>
        <time>2021-04-21T13:35:45Z</time>
      </trkpt>
      <trkpt lat="48.51538" lon="3.07963">
        <ele>167.7</ele>
        <time>2021-04-21T13:35:50Z</time>
      </trkpt>
      <trkpt lat="48.51536" lon="3.0797">
        <ele>167.7</ele>
        <time>2021-04-21T13:35:54Z</time>
      </trkpt>
      <trkpt lat="48.51535" lon="3.07978">
        <ele>167.7</ele>
        <time>2021-04-21T13:35:58Z</time>
      </trkpt>
      <trkpt lat="48.51535" lon="3.07985">
        <ele>167.6</ele>
        <time>2021-04-21T13:36:02Z</time>
      </trkpt>
      <trkpt lat="48.51533" lon="3.07993">
        <ele>167</ele>
        <time>2021-04-21T13:36:07Z</time>
      </trkpt>
      <trkpt lat="48.51531" lon="3.08001">
        <ele>166.7</ele>
        <time>2021-04-21T13:36:11Z</time>
      </trkpt>
      <trkpt lat="48.51531" lon="3.08008">
        <ele>166.3</ele>
        <time>2021-04-21T13:36:15Z</time>
      </trkpt>
      <trkpt lat="48.5153" lon="3.08016">
        <ele>165.9</ele>
        <time>2021-04-21T13:36:19Z</time>
      </trkpt>
      <trkpt lat="48.51529" lon="3.08024">
        <ele>165.3</ele>
        <time>2021-04-21T13:36:23Z</time>
      </trkpt>
      <trkpt lat="48.51529" lon="3.08031">
        <ele>164.4</ele>
        <time>2021-04-21T13:36:29Z</time>
      </trkpt>
      <trkpt lat="48.51527" lon="3.08039">
        <ele>163.7</ele>
        <time>2021-04-21T13:36:33Z</time>
      </trkpt>
      <trkpt lat="48.51527" lon="3.08047">
        <ele>163.1</ele>
        <time>2021-04-21T13:36:36Z</time>
      </trkpt>
      <trkpt lat="48.51526" lon="3.08054">
        <ele>162.6</ele>
        <time>2021-04-21T13:36:39Z</time>
      </trkpt>
      <trkpt lat="48.51525" lon="3.08061">
        <ele>162.1</ele>
        <time>2021-04-21T13:36:42Z</time>
      </trkpt>
      <trkpt lat="48.51525" lon="3.08068">
        <ele>161.7</ele>
        <time>2021-04-21T13:36:45Z</time>
      </trkpt>
      <trkpt lat="48.51523" lon="3.08075">
        <ele>161.1</ele>
        <time>2021-04-21T13:36:49Z</time>
      </trkpt>
      <trkpt lat="48.5152" lon="3.08081">
        <ele>160.4</ele>
        <time>2021-04-21T13:36:54Z</time>
      </trkpt>
      <trkpt lat="48.51518" lon="3.08087">
        <ele>159.9</ele>
        <time>2021-04-21T13:36:59Z</time>
      </trkpt>
      <trkpt lat="48.51515" lon="3.08094">
        <ele>159.9</ele>
        <time>2021-04-21T13:37:05Z</time>
      </trkpt>
      <trkpt lat="48.51513" lon="3.081">
        <ele>159.8</ele>
        <time>2021-04-21T13:37:11Z</time>
      </trkpt>
      <trkpt lat="48.51511" lon="3.08107">
        <ele>159.9</ele>
        <time>2021-04-21T13:37:16Z</time>
      </trkpt>
      <trkpt lat="48.5151" lon="3.08114">
        <ele>160.1</ele>
        <time>2021-04-21T13:37:20Z</time>
      </trkpt>
      <trkpt lat="48.51509" lon="3.08121">
        <ele>160.7</ele>
        <time>2021-04-21T13:37:24Z</time>
      </trkpt>
      <trkpt lat="48.51511" lon="3.08127">
        <ele>161.3</ele>
        <time>2021-04-21T13:37:28Z</time>
      </trkpt>
      <trkpt lat="48.51511" lon="3.08135">
        <ele>162.7</ele>
        <time>2021-04-21T13:37:35Z</time>
      </trkpt>
      <trkpt lat="48.51511" lon="3.08145">
        <ele>164.8</ele>
        <time>2021-04-21T13:37:47Z</time>
      </trkpt>
      <trkpt lat="48.51512" lon="3.08153">
        <ele>165.2</ele>
        <time>2021-04-21T13:37:50Z</time>
      </trkpt>
      <trkpt lat="48.51512" lon="3.0816">
        <ele>165.5</ele>
        <time>2021-04-21T13:37:54Z</time>
      </trkpt>
      <trkpt lat="48.51511" lon="3.08167">
        <ele>165.9</ele>
        <time>2021-04-21T13:37:58Z</time>
      </trkpt>
      <trkpt lat="48.51512" lon="3.08175">
        <ele>166.2</ele>
        <time>2021-04-21T13:38:03Z</time>
      </trkpt>
      <trkpt lat="48.51514" lon="3.08182">
        <ele>166.5</ele>
        <time>2021-04-21T13:38:09Z</time>
      </trkpt>
      <trkpt lat="48.51515" lon="3.08188">
        <ele>167</ele>
        <time>2021-04-21T13:38:13Z</time>
      </trkpt>
      <trkpt lat="48.51517" lon="3.08198">
        <ele>167.3</ele>
        <time>2021-04-21T13:38:17Z</time>
      </trkpt>
      <trkpt lat="48.51519" lon="3.08207">
        <ele>167.3</ele>
        <time>2021-04-21T13:38:20Z</time>
      </trkpt>
      <trkpt lat="48.5152" lon="3.08215">
        <ele>167.3</ele>
        <time>2021-04-21T13:38:24Z</time>
      </trkpt>
      <trkpt lat="48.5152" lon="3.08222">
        <ele>167.2</ele>
        <time>2021-04-21T13:38:28Z</time>
      </trkpt>
      <trkpt lat="48.51519" lon="3.08229">
        <ele>167.3</ele>
        <time>2021-04-21T13:38:35Z</time>
      </trkpt>
      <trkpt lat="48.51519" lon="3.08236">
        <ele>167.6</ele>
        <time>2021-04-21T13:38:41Z</time>
      </trkpt>
      <trkpt lat="48.51517" lon="3.08242">
        <ele>167.9</ele>
        <time>2021-04-21T13:38:45Z</time>
      </trkpt>
      <trkpt lat="48.51516" lon="3.0825">
        <ele>168.2</ele>
        <time>2021-04-21T13:38:50Z</time>
      </trkpt>
      <trkpt lat="48.51517" lon="3.08257">
        <ele>168.6</ele>
        <time>2021-04-21T13:38:55Z</time>
      </trkpt>
      <trkpt lat="48.51517" lon="3.08265">
        <ele>169.2</ele>
        <time>2021-04-21T13:39:01Z</time>
      </trkpt>
      <trkpt lat="48.51518" lon="3.08273">
        <ele>169.9</ele>
        <time>2021-04-21T13:39:05Z</time>
      </trkpt>
      <trkpt lat="48.51518" lon="3.08281">
        <ele>170.8</ele>
        <time>2021-04-21T13:39:10Z</time>
      </trkpt>
      <trkpt lat="48.51519" lon="3.08288">
        <ele>171.3</ele>
        <time>2021-04-21T13:39:14Z</time>
      </trkpt>
      <trkpt lat="48.51521" lon="3.08295">
        <ele>171.5</ele>
        <time>2021-04-21T13:39:17Z</time>
      </trkpt>
      <trkpt lat="48.51525" lon="3.08302">
        <ele>171.7</ele>
        <time>2021-04-21T13:39:20Z</time>
      </trkpt>
      <trkpt lat="48.51528" lon="3.08308">
        <ele>171.9</ele>
        <time>2021-04-21T13:39:24Z</time>
      </trkpt>
      <trkpt lat="48.51528" lon="3.08315">
        <ele>172.2</ele>
        <time>2021-04-21T13:39:32Z</time>
      </trkpt>
      <trkpt lat="48.5153" lon="3.08324">
        <ele>172</ele>
        <time>2021-04-21T13:39:38Z</time>
      </trkpt>
      <trkpt lat="48.51533" lon="3.08334">
        <ele>171.9</ele>
        <time>2021-04-21T13:39:41Z</time>
      </trkpt>
      <trkpt lat="48.51536" lon="3.08341">
        <ele>171.7</ele>
        <time>2021-04-21T13:39:44Z</time>
      </trkpt>
      <trkpt lat="48.5154" lon="3.08346">
        <ele>171.4</ele>
        <time>2021-04-21T13:39:50Z</time>
      </trkpt>
      <trkpt lat="48.51536" lon="3.08342">
        <ele>168.4</ele>
        <time>2021-04-21T13:40:06Z</time>
      </trkpt>
      <trkpt lat="48.51531" lon="3.0834">
        <ele>165.9</ele>
        <time>2021-04-21T13:40:13Z</time>
      </trkpt>
      <trkpt lat="48.51529" lon="3.08347">
        <ele>162.7</ele>
        <time>2021-04-21T13:40:32Z</time>
      </trkpt>
      <trkpt lat="48.51529" lon="3.08355">
        <ele>162.9</ele>
        <time>2021-04-21T13:40:36Z</time>
      </trkpt>
      <trkpt lat="48.51529" lon="3.08363">
        <ele>163.5</ele>
        <time>2021-04-21T13:40:40Z</time>
      </trkpt>
      <trkpt lat="48.5153" lon="3.0837">
        <ele>164.1</ele>
        <time>2021-04-21T13:40:44Z</time>
      </trkpt>
      <trkpt lat="48.51531" lon="3.08379">
        <ele>164.9</ele>
        <time>2021-04-21T13:40:48Z</time>
      </trkpt>
      <trkpt lat="48.51532" lon="3.08388">
        <ele>165.6</ele>
        <time>2021-04-21T13:40:52Z</time>
      </trkpt>
      <trkpt lat="48.51533" lon="3.08395">
        <ele>166.5</ele>
        <time>2021-04-21T13:40:57Z</time>
      </trkpt>
      <trkpt lat="48.51535" lon="3.08401">
        <ele>167.3</ele>
        <time>2021-04-21T13:41:02Z</time>
      </trkpt>
      <trkpt lat="48.51537" lon="3.08408">
        <ele>168.1</ele>
        <time>2021-04-21T13:41:07Z</time>
      </trkpt>
      <trkpt lat="48.5154" lon="3.08419">
        <ele>168.6</ele>
        <time>2021-04-21T13:41:12Z</time>
      </trkpt>
      <trkpt lat="48.51545" lon="3.08433">
        <ele>168.4</ele>
        <time>2021-04-21T13:41:15Z</time>
      </trkpt>
      <trkpt lat="48.51547" lon="3.08439">
        <ele>168.1</ele>
        <time>2021-04-21T13:41:18Z</time>
      </trkpt>
      <trkpt lat="48.51547" lon="3.08446">
        <ele>166.5</ele>
        <time>2021-04-21T13:41:29Z</time>
      </trkpt>
      <trkpt lat="48.51547" lon="3.08455">
        <ele>166.4</ele>
        <time>2021-04-21T13:41:36Z</time>
      </trkpt>
      <trkpt lat="48.51545" lon="3.08465">
        <ele>167.1</ele>
        <time>2021-04-21T13:41:39Z</time>
      </trkpt>
      <trkpt lat="48.51545" lon="3.08475">
        <ele>167.9</ele>
        <time>2021-04-21T13:41:42Z</time>
      </trkpt>
      <trkpt lat="48.51544" lon="3.08483">
        <ele>168.1</ele>
        <time>2021-04-21T13:41:46Z</time>
      </trkpt>
      <trkpt lat="48.51544" lon="3.0849">
        <ele>166.9</ele>
        <time>2021-04-21T13:41:59Z</time>
      </trkpt>
      <trkpt lat="48.51545" lon="3.08497">
        <ele>166.5</ele>
        <time>2021-04-21T13:42:20Z</time>
      </trkpt>
      <trkpt lat="48.51543" lon="3.08506">
        <ele>166.3</ele>
        <time>2021-04-21T13:42:24Z</time>
      </trkpt>
      <trkpt lat="48.51544" lon="3.08514">
        <ele>165.5</ele>
        <time>2021-04-21T13:42:36Z</time>
      </trkpt>
      <trkpt lat="48.51546" lon="3.0852">
        <ele>165</ele>
        <time>2021-04-21T13:42:40Z</time>
      </trkpt>
      <trkpt lat="48.51548" lon="3.08527">
        <ele>164.3</ele>
        <time>2021-04-21T13:42:45Z</time>
      </trkpt>
      <trkpt lat="48.51548" lon="3.08535">
        <ele>163.5</ele>
        <time>2021-04-21T13:42:52Z</time>
      </trkpt>
      <trkpt lat="48.51546" lon="3.08542">
        <ele>162.7</ele>
        <time>2021-04-21T13:42:58Z</time>
      </trkpt>
      <trkpt lat="48.51544" lon="3.08549">
        <ele>162.1</ele>
        <time>2021-04-21T13:43:03Z</time>
      </trkpt>
      <trkpt lat="48.51545" lon="3.08556">
        <ele>161.5</ele>
        <time>2021-04-21T13:43:09Z</time>
      </trkpt>
      <trkpt lat="48.51545" lon="3.08563">
        <ele>161.3</ele>
        <time>2021-04-21T13:43:14Z</time>
      </trkpt>
      <trkpt lat="48.51547" lon="3.0857">
        <ele>161.4</ele>
        <time>2021-04-21T13:43:18Z</time>
      </trkpt>
      <trkpt lat="48.51548" lon="3.08577">
        <ele>161.7</ele>
        <time>2021-04-21T13:43:23Z</time>
      </trkpt>
      <trkpt lat="48.51547" lon="3.08585">
        <ele>162</ele>
        <time>2021-04-21T13:43:27Z</time>
      </trkpt>
      <trkpt lat="48.51548" lon="3.08592">
        <ele>162.4</ele>
        <time>2021-04-21T13:43:31Z</time>
      </trkpt>
      <trkpt lat="48.51549" lon="3.086">
        <ele>162.8</ele>
        <time>2021-04-21T13:43:35Z</time>
      </trkpt>
      <trkpt lat="48.5155" lon="3.08608">
        <ele>163.2</ele>
        <time>2021-04-21T13:43:39Z</time>
      </trkpt>
      <trkpt lat="48.51551" lon="3.08616">
        <ele>163.6</ele>
        <time>2021-04-21T13:43:43Z</time>
      </trkpt>
      <trkpt lat="48.5155" lon="3.08623">
        <ele>164</ele>
        <time>2021-04-21T13:43:47Z</time>
      </trkpt>
      <trkpt lat="48.51548" lon="3.0863">
        <ele>164.6</ele>
        <time>2021-04-21T13:43:53Z</time>
      </trkpt>
      <trkpt lat="48.51548" lon="3.08638">
        <ele>165.1</ele>
        <time>2021-04-21T13:43:58Z</time>
      </trkpt>
      <trkpt lat="48.51549" lon="3.08645">
        <ele>165.7</ele>
        <time>2021-04-21T13:44:03Z</time>
      </trkpt>
      <trkpt lat="48.5155" lon="3.08653">
        <ele>166.6</ele>
        <time>2021-04-21T13:44:10Z</time>
      </trkpt>
      <trkpt lat="48.51552" lon="3.08662">
        <ele>167.5</ele>
        <time>2021-04-21T13:44:15Z</time>
      </trkpt>
      <trkpt lat="48.51554" lon="3.08669">
        <ele>168.5</ele>
        <time>2021-04-21T13:44:19Z</time>
      </trkpt>
      <trkpt lat="48.51554" lon="3.08678">
        <ele>169.4</ele>
        <time>2021-04-21T13:44:24Z</time>
      </trkpt>
      <trkpt lat="48.51555" lon="3.08686">
        <ele>169.8</ele>
        <time>2021-04-21T13:44:27Z</time>
      </trkpt>
      <trkpt lat="48.51555" lon="3.08693">
        <ele>170.2</ele>
        <time>2021-04-21T13:44:30Z</time>
      </trkpt>
      <trkpt lat="48.51556" lon="3.087">
        <ele>170.7</ele>
        <time>2021-04-21T13:44:34Z</time>
      </trkpt>
      <trkpt lat="48.51557" lon="3.08709">
        <ele>171</ele>
        <time>2021-04-21T13:44:38Z</time>
      </trkpt>
      <trkpt lat="48.51558" lon="3.08716">
        <ele>171.1</ele>
        <time>2021-04-21T13:44:41Z</time>
      </trkpt>
      <trkpt lat="48.51559" lon="3.08724">
        <ele>171.3</ele>
        <time>2021-04-21T13:44:44Z</time>
      </trkpt>
      <trkpt lat="48.5156" lon="3.08731">
        <ele>171.5</ele>
        <time>2021-04-21T13:44:47Z</time>
      </trkpt>
      <trkpt lat="48.51559" lon="3.08739">
        <ele>171.9</ele>
        <time>2021-04-21T13:44:50Z</time>
      </trkpt>
      <trkpt lat="48.51559" lon="3.08746">
        <ele>172.2</ele>
        <time>2021-04-21T13:44:53Z</time>
      </trkpt>
      <trkpt lat="48.51558" lon="3.08754">
        <ele>172.4</ele>
        <time>2021-04-21T13:44:56Z</time>
      </trkpt>
      <trkpt lat="48.51557" lon="3.08761">
        <ele>172.7</ele>
        <time>2021-04-21T13:45:00Z</time>
      </trkpt>
      <trkpt lat="48.51555" lon="3.08768">
        <ele>172.7</ele>
        <time>2021-04-21T13:45:05Z</time>
      </trkpt>
      <trkpt lat="48.51552" lon="3.08774">
        <ele>172.3</ele>
        <time>2021-04-21T13:45:12Z</time>
      </trkpt>
      <trkpt lat="48.5155" lon="3.08781">
        <ele>171.5</ele>
        <time>2021-04-21T13:45:22Z</time>
      </trkpt>
      <trkpt lat="48.51549" lon="3.08788">
        <ele>171.1</ele>
        <time>2021-04-21T13:45:27Z</time>
      </trkpt>
      <trkpt lat="48.51549" lon="3.08796">
        <ele>170.7</ele>
        <time>2021-04-21T13:45:32Z</time>
      </trkpt>
      <trkpt lat="48.51548" lon="3.08803">
        <ele>170.3</ele>
        <time>2021-04-21T13:45:36Z</time>
      </trkpt>
      <trkpt lat="48.51547" lon="3.08811">
        <ele>170</ele>
        <time>2021-04-21T13:45:40Z</time>
      </trkpt>
      <trkpt lat="48.51547" lon="3.08818">
        <ele>169.6</ele>
        <time>2021-04-21T13:45:44Z</time>
      </trkpt>
      <trkpt lat="48.51546" lon="3.08825">
        <ele>169.2</ele>
        <time>2021-04-21T13:45:48Z</time>
      </trkpt>
      <trkpt lat="48.51543" lon="3.08831">
        <ele>168.5</ele>
        <time>2021-04-21T13:45:52Z</time>
      </trkpt>
      <trkpt lat="48.51541" lon="3.08838">
        <ele>167.6</ele>
        <time>2021-04-21T13:45:57Z</time>
      </trkpt>
      <trkpt lat="48.51538" lon="3.08844">
        <ele>166.9</ele>
        <time>2021-04-21T13:46:03Z</time>
      </trkpt>
      <trkpt lat="48.51538" lon="3.08857">
        <ele>166.7</ele>
        <time>2021-04-21T13:46:06Z</time>
      </trkpt>
      <trkpt lat="48.51538" lon="3.08864">
        <ele>166.4</ele>
        <time>2021-04-21T13:46:09Z</time>
      </trkpt>
      <trkpt lat="48.51533" lon="3.08867">
        <ele>165.7</ele>
        <time>2021-04-21T13:46:14Z</time>
      </trkpt>
      <trkpt lat="48.51529" lon="3.0887">
        <ele>164.4</ele>
        <time>2021-04-21T13:46:24Z</time>
      </trkpt>
      <trkpt lat="48.51526" lon="3.08878">
        <ele>163.7</ele>
        <time>2021-04-21T13:46:28Z</time>
      </trkpt>
      <trkpt lat="48.51524" lon="3.08885">
        <ele>163.2</ele>
        <time>2021-04-21T13:46:31Z</time>
      </trkpt>
      <trkpt lat="48.51526" lon="3.08893">
        <ele>161.6</ele>
        <time>2021-04-21T13:46:53Z</time>
      </trkpt>
      <trkpt lat="48.51525" lon="3.089">
        <ele>161.8</ele>
        <time>2021-04-21T13:46:58Z</time>
      </trkpt>
      <trkpt lat="48.51524" lon="3.08907">
        <ele>162.1</ele>
        <time>2021-04-21T13:47:02Z</time>
      </trkpt>
      <trkpt lat="48.51523" lon="3.08915">
        <ele>162.5</ele>
        <time>2021-04-21T13:47:06Z</time>
      </trkpt>
      <trkpt lat="48.51523" lon="3.08924">
        <ele>163.1</ele>
        <time>2021-04-21T13:47:10Z</time>
      </trkpt>
      <trkpt lat="48.51523" lon="3.0893">
        <ele>163.8</ele>
        <time>2021-04-21T13:47:13Z</time>
      </trkpt>
      <trkpt lat="48.51523" lon="3.08939">
        <ele>164.6</ele>
        <time>2021-04-21T13:47:17Z</time>
      </trkpt>
      <trkpt lat="48.51522" lon="3.08947">
        <ele>165.5</ele>
        <time>2021-04-21T13:47:21Z</time>
      </trkpt>
      <trkpt lat="48.51521" lon="3.08955">
        <ele>166.1</ele>
        <time>2021-04-21T13:47:24Z</time>
      </trkpt>
      <trkpt lat="48.51521" lon="3.08962">
        <ele>166.5</ele>
        <time>2021-04-21T13:47:27Z</time>
      </trkpt>
      <trkpt lat="48.5152" lon="3.08969">
        <ele>166.6</ele>
        <time>2021-04-21T13:47:30Z</time>
      </trkpt>
      <trkpt lat="48.5152" lon="3.08977">
        <ele>166.2</ele>
        <time>2021-04-21T13:47:33Z</time>
      </trkpt>
      <trkpt lat="48.51521" lon="3.08984">
        <ele>165.8</ele>
        <time>2021-04-21T13:47:36Z</time>
      </trkpt>
      <trkpt lat="48.5152" lon="3.08993">
        <ele>165</ele>
        <time>2021-04-21T13:47:39Z</time>
      </trkpt>
      <trkpt lat="48.5152" lon="3.08999">
        <ele>163.9</ele>
        <time>2021-04-21T13:47:42Z</time>
      </trkpt>
      <trkpt lat="48.51519" lon="3.09006">
        <ele>162.7</ele>
        <time>2021-04-21T13:47:45Z</time>
      </trkpt>
      <trkpt lat="48.51517" lon="3.09013">
        <ele>161</ele>
        <time>2021-04-21T13:47:49Z</time>
      </trkpt>
      <trkpt lat="48.51515" lon="3.0902">
        <ele>159</ele>
        <time>2021-04-21T13:47:53Z</time>
      </trkpt>
      <trkpt lat="48.51512" lon="3.09027">
        <ele>157.3</ele>
        <time>2021-04-21T13:47:57Z</time>
      </trkpt>
      <trkpt lat="48.51512" lon="3.09036">
        <ele>155.7</ele>
        <time>2021-04-21T13:48:01Z</time>
      </trkpt>
      <trkpt lat="48.51511" lon="3.09044">
        <ele>154.2</ele>
        <time>2021-04-21T13:48:05Z</time>
      </trkpt>
      <trkpt lat="48.5151" lon="3.09052">
        <ele>152.9</ele>
        <time>2021-04-21T13:48:09Z</time>
      </trkpt>
      <trkpt lat="48.51509" lon="3.09059">
        <ele>151.4</ele>
        <time>2021-04-21T13:48:14Z</time>
      </trkpt>
      <trkpt lat="48.51508" lon="3.09066">
        <ele>150.3</ele>
        <time>2021-04-21T13:48:18Z</time>
      </trkpt>
      <trkpt lat="48.51507" lon="3.09074">
        <ele>149.6</ele>
        <time>2021-04-21T13:48:21Z</time>
      </trkpt>
      <trkpt lat="48.51505" lon="3.09083">
        <ele>148.9</ele>
        <time>2021-04-21T13:48:24Z</time>
      </trkpt>
      <trkpt lat="48.51503" lon="3.0909">
        <ele>148.2</ele>
        <time>2021-04-21T13:48:27Z</time>
      </trkpt>
      <trkpt lat="48.51502" lon="3.09097">
        <ele>147.6</ele>
        <time>2021-04-21T13:48:30Z</time>
      </trkpt>
      <trkpt lat="48.51499" lon="3.09104">
        <ele>147</ele>
        <time>2021-04-21T13:48:34Z</time>
      </trkpt>
      <trkpt lat="48.51496" lon="3.0911">
        <ele>146.6</ele>
        <time>2021-04-21T13:48:38Z</time>
      </trkpt>
      <trkpt lat="48.51494" lon="3.09117">
        <ele>146.1</ele>
        <time>2021-04-21T13:48:42Z</time>
      </trkpt>
      <trkpt lat="48.5149" lon="3.09122">
        <ele>145.1</ele>
        <time>2021-04-21T13:48:48Z</time>
      </trkpt>
      <trkpt lat="48.51485" lon="3.09126">
        <ele>144.3</ele>
        <time>2021-04-21T13:48:52Z</time>
      </trkpt>
      <trkpt lat="48.51481" lon="3.09132">
        <ele>143.8</ele>
        <time>2021-04-21T13:48:56Z</time>
      </trkpt>
      <trkpt lat="48.5148" lon="3.09139">
        <ele>143.5</ele>
        <time>2021-04-21T13:49:00Z</time>
      </trkpt>
      <trkpt lat="48.51477" lon="3.09147">
        <ele>142.8</ele>
        <time>2021-04-21T13:49:04Z</time>
      </trkpt>
      <trkpt lat="48.51475" lon="3.09155">
        <ele>142.1</ele>
        <time>2021-04-21T13:49:08Z</time>
      </trkpt>
      <trkpt lat="48.51472" lon="3.09162">
        <ele>141.4</ele>
        <time>2021-04-21T13:49:12Z</time>
      </trkpt>
      <trkpt lat="48.51471" lon="3.09169">
        <ele>140.7</ele>
        <time>2021-04-21T13:49:16Z</time>
      </trkpt>
      <trkpt lat="48.51468" lon="3.09176">
        <ele>139.9</ele>
        <time>2021-04-21T13:49:22Z</time>
      </trkpt>
      <trkpt lat="48.51465" lon="3.09182">
        <ele>139.5</ele>
        <time>2021-04-21T13:49:28Z</time>
      </trkpt>
      <trkpt lat="48.51462" lon="3.09188">
        <ele>139.4</ele>
        <time>2021-04-21T13:49:32Z</time>
      </trkpt>
      <trkpt lat="48.5146" lon="3.09195">
        <ele>139.2</ele>
        <time>2021-04-21T13:49:35Z</time>
      </trkpt>
      <trkpt lat="48.51456" lon="3.09201">
        <ele>139.2</ele>
        <time>2021-04-21T13:49:39Z</time>
      </trkpt>
      <trkpt lat="48.51453" lon="3.09206">
        <ele>139.2</ele>
        <time>2021-04-21T13:49:43Z</time>
      </trkpt>
      <trkpt lat="48.51451" lon="3.09213">
        <ele>138.9</ele>
        <time>2021-04-21T13:49:48Z</time>
      </trkpt>
      <trkpt lat="48.51448" lon="3.09218">
        <ele>138.5</ele>
        <time>2021-04-21T13:49:53Z</time>
      </trkpt>
      <trkpt lat="48.51444" lon="3.09223">
        <ele>138.1</ele>
        <time>2021-04-21T13:49:57Z</time>
      </trkpt>
      <trkpt lat="48.5144" lon="3.09228">
        <ele>137.7</ele>
        <time>2021-04-21T13:50:00Z</time>
      </trkpt>
      <trkpt lat="48.51437" lon="3.09232">
        <ele>137.2</ele>
        <time>2021-04-21T13:50:03Z</time>
      </trkpt>
      <trkpt lat="48.51433" lon="3.09237">
        <ele>136.4</ele>
        <time>2021-04-21T13:50:07Z</time>
      </trkpt>
      <trkpt lat="48.51428" lon="3.09239">
        <ele>135.5</ele>
        <time>2021-04-21T13:50:11Z</time>
      </trkpt>
      <trkpt lat="48.51423" lon="3.0924">
        <ele>134.2</ele>
        <time>2021-04-21T13:50:17Z</time>
      </trkpt>
      <trkpt lat="48.51418" lon="3.09242">
        <ele>133.3</ele>
        <time>2021-04-21T13:50:22Z</time>
      </trkpt>
      <trkpt lat="48.51414" lon="3.09239">
        <ele>132.2</ele>
        <time>2021-04-21T13:50:38Z</time>
      </trkpt>
      <trkpt lat="48.51409" lon="3.09238">
        <ele>131.8</ele>
        <time>2021-04-21T13:50:45Z</time>
      </trkpt>
      <trkpt lat="48.51405" lon="3.09233">
        <ele>131.9</ele>
        <time>2021-04-21T13:50:51Z</time>
      </trkpt>
      <trkpt lat="48.51401" lon="3.09229">
        <ele>131.9</ele>
        <time>2021-04-21T13:50:57Z</time>
      </trkpt>
      <trkpt lat="48.51396" lon="3.09228">
        <ele>131.8</ele>
        <time>2021-04-21T13:51:03Z</time>
      </trkpt>
      <trkpt lat="48.51392" lon="3.09229">
        <ele>132</ele>
        <time>2021-04-21T13:51:09Z</time>
      </trkpt>
      <trkpt lat="48.51387" lon="3.09226">
        <ele>132.4</ele>
        <time>2021-04-21T13:51:14Z</time>
      </trkpt>
      <trkpt lat="48.51383" lon="3.09222">
        <ele>133</ele>
        <time>2021-04-21T13:51:19Z</time>
      </trkpt>
      <trkpt lat="48.51379" lon="3.0922">
        <ele>133.6</ele>
        <time>2021-04-21T13:51:24Z</time>
      </trkpt>
      <trkpt lat="48.51375" lon="3.09218">
        <ele>134.3</ele>
        <time>2021-04-21T13:51:29Z</time>
      </trkpt>
      <trkpt lat="48.5137" lon="3.09215">
        <ele>134.6</ele>
        <time>2021-04-21T13:51:33Z</time>
      </trkpt>
      <trkpt lat="48.51365" lon="3.09213">
        <ele>134.8</ele>
        <time>2021-04-21T13:51:37Z</time>
      </trkpt>
      <trkpt lat="48.51361" lon="3.0921">
        <ele>135</ele>
        <time>2021-04-21T13:51:42Z</time>
      </trkpt>
      <trkpt lat="48.51356" lon="3.09209">
        <ele>135.5</ele>
        <time>2021-04-21T13:51:47Z</time>
      </trkpt>
      <trkpt lat="48.51351" lon="3.09207">
        <ele>136.5</ele>
        <time>2021-04-21T13:51:53Z</time>
      </trkpt>
      <trkpt lat="48.51347" lon="3.09205">
        <ele>137.5</ele>
        <time>2021-04-21T13:51:59Z</time>
      </trkpt>
      <trkpt lat="48.51342" lon="3.09204">
        <ele>138.6</ele>
        <time>2021-04-21T13:52:07Z</time>
      </trkpt>
      <trkpt lat="48.51336" lon="3.09202">
        <ele>139.3</ele>
        <time>2021-04-21T13:52:12Z</time>
      </trkpt>
      <trkpt lat="48.51331" lon="3.092">
        <ele>139.9</ele>
        <time>2021-04-21T13:52:15Z</time>
      </trkpt>
      <trkpt lat="48.51326" lon="3.092">
        <ele>140.4</ele>
        <time>2021-04-21T13:52:18Z</time>
      </trkpt>
      <trkpt lat="48.51321" lon="3.09201">
        <ele>141</ele>
        <time>2021-04-21T13:52:21Z</time>
      </trkpt>
      <trkpt lat="48.51319" lon="3.09209">
        <ele>142.1</ele>
        <time>2021-04-21T13:52:27Z</time>
      </trkpt>
      <trkpt lat="48.5132" lon="3.09216">
        <ele>142.6</ele>
        <time>2021-04-21T13:52:31Z</time>
      </trkpt>
      <trkpt lat="48.5132" lon="3.09223">
        <ele>142.9</ele>
        <time>2021-04-21T13:52:35Z</time>
      </trkpt>
      <trkpt lat="48.51316" lon="3.09229">
        <ele>142.9</ele>
        <time>2021-04-21T13:52:39Z</time>
      </trkpt>
      <trkpt lat="48.51312" lon="3.09235">
        <ele>142.7</ele>
        <time>2021-04-21T13:52:42Z</time>
      </trkpt>
      <trkpt lat="48.51308" lon="3.0924">
        <ele>142.6</ele>
        <time>2021-04-21T13:52:46Z</time>
      </trkpt>
      <trkpt lat="48.51306" lon="3.09248">
        <ele>142.2</ele>
        <time>2021-04-21T13:52:51Z</time>
      </trkpt>
      <trkpt lat="48.51304" lon="3.09254">
        <ele>141.8</ele>
        <time>2021-04-21T13:52:56Z</time>
      </trkpt>
      <trkpt lat="48.51303" lon="3.09263">
        <ele>141.4</ele>
        <time>2021-04-21T13:53:02Z</time>
      </trkpt>
      <trkpt lat="48.51303" lon="3.0927">
        <ele>141.3</ele>
        <time>2021-04-21T13:53:06Z</time>
      </trkpt>
      <trkpt lat="48.51302" lon="3.09278">
        <ele>141.2</ele>
        <time>2021-04-21T13:53:10Z</time>
      </trkpt>
      <trkpt lat="48.51302" lon="3.09285">
        <ele>141.2</ele>
        <time>2021-04-21T13:53:16Z</time>
      </trkpt>
      <trkpt lat="48.51301" lon="3.09292">
        <ele>141</ele>
        <time>2021-04-21T13:53:22Z</time>
      </trkpt>
      <trkpt lat="48.51299" lon="3.09299">
        <ele>140.7</ele>
        <time>2021-04-21T13:53:26Z</time>
      </trkpt>
      <trkpt lat="48.51296" lon="3.09305">
        <ele>140.4</ele>
        <time>2021-04-21T13:53:30Z</time>
      </trkpt>
      <trkpt lat="48.51293" lon="3.09312">
        <ele>140.2</ele>
        <time>2021-04-21T13:53:34Z</time>
      </trkpt>
      <trkpt lat="48.51288" lon="3.09322">
        <ele>139.4</ele>
        <time>2021-04-21T13:53:37Z</time>
      </trkpt>
      <trkpt lat="48.51284" lon="3.09328">
        <ele>138.6</ele>
        <time>2021-04-21T13:53:40Z</time>
      </trkpt>
      <trkpt lat="48.51283" lon="3.09334">
        <ele>137.2</ele>
        <time>2021-04-21T13:53:47Z</time>
      </trkpt>
      <trkpt lat="48.51278" lon="3.09336">
        <ele>136.2</ele>
        <time>2021-04-21T13:53:53Z</time>
      </trkpt>
      <trkpt lat="48.51273" lon="3.09335">
        <ele>135.7</ele>
        <time>2021-04-21T13:53:56Z</time>
      </trkpt>
      <trkpt lat="48.51268" lon="3.09335">
        <ele>135.2</ele>
        <time>2021-04-21T13:54:00Z</time>
      </trkpt>
      <trkpt lat="48.51264" lon="3.09334">
        <ele>134.8</ele>
        <time>2021-04-21T13:54:05Z</time>
      </trkpt>
      <trkpt lat="48.51259" lon="3.09334">
        <ele>134.4</ele>
        <time>2021-04-21T13:54:12Z</time>
      </trkpt>
      <trkpt lat="48.51256" lon="3.09328">
        <ele>132.9</ele>
        <time>2021-04-21T13:54:40Z</time>
      </trkpt>
      <trkpt lat="48.51251" lon="3.09326">
        <ele>132.1</ele>
        <time>2021-04-21T13:54:46Z</time>
      </trkpt>
      <trkpt lat="48.51246" lon="3.09325">
        <ele>131.2</ele>
        <time>2021-04-21T13:54:54Z</time>
      </trkpt>
      <trkpt lat="48.51242" lon="3.0932">
        <ele>130.4</ele>
        <time>2021-04-21T13:55:01Z</time>
      </trkpt>
      <trkpt lat="48.51238" lon="3.09317">
        <ele>129.9</ele>
        <time>2021-04-21T13:55:07Z</time>
      </trkpt>
      <trkpt lat="48.51234" lon="3.09314">
        <ele>129.5</ele>
        <time>2021-04-21T13:55:13Z</time>
      </trkpt>
      <trkpt lat="48.51229" lon="3.09311">
        <ele>129.3</ele>
        <time>2021-04-21T13:55:18Z</time>
      </trkpt>
      <trkpt lat="48.51225" lon="3.09308">
        <ele>129.1</ele>
        <time>2021-04-21T13:55:23Z</time>
      </trkpt>
      <trkpt lat="48.5122" lon="3.09306">
        <ele>129</ele>
        <time>2021-04-21T13:55:27Z</time>
      </trkpt>
      <trkpt lat="48.51214" lon="3.09304">
        <ele>129</ele>
        <time>2021-04-21T13:55:31Z</time>
      </trkpt>
      <trkpt lat="48.51209" lon="3.09303">
        <ele>128.8</ele>
        <time>2021-04-21T13:55:35Z</time>
      </trkpt>
      <trkpt lat="48.51204" lon="3.09299">
        <ele>128.5</ele>
        <time>2021-04-21T13:55:40Z</time>
      </trkpt>
      <trkpt lat="48.512" lon="3.09297">
        <ele>128.6</ele>
        <time>2021-04-21T13:55:45Z</time>
      </trkpt>
      <trkpt lat="48.51195" lon="3.09295">
        <ele>128.7</ele>
        <time>2021-04-21T13:55:50Z</time>
      </trkpt>
      <trkpt lat="48.5119" lon="3.09293">
        <ele>128.8</ele>
        <time>2021-04-21T13:55:55Z</time>
      </trkpt>
      <trkpt lat="48.51185" lon="3.0929">
        <ele>129.1</ele>
        <time>2021-04-21T13:56:00Z</time>
      </trkpt>
      <trkpt lat="48.51181" lon="3.0929">
        <ele>129.3</ele>
        <time>2021-04-21T13:56:06Z</time>
      </trkpt>
      <trkpt lat="48.51176" lon="3.09287">
        <ele>129.3</ele>
        <time>2021-04-21T13:56:12Z</time>
      </trkpt>
      <trkpt lat="48.51172" lon="3.09285">
        <ele>129.5</ele>
        <time>2021-04-21T13:56:18Z</time>
      </trkpt>
      <trkpt lat="48.51167" lon="3.09284">
        <ele>129.2</ele>
        <time>2021-04-21T13:56:24Z</time>
      </trkpt>
      <trkpt lat="48.51162" lon="3.09283">
        <ele>128.7</ele>
        <time>2021-04-21T13:56:33Z</time>
      </trkpt>
      <trkpt lat="48.51158" lon="3.09284">
        <ele>128.9</ele>
        <time>2021-04-21T13:56:42Z</time>
      </trkpt>
      <trkpt lat="48.51153" lon="3.09285">
        <ele>129.8</ele>
        <time>2021-04-21T13:56:49Z</time>
      </trkpt>
      <trkpt lat="48.51148" lon="3.09286">
        <ele>131</ele>
        <time>2021-04-21T13:56:54Z</time>
      </trkpt>
      <trkpt lat="48.51144" lon="3.09287">
        <ele>132.5</ele>
        <time>2021-04-21T13:56:59Z</time>
      </trkpt>
      <trkpt lat="48.5114" lon="3.09291">
        <ele>133.8</ele>
        <time>2021-04-21T13:57:04Z</time>
      </trkpt>
      <trkpt lat="48.51136" lon="3.09295">
        <ele>135.2</ele>
        <time>2021-04-21T13:57:09Z</time>
      </trkpt>
      <trkpt lat="48.51131" lon="3.09298">
        <ele>136.8</ele>
        <time>2021-04-21T13:57:15Z</time>
      </trkpt>
      <trkpt lat="48.5113" lon="3.09305">
        <ele>138.4</ele>
        <time>2021-04-21T13:57:20Z</time>
      </trkpt>
      <trkpt lat="48.51132" lon="3.09312">
        <ele>139.8</ele>
        <time>2021-04-21T13:57:25Z</time>
      </trkpt>
      <trkpt lat="48.51131" lon="3.09319">
        <ele>141</ele>
        <time>2021-04-21T13:57:32Z</time>
      </trkpt>
      <trkpt lat="48.51131" lon="3.09327">
        <ele>141.3</ele>
        <time>2021-04-21T13:57:37Z</time>
      </trkpt>
      <trkpt lat="48.51129" lon="3.09333">
        <ele>141.6</ele>
        <time>2021-04-21T13:57:41Z</time>
      </trkpt>
      <trkpt lat="48.51128" lon="3.09341">
        <ele>141.5</ele>
        <time>2021-04-21T13:57:46Z</time>
      </trkpt>
      <trkpt lat="48.51128" lon="3.09349">
        <ele>141.2</ele>
        <time>2021-04-21T13:57:49Z</time>
      </trkpt>
      <trkpt lat="48.51125" lon="3.09354">
        <ele>140.6</ele>
        <time>2021-04-21T13:57:53Z</time>
      </trkpt>
      <trkpt lat="48.51126" lon="3.09361">
        <ele>140.2</ele>
        <time>2021-04-21T13:57:56Z</time>
      </trkpt>
      <trkpt lat="48.51126" lon="3.09368">
        <ele>139.8</ele>
        <time>2021-04-21T13:57:59Z</time>
      </trkpt>
      <trkpt lat="48.51127" lon="3.09375">
        <ele>139.6</ele>
        <time>2021-04-21T13:58:02Z</time>
      </trkpt>
      <trkpt lat="48.51127" lon="3.09383">
        <ele>139.5</ele>
        <time>2021-04-21T13:58:07Z</time>
      </trkpt>
      <trkpt lat="48.51127" lon="3.09391">
        <ele>139.5</ele>
        <time>2021-04-21T13:58:12Z</time>
      </trkpt>
      <trkpt lat="48.51126" lon="3.09397">
        <ele>139.5</ele>
        <time>2021-04-21T13:58:17Z</time>
      </trkpt>
      <trkpt lat="48.51124" lon="3.09405">
        <ele>139.6</ele>
        <time>2021-04-21T13:58:24Z</time>
      </trkpt>
      <trkpt lat="48.51124" lon="3.09412">
        <ele>139.4</ele>
        <time>2021-04-21T13:58:29Z</time>
      </trkpt>
      <trkpt lat="48.51123" lon="3.0942">
        <ele>139.2</ele>
        <time>2021-04-21T13:58:34Z</time>
      </trkpt>
      <trkpt lat="48.51122" lon="3.09427">
        <ele>139</ele>
        <time>2021-04-21T13:58:38Z</time>
      </trkpt>
      <trkpt lat="48.51121" lon="3.09435">
        <ele>138.7</ele>
        <time>2021-04-21T13:58:42Z</time>
      </trkpt>
      <trkpt lat="48.5112" lon="3.09442">
        <ele>138.4</ele>
        <time>2021-04-21T13:58:46Z</time>
      </trkpt>
      <trkpt lat="48.51118" lon="3.09451">
        <ele>137.9</ele>
        <time>2021-04-21T13:58:50Z</time>
      </trkpt>
      <trkpt lat="48.51116" lon="3.09459">
        <ele>137.2</ele>
        <time>2021-04-21T13:58:54Z</time>
      </trkpt>
      <trkpt lat="48.51113" lon="3.09464">
        <ele>136.1</ele>
        <time>2021-04-21T13:58:59Z</time>
      </trkpt>
      <trkpt lat="48.51108" lon="3.09464">
        <ele>134.9</ele>
        <time>2021-04-21T13:59:04Z</time>
      </trkpt>
      <trkpt lat="48.51104" lon="3.09465">
        <ele>133.3</ele>
        <time>2021-04-21T13:59:10Z</time>
      </trkpt>
      <trkpt lat="48.51099" lon="3.09467">
        <ele>131.3</ele>
        <time>2021-04-21T13:59:20Z</time>
      </trkpt>
      <trkpt lat="48.51095" lon="3.09463">
        <ele>130.6</ele>
        <time>2021-04-21T13:59:27Z</time>
      </trkpt>
      <trkpt lat="48.5109" lon="3.09463">
        <ele>130.6</ele>
        <time>2021-04-21T13:59:33Z</time>
      </trkpt>
      <trkpt lat="48.51085" lon="3.09463">
        <ele>130.9</ele>
        <time>2021-04-21T13:59:38Z</time>
      </trkpt>
      <trkpt lat="48.5108" lon="3.09461">
        <ele>131.1</ele>
        <time>2021-04-21T13:59:44Z</time>
      </trkpt>
      <trkpt lat="48.51074" lon="3.0946">
        <ele>131.1</ele>
        <time>2021-04-21T13:59:49Z</time>
      </trkpt>
      <trkpt lat="48.5107" lon="3.09458">
        <ele>131.3</ele>
        <time>2021-04-21T13:59:54Z</time>
      </trkpt>
      <trkpt lat="48.51065" lon="3.09455">
        <ele>131.7</ele>
        <time>2021-04-21T14:00:00Z</time>
      </trkpt>
      <trkpt lat="48.5106" lon="3.09453">
        <ele>132.4</ele>
        <time>2021-04-21T14:00:06Z</time>
      </trkpt>
      <trkpt lat="48.51056" lon="3.09452">
        <ele>133.1</ele>
        <time>2021-04-21T14:00:11Z</time>
      </trkpt>
      <trkpt lat="48.5105" lon="3.09451">
        <ele>133.9</ele>
        <time>2021-04-21T14:00:16Z</time>
      </trkpt>
      <trkpt lat="48.51045" lon="3.0945">
        <ele>134.5</ele>
        <time>2021-04-21T14:00:20Z</time>
      </trkpt>
      <trkpt lat="48.51039" lon="3.09449">
        <ele>135.1</ele>
        <time>2021-04-21T14:00:24Z</time>
      </trkpt>
      <trkpt lat="48.51034" lon="3.09447">
        <ele>135.4</ele>
        <time>2021-04-21T14:00:28Z</time>
      </trkpt>
      <trkpt lat="48.51029" lon="3.09444">
        <ele>135.7</ele>
        <time>2021-04-21T14:00:33Z</time>
      </trkpt>
      <trkpt lat="48.51024" lon="3.09442">
        <ele>135.8</ele>
        <time>2021-04-21T14:00:38Z</time>
      </trkpt>
      <trkpt lat="48.51019" lon="3.09442">
        <ele>135.4</ele>
        <time>2021-04-21T14:00:41Z</time>
      </trkpt>
      <trkpt lat="48.51014" lon="3.09442">
        <ele>134.8</ele>
        <time>2021-04-21T14:00:45Z</time>
      </trkpt>
      <trkpt lat="48.51009" lon="3.09444">
        <ele>134.4</ele>
        <time>2021-04-21T14:00:49Z</time>
      </trkpt>
      <trkpt lat="48.51005" lon="3.09448">
        <ele>134.1</ele>
        <time>2021-04-21T14:00:53Z</time>
      </trkpt>
      <trkpt lat="48.51004" lon="3.09455">
        <ele>133.9</ele>
        <time>2021-04-21T14:00:58Z</time>
      </trkpt>
      <trkpt lat="48.51004" lon="3.09464">
        <ele>133.4</ele>
        <time>2021-04-21T14:01:03Z</time>
      </trkpt>
      <trkpt lat="48.51002" lon="3.0947">
        <ele>132.9</ele>
        <time>2021-04-21T14:01:07Z</time>
      </trkpt>
      <trkpt lat="48.51" lon="3.09477">
        <ele>132.4</ele>
        <time>2021-04-21T14:01:11Z</time>
      </trkpt>
      <trkpt lat="48.51" lon="3.09484">
        <ele>132</ele>
        <time>2021-04-21T14:01:15Z</time>
      </trkpt>
      <trkpt lat="48.50999" lon="3.09491">
        <ele>131.5</ele>
        <time>2021-04-21T14:01:19Z</time>
      </trkpt>
      <trkpt lat="48.50998" lon="3.09499">
        <ele>131.2</ele>
        <time>2021-04-21T14:01:23Z</time>
      </trkpt>
      <trkpt lat="48.50998" lon="3.09506">
        <ele>130.9</ele>
        <time>2021-04-21T14:01:27Z</time>
      </trkpt>
      <trkpt lat="48.50997" lon="3.09513">
        <ele>130.6</ele>
        <time>2021-04-21T14:01:31Z</time>
      </trkpt>
      <trkpt lat="48.50996" lon="3.0952">
        <ele>130.4</ele>
        <time>2021-04-21T14:01:35Z</time>
      </trkpt>
      <trkpt lat="48.50995" lon="3.09529">
        <ele>130.3</ele>
        <time>2021-04-21T14:01:40Z</time>
      </trkpt>
      <trkpt lat="48.50994" lon="3.09535">
        <ele>130.1</ele>
        <time>2021-04-21T14:01:43Z</time>
      </trkpt>
      <trkpt lat="48.50994" lon="3.09544">
        <ele>129.6</ele>
        <time>2021-04-21T14:01:47Z</time>
      </trkpt>
      <trkpt lat="48.50993" lon="3.09552">
        <ele>129</ele>
        <time>2021-04-21T14:01:51Z</time>
      </trkpt>
      <trkpt lat="48.50991" lon="3.0956">
        <ele>128.4</ele>
        <time>2021-04-21T14:01:55Z</time>
      </trkpt>
      <trkpt lat="48.5099" lon="3.09567">
        <ele>128</ele>
        <time>2021-04-21T14:01:58Z</time>
      </trkpt>
      <trkpt lat="48.50989" lon="3.09576">
        <ele>127.3</ele>
        <time>2021-04-21T14:02:02Z</time>
      </trkpt>
      <trkpt lat="48.50989" lon="3.09583">
        <ele>126.3</ele>
        <time>2021-04-21T14:02:06Z</time>
      </trkpt>
      <trkpt lat="48.50989" lon="3.0959">
        <ele>125.6</ele>
        <time>2021-04-21T14:02:10Z</time>
      </trkpt>
      <trkpt lat="48.50988" lon="3.09598">
        <ele>124.8</ele>
        <time>2021-04-21T14:02:15Z</time>
      </trkpt>
      <trkpt lat="48.50987" lon="3.09605">
        <ele>124.5</ele>
        <time>2021-04-21T14:02:19Z</time>
      </trkpt>
      <trkpt lat="48.50986" lon="3.09612">
        <ele>124.4</ele>
        <time>2021-04-21T14:02:23Z</time>
      </trkpt>
      <trkpt lat="48.50986" lon="3.0962">
        <ele>124.3</ele>
        <time>2021-04-21T14:02:28Z</time>
      </trkpt>
      <trkpt lat="48.50985" lon="3.09627">
        <ele>124.6</ele>
        <time>2021-04-21T14:02:33Z</time>
      </trkpt>
      <trkpt lat="48.50984" lon="3.09635">
        <ele>125.8</ele>
        <time>2021-04-21T14:02:39Z</time>
      </trkpt>
      <trkpt lat="48.50983" lon="3.09641">
        <ele>126.8</ele>
        <time>2021-04-21T14:02:43Z</time>
      </trkpt>
      <trkpt lat="48.50982" lon="3.09648">
        <ele>127.7</ele>
        <time>2021-04-21T14:02:47Z</time>
      </trkpt>
      <trkpt lat="48.50982" lon="3.09656">
        <ele>128.7</ele>
        <time>2021-04-21T14:02:51Z</time>
      </trkpt>
      <trkpt lat="48.50982" lon="3.09663">
        <ele>129.6</ele>
        <time>2021-04-21T14:02:55Z</time>
      </trkpt>
      <trkpt lat="48.50981" lon="3.09669">
        <ele>130.2</ele>
        <time>2021-04-21T14:02:59Z</time>
      </trkpt>
      <trkpt lat="48.5098" lon="3.09677">
        <ele>130.7</ele>
        <time>2021-04-21T14:03:03Z</time>
      </trkpt>
      <trkpt lat="48.50978" lon="3.09684">
        <ele>131.1</ele>
        <time>2021-04-21T14:03:07Z</time>
      </trkpt>
      <trkpt lat="48.50977" lon="3.09692">
        <ele>131.2</ele>
        <time>2021-04-21T14:03:11Z</time>
      </trkpt>
      <trkpt lat="48.50978" lon="3.09699">
        <ele>131.2</ele>
        <time>2021-04-21T14:03:15Z</time>
      </trkpt>
      <trkpt lat="48.50979" lon="3.09707">
        <ele>131</ele>
        <time>2021-04-21T14:03:20Z</time>
      </trkpt>
      <trkpt lat="48.5098" lon="3.09715">
        <ele>130.6</ele>
        <time>2021-04-21T14:03:24Z</time>
      </trkpt>
      <trkpt lat="48.5098" lon="3.09723">
        <ele>130.2</ele>
        <time>2021-04-21T14:03:29Z</time>
      </trkpt>
      <trkpt lat="48.5098" lon="3.09731">
        <ele>129.9</ele>
        <time>2021-04-21T14:03:33Z</time>
      </trkpt>
      <trkpt lat="48.50982" lon="3.09738">
        <ele>129.9</ele>
        <time>2021-04-21T14:03:37Z</time>
      </trkpt>
      <trkpt lat="48.50984" lon="3.09745">
        <ele>130</ele>
        <time>2021-04-21T14:03:41Z</time>
      </trkpt>
      <trkpt lat="48.50985" lon="3.09753">
        <ele>130.5</ele>
        <time>2021-04-21T14:03:46Z</time>
      </trkpt>
      <trkpt lat="48.50985" lon="3.0976">
        <ele>131.1</ele>
        <time>2021-04-21T14:03:52Z</time>
      </trkpt>
      <trkpt lat="48.50984" lon="3.09767">
        <ele>131.7</ele>
        <time>2021-04-21T14:03:57Z</time>
      </trkpt>
      <trkpt lat="48.50984" lon="3.09774">
        <ele>132</ele>
        <time>2021-04-21T14:04:01Z</time>
      </trkpt>
      <trkpt lat="48.50984" lon="3.09782">
        <ele>132.3</ele>
        <time>2021-04-21T14:04:06Z</time>
      </trkpt>
      <trkpt lat="48.50984" lon="3.09791">
        <ele>132.5</ele>
        <time>2021-04-21T14:04:11Z</time>
      </trkpt>
      <trkpt lat="48.50984" lon="3.09799">
        <ele>132.3</ele>
        <time>2021-04-21T14:04:15Z</time>
      </trkpt>
      <trkpt lat="48.50984" lon="3.09808">
        <ele>132.1</ele>
        <time>2021-04-21T14:04:19Z</time>
      </trkpt>
      <trkpt lat="48.50984" lon="3.09816">
        <ele>131.8</ele>
        <time>2021-04-21T14:04:23Z</time>
      </trkpt>
      <trkpt lat="48.50984" lon="3.09824">
        <ele>131.5</ele>
        <time>2021-04-21T14:04:27Z</time>
      </trkpt>
      <trkpt lat="48.50985" lon="3.09831">
        <ele>131.1</ele>
        <time>2021-04-21T14:04:30Z</time>
      </trkpt>
      <trkpt lat="48.50987" lon="3.09837">
        <ele>130.7</ele>
        <time>2021-04-21T14:04:33Z</time>
      </trkpt>
      <trkpt lat="48.50989" lon="3.09845">
        <ele>130.1</ele>
        <time>2021-04-21T14:04:37Z</time>
      </trkpt>
      <trkpt lat="48.5099" lon="3.09853">
        <ele>129.4</ele>
        <time>2021-04-21T14:04:42Z</time>
      </trkpt>
      <trkpt lat="48.50989" lon="3.09861">
        <ele>128.9</ele>
        <time>2021-04-21T14:04:47Z</time>
      </trkpt>
      <trkpt lat="48.50989" lon="3.09869">
        <ele>128.4</ele>
        <time>2021-04-21T14:04:52Z</time>
      </trkpt>
      <trkpt lat="48.5099" lon="3.09876">
        <ele>127.9</ele>
        <time>2021-04-21T14:04:57Z</time>
      </trkpt>
      <trkpt lat="48.5099" lon="3.09885">
        <ele>127.2</ele>
        <time>2021-04-21T14:05:02Z</time>
      </trkpt>
      <trkpt lat="48.50989" lon="3.09893">
        <ele>126.4</ele>
        <time>2021-04-21T14:05:07Z</time>
      </trkpt>
      <trkpt lat="48.50988" lon="3.099">
        <ele>125.8</ele>
        <time>2021-04-21T14:05:11Z</time>
      </trkpt>
      <trkpt lat="48.50987" lon="3.09908">
        <ele>125.1</ele>
        <time>2021-04-21T14:05:15Z</time>
      </trkpt>
      <trkpt lat="48.50986" lon="3.09915">
        <ele>124.6</ele>
        <time>2021-04-21T14:05:18Z</time>
      </trkpt>
      <trkpt lat="48.50985" lon="3.09922">
        <ele>124</ele>
        <time>2021-04-21T14:05:21Z</time>
      </trkpt>
      <trkpt lat="48.50984" lon="3.0993">
        <ele>123.2</ele>
        <time>2021-04-21T14:05:25Z</time>
      </trkpt>
      <trkpt lat="48.50981" lon="3.09937">
        <ele>122.1</ele>
        <time>2021-04-21T14:05:29Z</time>
      </trkpt>
      <trkpt lat="48.50979" lon="3.09943">
        <ele>121.2</ele>
        <time>2021-04-21T14:05:32Z</time>
      </trkpt>
      <trkpt lat="48.50977" lon="3.0995">
        <ele>118.8</ele>
        <time>2021-04-21T14:05:38Z</time>
      </trkpt>
      <trkpt lat="48.50981" lon="3.09953">
        <ele>116.3</ele>
        <time>2021-04-21T14:05:46Z</time>
      </trkpt>
      <trkpt lat="48.50986" lon="3.09957">
        <ele>115.5</ele>
        <time>2021-04-21T14:05:51Z</time>
      </trkpt>
      <trkpt lat="48.5099" lon="3.0996">
        <ele>115.1</ele>
        <time>2021-04-21T14:05:55Z</time>
      </trkpt>
      <trkpt lat="48.50996" lon="3.09962">
        <ele>114.9</ele>
        <time>2021-04-21T14:05:59Z</time>
      </trkpt>
      <trkpt lat="48.51002" lon="3.09963">
        <ele>114.6</ele>
        <time>2021-04-21T14:06:03Z</time>
      </trkpt>
      <trkpt lat="48.51007" lon="3.09964">
        <ele>114.5</ele>
        <time>2021-04-21T14:06:07Z</time>
      </trkpt>
      <trkpt lat="48.51012" lon="3.09966">
        <ele>114.7</ele>
        <time>2021-04-21T14:06:12Z</time>
      </trkpt>
      <trkpt lat="48.51017" lon="3.09967">
        <ele>115.2</ele>
        <time>2021-04-21T14:06:18Z</time>
      </trkpt>
      <trkpt lat="48.51021" lon="3.09969">
        <ele>115.4</ele>
        <time>2021-04-21T14:06:22Z</time>
      </trkpt>
      <trkpt lat="48.51026" lon="3.09971">
        <ele>115.6</ele>
        <time>2021-04-21T14:06:26Z</time>
      </trkpt>
      <trkpt lat="48.51031" lon="3.09973">
        <ele>116.2</ele>
        <time>2021-04-21T14:06:31Z</time>
      </trkpt>
      <trkpt lat="48.51036" lon="3.09976">
        <ele>116.7</ele>
        <time>2021-04-21T14:06:35Z</time>
      </trkpt>
      <trkpt lat="48.51041" lon="3.09978">
        <ele>117</ele>
        <time>2021-04-21T14:06:39Z</time>
      </trkpt>
      <trkpt lat="48.51047" lon="3.0998">
        <ele>117.3</ele>
        <time>2021-04-21T14:06:43Z</time>
      </trkpt>
      <trkpt lat="48.51052" lon="3.09981">
        <ele>117.7</ele>
        <time>2021-04-21T14:06:47Z</time>
      </trkpt>
      <trkpt lat="48.51056" lon="3.09983">
        <ele>118.3</ele>
        <time>2021-04-21T14:06:51Z</time>
      </trkpt>
      <trkpt lat="48.5106" lon="3.09985">
        <ele>119.1</ele>
        <time>2021-04-21T14:06:55Z</time>
      </trkpt>
      <trkpt lat="48.51065" lon="3.09989">
        <ele>120.2</ele>
        <time>2021-04-21T14:07:00Z</time>
      </trkpt>
      <trkpt lat="48.5107" lon="3.09992">
        <ele>122.2</ele>
        <time>2021-04-21T14:07:09Z</time>
      </trkpt>
      <trkpt lat="48.51075" lon="3.09992">
        <ele>122.9</ele>
        <time>2021-04-21T14:07:14Z</time>
      </trkpt>
      <trkpt lat="48.51078" lon="3.09998">
        <ele>123</ele>
        <time>2021-04-21T14:07:18Z</time>
      </trkpt>
      <trkpt lat="48.51083" lon="3.1">
        <ele>123.7</ele>
        <time>2021-04-21T14:07:23Z</time>
      </trkpt>
      <trkpt lat="48.51087" lon="3.10004">
        <ele>127</ele>
        <time>2021-04-21T14:07:44Z</time>
      </trkpt>
      <trkpt lat="48.51092" lon="3.10007">
        <ele>126.3</ele>
        <time>2021-04-21T14:08:00Z</time>
      </trkpt>
      <trkpt lat="48.51095" lon="3.10012">
        <ele>126.3</ele>
        <time>2021-04-21T14:08:53Z</time>
      </trkpt>
      <trkpt lat="48.51093" lon="3.10019">
        <ele>126.9</ele>
        <time>2021-04-21T14:09:00Z</time>
      </trkpt>
      <trkpt lat="48.51088" lon="3.10023">
        <ele>127.7</ele>
        <time>2021-04-21T14:09:06Z</time>
      </trkpt>
      <trkpt lat="48.51084" lon="3.10027">
        <ele>128.7</ele>
        <time>2021-04-21T14:09:11Z</time>
      </trkpt>
      <trkpt lat="48.5108" lon="3.10032">
        <ele>130.1</ele>
        <time>2021-04-21T14:09:16Z</time>
      </trkpt>
      <trkpt lat="48.51076" lon="3.10036">
        <ele>131.8</ele>
        <time>2021-04-21T14:09:25Z</time>
      </trkpt>
      <trkpt lat="48.5108" lon="3.10042">
        <ele>132.7</ele>
        <time>2021-04-21T14:10:17Z</time>
      </trkpt>
      <trkpt lat="48.51085" lon="3.10048">
        <ele>132.9</ele>
        <time>2021-04-21T14:10:43Z</time>
      </trkpt>
      <trkpt lat="48.51089" lon="3.10053">
        <ele>132.4</ele>
        <time>2021-04-21T14:10:46Z</time>
      </trkpt>
    </trkseg>
  </trk>
</gpx>